PWSweather.com
Personal Weather Stations
Station Observations
GHWX1
Golden Heights, Sturgeon County, AB T0A1N5

Golden HeightsSturgeon County, AB T0A1N5

Lat: 53.919, Lon: -113.37

Elevation: 2159

Station Type:

http://www.ghwx.ca

High Low Average
Temperature -5.3°F-20.7°C -31.7°F-35.4°C -15.5°F-26.4°C
Dew Point -9.1°F-22.8°C -35.5°F-37.5°C -19.2°F-28.4°C
Winds 9.0 mph 14.5 kmh Calm Calm 3.0 mph ESE4.8 kmh ESE
Wind Gusts -- -- --
Humidity 88% 80% 83%
Pressure 30.30 in1026.1 mb 29.96 in1014.6 mb -
Precipitation 0.00 in0.0 mm - -
Hour Temp Dew Point Humidity Winds Wind Gusts Pressure Precip Precip Rate Daily Precip Total
12:00 AM -29.2°F-34.0°C -32.6°F-35.9°C 83% Calm Calm -- 30.33 in1027.1 mb 0.00 in0.0 mm 0.00 in0.0 mm 0.00 in0.0 mm
12:01 AM -29.2°F-34.0°C -32.6°F-35.9°C 83% Calm Calm -- 30.32 in1026.8 mb 0.00 in0.0 mm 0.00 in0.0 mm 0.00 in0.0 mm
12:02 AM -29.2°F-34.0°C -32.6°F-35.9°C 83% Calm Calm -- 30.33 in1027.1 mb 0.00 in0.0 mm 0.00 in0.0 mm 0.00 in0.0 mm
12:04 AM -29.2°F-34.0°C -32.6°F-35.9°C 83% Calm Calm -- 30.32 in1026.8 mb 0.00 in0.0 mm 0.00 in0.0 mm 0.00 in0.0 mm
12:06 AM -29.2°F-34.0°C -32.6°F-35.9°C 83% Calm Calm -- 30.33 in1027.1 mb 0.00 in0.0 mm 0.00 in0.0 mm 0.00 in0.0 mm
12:07 AM -29.2°F-34.0°C -32.6°F-35.9°C 83% Calm Calm -- 30.32 in1026.8 mb 0.00 in0.0 mm 0.00 in0.0 mm 0.00 in0.0 mm
12:12 AM -29.6°F-34.2°C -32.9°F-36.1°C 83% Calm Calm -- 30.32 in1026.8 mb 0.00 in0.0 mm 0.00 in0.0 mm 0.00 in0.0 mm
12:13 AM -29.6°F-34.2°C -33.4°F-36.3°C 81% Calm Calm -- 30.32 in1026.8 mb 0.00 in0.0 mm 0.00 in0.0 mm 0.00 in0.0 mm
12:14 AM -30.0°F-34.4°C -33.7°F-36.5°C 81% Calm Calm -- 30.32 in1026.8 mb 0.00 in0.0 mm 0.00 in0.0 mm 0.00 in0.0 mm
12:15 AM -30.2°F-34.6°C -34.1°F-36.7°C 81% Calm Calm -- 30.32 in1026.8 mb 0.00 in0.0 mm 0.00 in0.0 mm 0.00 in0.0 mm
12:16 AM -30.0°F-34.4°C -33.7°F-36.5°C 81% Calm Calm -- 30.32 in1026.8 mb 0.00 in0.0 mm 0.00 in0.0 mm 0.00 in0.0 mm
12:17 AM -29.8°F-34.3°C -33.5°F-36.4°C 81% Calm Calm -- 30.32 in1026.8 mb 0.00 in0.0 mm 0.00 in0.0 mm 0.00 in0.0 mm
12:26 AM -30.0°F-34.4°C -33.7°F-36.5°C 81% Calm Calm -- 30.31 in1026.4 mb 0.00 in0.0 mm 0.00 in0.0 mm 0.00 in0.0 mm
12:34 AM -30.2°F-34.6°C -34.1°F-36.7°C 81% Calm Calm -- 30.31 in1026.4 mb 0.00 in0.0 mm 0.00 in0.0 mm 0.00 in0.0 mm
12:42 AM -30.2°F-34.6°C -34.1°F-36.7°C 81% Calm Calm -- 30.30 in1026.1 mb 0.00 in0.0 mm 0.00 in0.0 mm 0.00 in0.0 mm
12:43 AM -30.0°F-34.4°C -33.7°F-36.5°C 81% Calm Calm -- 30.30 in1026.1 mb 0.00 in0.0 mm 0.00 in0.0 mm 0.00 in0.0 mm
12:45 AM -30.0°F-34.4°C -33.7°F-36.5°C 81% Calm Calm -- 30.31 in1026.4 mb 0.00 in0.0 mm 0.00 in0.0 mm 0.00 in0.0 mm
12:46 AM -30.0°F-34.4°C -33.7°F-36.5°C 81% Calm Calm -- 30.30 in1026.1 mb 0.00 in0.0 mm 0.00 in0.0 mm 0.00 in0.0 mm
12:47 AM -30.0°F-34.4°C -33.7°F-36.5°C 81% Calm Calm -- 30.30 in1026.1 mb 0.00 in0.0 mm 0.00 in0.0 mm 0.00 in0.0 mm
12:50 AM -29.8°F-34.3°C -33.5°F-36.4°C 81% Calm Calm -- 30.30 in1026.1 mb 0.00 in0.0 mm 0.00 in0.0 mm 0.00 in0.0 mm
12:52 AM -29.8°F-34.3°C -33.5°F-36.4°C 81% Calm Calm -- 30.30 in1026.1 mb 0.00 in0.0 mm 0.00 in0.0 mm 0.00 in0.0 mm
12:54 AM -29.8°F-34.3°C -33.5°F-36.4°C 81% Calm Calm -- 30.30 in1026.1 mb 0.00 in0.0 mm 0.00 in0.0 mm 0.00 in0.0 mm
12:56 AM -30.0°F-34.4°C -33.7°F-36.5°C 81% Calm Calm -- 30.30 in1026.1 mb 0.00 in0.0 mm 0.00 in0.0 mm 0.00 in0.0 mm
01:01 AM -29.8°F-34.3°C -33.5°F-36.4°C 81% Calm Calm -- 30.30 in1026.1 mb 0.00 in0.0 mm 0.00 in0.0 mm 0.00 in0.0 mm
01:02 AM -29.8°F-34.3°C -33.5°F-36.4°C 81% Calm Calm -- 30.30 in1026.1 mb 0.00 in0.0 mm 0.00 in0.0 mm 0.00 in0.0 mm
01:03 AM -29.8°F-34.3°C -33.5°F-36.4°C 81% Calm Calm -- 30.30 in1026.1 mb 0.00 in0.0 mm 0.00 in0.0 mm 0.00 in0.0 mm
01:05 AM -29.8°F-34.3°C -33.5°F-36.4°C 81% Calm Calm -- 30.29 in1025.7 mb 0.00 in0.0 mm 0.00 in0.0 mm 0.00 in0.0 mm
01:06 AM -29.8°F-34.3°C -33.5°F-36.4°C 81% Calm Calm -- 30.30 in1026.1 mb 0.00 in0.0 mm 0.00 in0.0 mm 0.00 in0.0 mm
01:07 AM -29.8°F-34.3°C -33.5°F-36.4°C 81% Calm Calm -- 30.30 in1026.1 mb 0.00 in0.0 mm 0.00 in0.0 mm 0.00 in0.0 mm
01:08 AM -29.8°F-34.3°C -33.5°F-36.4°C 81% Calm Calm -- 30.30 in1026.1 mb 0.00 in0.0 mm 0.00 in0.0 mm 0.00 in0.0 mm
01:09 AM -29.8°F-34.3°C -33.5°F-36.4°C 81% Calm Calm -- 30.29 in1025.7 mb 0.00 in0.0 mm 0.00 in0.0 mm 0.00 in0.0 mm
01:10 AM -29.8°F-34.3°C -33.5°F-36.4°C 81% Calm Calm -- 30.29 in1025.7 mb 0.00 in0.0 mm 0.00 in0.0 mm 0.00 in0.0 mm
01:11 AM -29.6°F-34.2°C -33.4°F-36.3°C 81% Calm Calm -- 30.29 in1025.7 mb 0.00 in0.0 mm 0.00 in0.0 mm 0.00 in0.0 mm
01:12 AM -29.6°F-34.2°C -33.4°F-36.3°C 81% Calm Calm -- 30.29 in1025.7 mb 0.00 in0.0 mm 0.00 in0.0 mm 0.00 in0.0 mm
01:14 AM -29.6°F-34.2°C -33.4°F-36.3°C 81% Calm Calm -- 30.29 in1025.7 mb 0.00 in0.0 mm 0.00 in0.0 mm 0.00 in0.0 mm
01:15 AM -29.4°F-34.1°C -33.2°F-36.2°C 81% Calm Calm -- 30.29 in1025.7 mb 0.00 in0.0 mm 0.00 in0.0 mm 0.00 in0.0 mm
01:16 AM -29.2°F-34.0°C -33.0°F-36.1°C 81% Calm Calm -- 30.29 in1025.7 mb 0.00 in0.0 mm 0.00 in0.0 mm 0.00 in0.0 mm
01:21 AM -29.0°F-33.9°C -32.8°F-36.0°C 81% Calm Calm -- 30.29 in1025.7 mb 0.00 in0.0 mm 0.00 in0.0 mm 0.00 in0.0 mm
01:22 AM -28.7°F-33.7°C -32.5°F-35.8°C 81% Calm Calm -- 30.29 in1025.7 mb 0.00 in0.0 mm 0.00 in0.0 mm 0.00 in0.0 mm
01:26 AM -29.0°F-33.9°C -32.8°F-36.0°C 81% Calm Calm -- 30.29 in1025.7 mb 0.00 in0.0 mm 0.00 in0.0 mm 0.00 in0.0 mm
01:31 AM -28.7°F-33.7°C -32.5°F-35.8°C 81% Calm Calm -- 30.29 in1025.7 mb 0.00 in0.0 mm 0.00 in0.0 mm 0.00 in0.0 mm
01:32 AM -28.7°F-33.7°C -32.5°F-35.8°C 81% Calm Calm -- 30.29 in1025.7 mb 0.00 in0.0 mm 0.00 in0.0 mm 0.00 in0.0 mm
01:34 AM -28.7°F-33.7°C -32.5°F-35.8°C 81% Calm Calm -- 30.28 in1025.4 mb 0.00 in0.0 mm 0.00 in0.0 mm 0.00 in0.0 mm
01:35 AM -28.6°F-33.7°C -32.5°F-35.8°C 81% Calm Calm -- 30.28 in1025.4 mb 0.00 in0.0 mm 0.00 in0.0 mm 0.00 in0.0 mm
01:37 AM -28.6°F-33.7°C -32.5°F-35.8°C 81% Calm Calm -- 30.29 in1025.7 mb 0.00 in0.0 mm 0.00 in0.0 mm 0.00 in0.0 mm
01:39 AM -28.6°F-33.7°C -32.5°F-35.8°C 81% Calm Calm -- 30.29 in1025.7 mb 0.00 in0.0 mm 0.00 in0.0 mm 0.00 in0.0 mm
01:40 AM -28.4°F-33.6°C -32.3°F-35.7°C 81% Calm Calm -- 30.28 in1025.4 mb 0.00 in0.0 mm 0.00 in0.0 mm 0.00 in0.0 mm
01:41 AM -28.4°F-33.6°C -32.3°F-35.7°C 81% Calm Calm -- 30.28 in1025.4 mb 0.00 in0.0 mm 0.00 in0.0 mm 0.00 in0.0 mm
01:43 AM -28.4°F-33.6°C -32.3°F-35.7°C 81% Calm Calm -- 30.28 in1025.4 mb 0.00 in0.0 mm 0.00 in0.0 mm 0.00 in0.0 mm
01:48 AM -28.4°F-33.6°C -32.3°F-35.7°C 81% Calm Calm -- 30.27 in1025.1 mb 0.00 in0.0 mm 0.00 in0.0 mm 0.00 in0.0 mm
01:49 AM -28.4°F-33.6°C -32.3°F-35.7°C 81% Calm Calm -- 30.28 in1025.4 mb 0.00 in0.0 mm 0.00 in0.0 mm 0.00 in0.0 mm
01:50 AM -28.4°F-33.6°C -32.3°F-35.7°C 81% Calm Calm -- 30.27 in1025.1 mb 0.00 in0.0 mm 0.00 in0.0 mm 0.00 in0.0 mm
02:01 AM -28.4°F-33.6°C -32.3°F-35.7°C 81% Calm Calm -- 30.26 in1024.7 mb 0.00 in0.0 mm 0.00 in0.0 mm 0.00 in0.0 mm
02:02 AM -28.4°F-33.6°C -32.3°F-35.7°C 81% Calm Calm -- 30.27 in1025.1 mb 0.00 in0.0 mm 0.00 in0.0 mm 0.00 in0.0 mm
02:04 AM -28.4°F-33.6°C -32.3°F-35.7°C 81% Calm Calm -- 30.26 in1024.7 mb 0.00 in0.0 mm 0.00 in0.0 mm 0.00 in0.0 mm
02:14 AM -28.2°F-33.4°C -32.0°F-35.6°C 81% Calm Calm -- 30.26 in1024.7 mb 0.00 in0.0 mm 0.00 in0.0 mm 0.00 in0.0 mm
02:24 AM -28.2°F-33.4°C -32.0°F-35.6°C 81% Calm Calm -- 30.25 in1024.4 mb 0.00 in0.0 mm 0.00 in0.0 mm 0.00 in0.0 mm
02:25 AM -28.2°F-33.4°C -32.0°F-35.6°C 81% Calm Calm -- 30.26 in1024.7 mb 0.00 in0.0 mm 0.00 in0.0 mm 0.00 in0.0 mm
02:26 AM -28.2°F-33.4°C -32.0°F-35.6°C 81% Calm Calm -- 30.25 in1024.4 mb 0.00 in0.0 mm 0.00 in0.0 mm 0.00 in0.0 mm
02:28 AM -28.0°F-33.3°C -31.8°F-35.4°C 81% Calm Calm -- 30.25 in1024.4 mb 0.00 in0.0 mm 0.00 in0.0 mm 0.00 in0.0 mm
02:29 AM -28.0°F-33.3°C -31.8°F-35.4°C 81% Calm Calm -- 30.26 in1024.7 mb 0.00 in0.0 mm 0.00 in0.0 mm 0.00 in0.0 mm
02:30 AM -28.0°F-33.3°C -31.8°F-35.4°C 81% Calm Calm -- 30.25 in1024.4 mb 0.00 in0.0 mm 0.00 in0.0 mm 0.00 in0.0 mm
02:33 AM -28.0°F-33.3°C -31.8°F-35.4°C 81% Calm Calm -- 30.25 in1024.4 mb 0.00 in0.0 mm 0.00 in0.0 mm 0.00 in0.0 mm
02:37 AM -28.2°F-33.4°C -32.0°F-35.6°C 81% Calm Calm -- 30.25 in1024.4 mb 0.00 in0.0 mm 0.00 in0.0 mm 0.00 in0.0 mm
02:42 AM -28.4°F-33.6°C -32.3°F-35.7°C 81% Calm Calm -- 30.25 in1024.4 mb 0.00 in0.0 mm 0.00 in0.0 mm 0.00 in0.0 mm
02:43 AM -28.4°F-33.6°C -32.3°F-35.7°C 81% Calm Calm -- 30.25 in1024.4 mb 0.00 in0.0 mm 0.00 in0.0 mm 0.00 in0.0 mm
02:45 AM -28.4°F-33.6°C -32.3°F-35.7°C 81% Calm Calm -- 30.24 in1024.0 mb 0.00 in0.0 mm 0.00 in0.0 mm 0.00 in0.0 mm
02:47 AM -28.4°F-33.6°C -32.3°F-35.7°C 81% Calm Calm -- 30.25 in1024.4 mb 0.00 in0.0 mm 0.00 in0.0 mm 0.00 in0.0 mm
02:48 AM -28.4°F-33.6°C -32.3°F-35.7°C 81% Calm Calm -- 30.24 in1024.0 mb 0.00 in0.0 mm 0.00 in0.0 mm 0.00 in0.0 mm
02:51 AM -28.4°F-33.6°C -32.3°F-35.7°C 81% Calm Calm -- 30.25 in1024.4 mb 0.00 in0.0 mm 0.00 in0.0 mm 0.00 in0.0 mm
02:52 AM -28.2°F-33.4°C -32.0°F-35.6°C 81% Calm Calm -- 30.25 in1024.4 mb 0.00 in0.0 mm 0.00 in0.0 mm 0.00 in0.0 mm
02:53 AM -28.2°F-33.4°C -32.0°F-35.6°C 81% Calm Calm -- 30.24 in1024.0 mb 0.00 in0.0 mm 0.00 in0.0 mm 0.00 in0.0 mm
03:08 AM -28.4°F-33.6°C -32.3°F-35.7°C 81% Calm Calm -- 30.24 in1024.0 mb 0.00 in0.0 mm 0.00 in0.0 mm 0.00 in0.0 mm
03:11 AM -28.6°F-33.7°C -32.5°F-35.8°C 81% Calm Calm -- 30.24 in1024.0 mb 0.00 in0.0 mm 0.00 in0.0 mm 0.00 in0.0 mm
03:14 AM -28.6°F-33.7°C -32.5°F-35.8°C 81% Calm Calm -- 30.23 in1023.7 mb 0.00 in0.0 mm 0.00 in0.0 mm 0.00 in0.0 mm
03:16 AM -28.6°F-33.7°C -32.5°F-35.8°C 81% Calm Calm -- 30.24 in1024.0 mb 0.00 in0.0 mm 0.00 in0.0 mm 0.00 in0.0 mm
03:19 AM -28.6°F-33.7°C -32.5°F-35.8°C 81% Calm Calm -- 30.23 in1023.7 mb 0.00 in0.0 mm 0.00 in0.0 mm 0.00 in0.0 mm
03:20 AM -28.6°F-33.7°C -32.5°F-35.8°C 81% Calm Calm -- 30.24 in1024.0 mb 0.00 in0.0 mm 0.00 in0.0 mm 0.00 in0.0 mm
03:22 AM -28.4°F-33.6°C -32.3°F-35.7°C 81% Calm Calm -- 30.24 in1024.0 mb 0.00 in0.0 mm 0.00 in0.0 mm 0.00 in0.0 mm
03:24 AM -28.2°F-33.4°C -32.0°F-35.6°C 81% Calm Calm -- 30.24 in1024.0 mb 0.00 in0.0 mm 0.00 in0.0 mm 0.00 in0.0 mm
03:31 AM -28.2°F-33.4°C -32.0°F-35.6°C 81% Calm Calm -- 30.23 in1023.7 mb 0.00 in0.0 mm 0.00 in0.0 mm 0.00 in0.0 mm
03:33 AM -28.2°F-33.4°C -32.0°F-35.6°C 81% Calm Calm -- 30.24 in1024.0 mb 0.00 in0.0 mm 0.00 in0.0 mm 0.00 in0.0 mm
03:34 AM -28.4°F-33.6°C -32.3°F-35.7°C 81% Calm Calm -- 30.24 in1024.0 mb 0.00 in0.0 mm 0.00 in0.0 mm 0.00 in0.0 mm
03:37 AM -28.4°F-33.6°C -32.3°F-35.7°C 81% Calm Calm -- 30.23 in1023.7 mb 0.00 in0.0 mm 0.00 in0.0 mm 0.00 in0.0 mm
03:38 AM -28.4°F-33.6°C -32.3°F-35.7°C 81% Calm Calm -- 30.24 in1024.0 mb 0.00 in0.0 mm 0.00 in0.0 mm 0.00 in0.0 mm
03:39 AM -28.6°F-33.7°C -32.5°F-35.8°C 81% Calm Calm -- 30.24 in1024.0 mb 0.00 in0.0 mm 0.00 in0.0 mm 0.00 in0.0 mm
03:40 AM -28.6°F-33.7°C -32.5°F-35.8°C 81% Calm Calm -- 30.23 in1023.7 mb 0.00 in0.0 mm 0.00 in0.0 mm 0.00 in0.0 mm
03:44 AM -28.7°F-33.7°C -32.5°F-35.8°C 81% Calm Calm -- 30.24 in1024.0 mb 0.00 in0.0 mm 0.00 in0.0 mm 0.00 in0.0 mm
03:45 AM -28.7°F-33.7°C -32.5°F-35.8°C 81% Calm Calm -- 30.23 in1023.7 mb 0.00 in0.0 mm 0.00 in0.0 mm 0.00 in0.0 mm
03:48 AM -28.7°F-33.7°C -32.5°F-35.8°C 81% Calm Calm -- 30.24 in1024.0 mb 0.00 in0.0 mm 0.00 in0.0 mm 0.00 in0.0 mm
03:52 AM -28.7°F-33.7°C -32.5°F-35.8°C 81% Calm Calm -- 30.23 in1023.7 mb 0.00 in0.0 mm 0.00 in0.0 mm 0.00 in0.0 mm
03:55 AM -29.0°F-33.9°C -32.8°F-36.0°C 81% Calm Calm -- 30.23 in1023.7 mb 0.00 in0.0 mm 0.00 in0.0 mm 0.00 in0.0 mm
03:56 AM -29.2°F-34.0°C -33.0°F-36.1°C 81% Calm Calm -- 30.23 in1023.7 mb 0.00 in0.0 mm 0.00 in0.0 mm 0.00 in0.0 mm
03:58 AM -29.4°F-34.1°C -33.2°F-36.2°C 81% Calm Calm -- 30.23 in1023.7 mb 0.00 in0.0 mm 0.00 in0.0 mm 0.00 in0.0 mm
04:02 AM -29.6°F-34.2°C -33.4°F-36.3°C 81% Calm Calm -- 30.23 in1023.7 mb 0.00 in0.0 mm 0.00 in0.0 mm 0.00 in0.0 mm
04:05 AM -29.6°F-34.2°C -33.4°F-36.3°C 81% Calm Calm -- 30.22 in1023.4 mb 0.00 in0.0 mm 0.00 in0.0 mm 0.00 in0.0 mm
04:07 AM -29.6°F-34.2°C -33.4°F-36.3°C 81% Calm Calm -- 30.23 in1023.7 mb 0.00 in0.0 mm 0.00 in0.0 mm 0.00 in0.0 mm
04:08 AM -29.6°F-34.2°C -33.4°F-36.3°C 81% Calm Calm -- 30.22 in1023.4 mb 0.00 in0.0 mm 0.00 in0.0 mm 0.00 in0.0 mm
04:09 AM -29.6°F-34.2°C -33.4°F-36.3°C 81% Calm Calm -- 30.23 in1023.7 mb 0.00 in0.0 mm 0.00 in0.0 mm 0.00 in0.0 mm
04:13 AM -29.8°F-34.3°C -33.5°F-36.4°C 81% Calm Calm -- 30.23 in1023.7 mb 0.00 in0.0 mm 0.00 in0.0 mm 0.00 in0.0 mm
04:14 AM -29.8°F-34.3°C -33.5°F-36.4°C 81% Calm Calm -- 30.22 in1023.4 mb 0.00 in0.0 mm 0.00 in0.0 mm 0.00 in0.0 mm
04:15 AM -29.8°F-34.3°C -33.5°F-36.4°C 81% Calm Calm -- 30.23 in1023.7 mb 0.00 in0.0 mm 0.00 in0.0 mm 0.00 in0.0 mm
04:18 AM -29.8°F-34.3°C -33.5°F-36.4°C 81% Calm Calm -- 30.22 in1023.4 mb 0.00 in0.0 mm 0.00 in0.0 mm 0.00 in0.0 mm
04:19 AM -29.6°F-34.2°C -33.4°F-36.3°C 81% Calm Calm -- 30.22 in1023.4 mb 0.00 in0.0 mm 0.00 in0.0 mm 0.00 in0.0 mm
04:25 AM -29.6°F-34.2°C -33.4°F-36.3°C 81% Calm Calm -- 30.22 in1023.4 mb 0.00 in0.0 mm 0.00 in0.0 mm 0.00 in0.0 mm
04:29 AM -29.6°F-34.2°C -33.4°F-36.3°C 81% Calm Calm -- 30.21 in1023.0 mb 0.00 in0.0 mm 0.00 in0.0 mm 0.00 in0.0 mm
04:33 AM -29.6°F-34.2°C -33.4°F-36.3°C 81% Calm Calm -- 30.21 in1023.0 mb 0.00 in0.0 mm 0.00 in0.0 mm 0.00 in0.0 mm
04:42 AM -29.8°F-34.3°C -33.5°F-36.4°C 81% Calm Calm -- 30.21 in1023.0 mb 0.00 in0.0 mm 0.00 in0.0 mm 0.00 in0.0 mm
04:46 AM -30.0°F-34.4°C -33.7°F-36.5°C 81% Calm Calm -- 30.21 in1023.0 mb 0.00 in0.0 mm 0.00 in0.0 mm 0.00 in0.0 mm
04:50 AM -30.2°F-34.6°C -34.1°F-36.7°C 81% Calm Calm -- 30.21 in1023.0 mb 0.00 in0.0 mm 0.00 in0.0 mm 0.00 in0.0 mm
04:52 AM -30.5°F-34.7°C -34.2°F-36.8°C 81% Calm Calm -- 30.21 in1023.0 mb 0.00 in0.0 mm 0.00 in0.0 mm 0.00 in0.0 mm
04:56 AM -30.7°F-34.8°C -34.4°F-36.9°C 81% Calm Calm -- 30.21 in1023.0 mb 0.00 in0.0 mm 0.00 in0.0 mm 0.00 in0.0 mm
04:59 AM -30.9°F-34.9°C -34.6°F-37.0°C 81% Calm Calm -- 30.21 in1023.0 mb 0.00 in0.0 mm 0.00 in0.0 mm 0.00 in0.0 mm
05:03 AM -31.2°F-35.1°C -34.9°F-37.2°C 81% Calm Calm -- 30.21 in1023.0 mb 0.00 in0.0 mm 0.00 in0.0 mm 0.00 in0.0 mm
05:08 AM -31.3°F-35.2°C -35.1°F-37.3°C 81% Calm Calm -- 30.21 in1023.0 mb 0.00 in0.0 mm 0.00 in0.0 mm 0.00 in0.0 mm
05:13 AM -31.3°F-35.2°C -35.1°F-37.3°C 81% Calm Calm -- 30.20 in1022.7 mb 0.00 in0.0 mm 0.00 in0.0 mm 0.00 in0.0 mm
05:16 AM -31.3°F-35.2°C -35.1°F-37.3°C 81% Calm Calm -- 30.21 in1023.0 mb 0.00 in0.0 mm 0.00 in0.0 mm 0.00 in0.0 mm
05:17 AM -31.3°F-35.2°C -35.1°F-37.3°C 81% Calm Calm -- 30.20 in1022.7 mb 0.00 in0.0 mm 0.00 in0.0 mm 0.00 in0.0 mm
05:23 AM -31.2°F-35.1°C -34.9°F-37.2°C 81% Calm Calm -- 30.20 in1022.7 mb 0.00 in0.0 mm 0.00 in0.0 mm 0.00 in0.0 mm
05:25 AM -30.9°F-34.9°C -34.6°F-37.0°C 81% Calm Calm -- 30.19 in1022.4 mb 0.00 in0.0 mm 0.00 in0.0 mm 0.00 in0.0 mm
05:27 AM -30.9°F-34.9°C -34.6°F-37.0°C 81% Calm Calm -- 30.20 in1022.7 mb 0.00 in0.0 mm 0.00 in0.0 mm 0.00 in0.0 mm
05:32 AM -30.7°F-34.8°C -34.4°F-36.9°C 81% Calm Calm -- 30.20 in1022.7 mb 0.00 in0.0 mm 0.00 in0.0 mm 0.00 in0.0 mm
05:33 AM -30.9°F-34.9°C -34.6°F-37.0°C 81% Calm Calm -- 30.20 in1022.7 mb 0.00 in0.0 mm 0.00 in0.0 mm 0.00 in0.0 mm
05:36 AM -30.9°F-34.9°C -34.6°F-37.0°C 81% Calm Calm -- 30.19 in1022.4 mb 0.00 in0.0 mm 0.00 in0.0 mm 0.00 in0.0 mm
05:37 AM -30.7°F-34.8°C -34.4°F-36.9°C 81% Calm Calm -- 30.20 in1022.7 mb 0.00 in0.0 mm 0.00 in0.0 mm 0.00 in0.0 mm
05:38 AM -30.7°F-34.8°C -34.4°F-36.9°C 81% Calm Calm -- 30.19 in1022.4 mb 0.00 in0.0 mm 0.00 in0.0 mm 0.00 in0.0 mm
05:39 AM -30.7°F-34.8°C -34.4°F-36.9°C 81% Calm Calm -- 30.20 in1022.7 mb 0.00 in0.0 mm 0.00 in0.0 mm 0.00 in0.0 mm
05:40 AM -30.5°F-34.7°C -34.2°F-36.8°C 81% Calm Calm -- 30.19 in1022.4 mb 0.00 in0.0 mm 0.00 in0.0 mm 0.00 in0.0 mm
05:50 AM -30.7°F-34.8°C -34.4°F-36.9°C 81% Calm Calm -- 30.19 in1022.4 mb 0.00 in0.0 mm 0.00 in0.0 mm 0.00 in0.0 mm
05:51 AM -30.9°F-34.9°C -34.6°F-37.0°C 81% Calm Calm -- 30.19 in1022.4 mb 0.00 in0.0 mm 0.00 in0.0 mm 0.00 in0.0 mm
05:54 AM -30.7°F-34.8°C -34.4°F-36.9°C 81% Calm Calm -- 30.19 in1022.4 mb 0.00 in0.0 mm 0.00 in0.0 mm 0.00 in0.0 mm
05:56 AM -30.9°F-34.9°C -34.6°F-37.0°C 81% Calm Calm -- 30.19 in1022.4 mb 0.00 in0.0 mm 0.00 in0.0 mm 0.00 in0.0 mm
05:59 AM -31.2°F-35.1°C -34.9°F-37.2°C 81% Calm Calm -- 30.18 in1022.0 mb 0.00 in0.0 mm 0.00 in0.0 mm 0.00 in0.0 mm
06:00 AM -31.2°F-35.1°C -34.9°F-37.2°C 81% Calm Calm -- 30.19 in1022.4 mb 0.00 in0.0 mm 0.00 in0.0 mm 0.00 in0.0 mm
06:01 AM -31.2°F-35.1°C -34.9°F-37.2°C 81% Calm Calm -- 30.18 in1022.0 mb 0.00 in0.0 mm 0.00 in0.0 mm 0.00 in0.0 mm
06:03 AM -31.2°F-35.1°C -34.9°F-37.2°C 81% Calm Calm -- 30.18 in1022.0 mb 0.00 in0.0 mm 0.00 in0.0 mm 0.00 in0.0 mm
06:04 AM -31.2°F-35.1°C -34.9°F-37.2°C 81% Calm Calm -- 30.19 in1022.4 mb 0.00 in0.0 mm 0.00 in0.0 mm 0.00 in0.0 mm
06:05 AM -31.2°F-35.1°C -34.9°F-37.2°C 81% Calm Calm -- 30.18 in1022.0 mb 0.00 in0.0 mm 0.00 in0.0 mm 0.00 in0.0 mm
06:06 AM -31.2°F-35.1°C -34.9°F-37.2°C 81% Calm Calm -- 30.18 in1022.0 mb 0.00 in0.0 mm 0.00 in0.0 mm 0.00 in0.0 mm
06:07 AM -30.9°F-34.9°C -34.6°F-37.0°C 81% Calm Calm -- 30.18 in1022.0 mb 0.00 in0.0 mm 0.00 in0.0 mm 0.00 in0.0 mm
06:08 AM -30.9°F-34.9°C -34.6°F-37.0°C 81% Calm Calm -- 30.18 in1022.0 mb 0.00 in0.0 mm 0.00 in0.0 mm 0.00 in0.0 mm
06:11 AM -30.7°F-34.8°C -34.4°F-36.9°C 81% Calm Calm -- 30.18 in1022.0 mb 0.00 in0.0 mm 0.00 in0.0 mm 0.00 in0.0 mm
06:12 AM -30.7°F-34.8°C -34.4°F-36.9°C 81% Calm Calm -- 30.18 in1022.0 mb 0.00 in0.0 mm 0.00 in0.0 mm 0.00 in0.0 mm
06:13 AM -30.7°F-34.8°C -34.4°F-36.9°C 81% Calm Calm -- 30.19 in1022.4 mb 0.00 in0.0 mm 0.00 in0.0 mm 0.00 in0.0 mm
06:14 AM -30.7°F-34.8°C -34.4°F-36.9°C 81% Calm Calm -- 30.18 in1022.0 mb 0.00 in0.0 mm 0.00 in0.0 mm 0.00 in0.0 mm
06:15 AM -30.7°F-34.8°C -34.4°F-36.9°C 81% Calm Calm -- 30.18 in1022.0 mb 0.00 in0.0 mm 0.00 in0.0 mm 0.00 in0.0 mm
06:16 AM -30.7°F-34.8°C -34.4°F-36.9°C 81% Calm Calm -- 30.18 in1022.0 mb 0.00 in0.0 mm 0.00 in0.0 mm 0.00 in0.0 mm
06:25 AM -30.7°F-34.8°C -34.4°F-36.9°C 81% Calm Calm -- 30.18 in1022.0 mb 0.00 in0.0 mm 0.00 in0.0 mm 0.00 in0.0 mm
06:26 AM -30.7°F-34.8°C -34.4°F-36.9°C 81% Calm Calm -- 30.18 in1022.0 mb 0.00 in0.0 mm 0.00 in0.0 mm 0.00 in0.0 mm
06:41 AM -30.7°F-34.8°C -34.4°F-36.9°C 81% Calm Calm -- 30.17 in1021.7 mb 0.00 in0.0 mm 0.00 in0.0 mm 0.00 in0.0 mm
06:42 AM -30.7°F-34.8°C -34.4°F-36.9°C 81% Calm Calm -- 30.18 in1022.0 mb 0.00 in0.0 mm 0.00 in0.0 mm 0.00 in0.0 mm
06:45 AM -30.7°F-34.8°C -34.4°F-36.9°C 81% Calm Calm -- 30.17 in1021.7 mb 0.00 in0.0 mm 0.00 in0.0 mm 0.00 in0.0 mm
06:46 AM -30.7°F-34.8°C -34.4°F-36.9°C 81% Calm Calm -- 30.18 in1022.0 mb 0.00 in0.0 mm 0.00 in0.0 mm 0.00 in0.0 mm
06:47 AM -30.7°F-34.8°C -34.4°F-36.9°C 81% Calm Calm -- 30.17 in1021.7 mb 0.00 in0.0 mm 0.00 in0.0 mm 0.00 in0.0 mm
06:49 AM -30.7°F-34.8°C -34.4°F-36.9°C 81% Calm Calm -- 30.18 in1022.0 mb 0.00 in0.0 mm 0.00 in0.0 mm 0.00 in0.0 mm
06:52 AM -30.9°F-34.9°C -34.6°F-37.0°C 81% Calm Calm -- 30.17 in1021.7 mb 0.00 in0.0 mm 0.00 in0.0 mm 0.00 in0.0 mm
06:55 AM -31.2°F-35.1°C -34.9°F-37.2°C 81% Calm Calm -- 30.17 in1021.7 mb 0.00 in0.0 mm 0.00 in0.0 mm 0.00 in0.0 mm
06:59 AM -30.9°F-34.9°C -34.6°F-37.0°C 81% Calm Calm -- 30.18 in1022.0 mb 0.00 in0.0 mm 0.00 in0.0 mm 0.00 in0.0 mm
07:00 AM -30.9°F-34.9°C -34.6°F-37.0°C 81% Calm Calm -- 30.17 in1021.7 mb 0.00 in0.0 mm 0.00 in0.0 mm 0.00 in0.0 mm
07:01 AM -30.9°F-34.9°C -34.6°F-37.0°C 81% Calm Calm -- 30.18 in1022.0 mb 0.00 in0.0 mm 0.00 in0.0 mm 0.00 in0.0 mm
07:03 AM -30.9°F-34.9°C -34.6°F-37.0°C 81% Calm Calm -- 30.17 in1021.7 mb 0.00 in0.0 mm 0.00 in0.0 mm 0.00 in0.0 mm
07:05 AM -30.9°F-34.9°C -34.6°F-37.0°C 81% Calm Calm -- 30.18 in1022.0 mb 0.00 in0.0 mm 0.00 in0.0 mm 0.00 in0.0 mm
07:06 AM -30.7°F-34.8°C -34.4°F-36.9°C 81% Calm Calm -- 30.17 in1021.7 mb 0.00 in0.0 mm 0.00 in0.0 mm 0.00 in0.0 mm
07:07 AM -30.7°F-34.8°C -34.4°F-36.9°C 81% Calm Calm -- 30.18 in1022.0 mb 0.00 in0.0 mm 0.00 in0.0 mm 0.00 in0.0 mm
07:12 AM -30.7°F-34.8°C -34.4°F-36.9°C 81% Calm Calm -- 30.17 in1021.7 mb 0.00 in0.0 mm 0.00 in0.0 mm 0.00 in0.0 mm
07:13 AM -30.7°F-34.8°C -34.4°F-36.9°C 81% Calm Calm -- 30.18 in1022.0 mb 0.00 in0.0 mm 0.00 in0.0 mm 0.00 in0.0 mm
07:17 AM -30.5°F-34.7°C -34.2°F-36.8°C 81% Calm Calm -- 30.18 in1022.0 mb 0.00 in0.0 mm 0.00 in0.0 mm 0.00 in0.0 mm
07:19 AM -30.5°F-34.7°C -34.2°F-36.8°C 81% Calm Calm -- 30.17 in1021.7 mb 0.00 in0.0 mm 0.00 in0.0 mm 0.00 in0.0 mm
07:20 AM -30.5°F-34.7°C -34.2°F-36.8°C 81% Calm Calm -- 30.18 in1022.0 mb 0.00 in0.0 mm 0.00 in0.0 mm 0.00 in0.0 mm
07:21 AM -30.5°F-34.7°C -34.2°F-36.8°C 81% Calm Calm -- 30.17 in1021.7 mb 0.00 in0.0 mm 0.00 in0.0 mm 0.00 in0.0 mm
07:22 AM -30.5°F-34.7°C -34.2°F-36.8°C 81% Calm Calm -- 30.18 in1022.0 mb 0.00 in0.0 mm 0.00 in0.0 mm 0.00 in0.0 mm
07:23 AM -30.5°F-34.7°C -34.2°F-36.8°C 81% Calm Calm -- 30.17 in1021.7 mb 0.00 in0.0 mm 0.00 in0.0 mm 0.00 in0.0 mm
07:24 AM -30.7°F-34.8°C -34.4°F-36.9°C 81% Calm Calm -- 30.17 in1021.7 mb 0.00 in0.0 mm 0.00 in0.0 mm 0.00 in0.0 mm
07:25 AM -30.9°F-34.9°C -34.6°F-37.0°C 81% Calm Calm -- 30.17 in1021.7 mb 0.00 in0.0 mm 0.00 in0.0 mm 0.00 in0.0 mm
07:26 AM -31.2°F-35.1°C -34.9°F-37.2°C 81% Calm Calm -- 30.17 in1021.7 mb 0.00 in0.0 mm 0.00 in0.0 mm 0.00 in0.0 mm
07:27 AM -31.2°F-35.1°C -34.9°F-37.2°C 81% Calm Calm -- 30.17 in1021.7 mb 0.00 in0.0 mm 0.00 in0.0 mm 0.00 in0.0 mm
07:28 AM -31.3°F-35.2°C -35.1°F-37.3°C 81% Calm Calm -- 30.18 in1022.0 mb 0.00 in0.0 mm 0.00 in0.0 mm 0.00 in0.0 mm
07:29 AM -31.3°F-35.2°C -35.1°F-37.3°C 81% Calm Calm -- 30.17 in1021.7 mb 0.00 in0.0 mm 0.00 in0.0 mm 0.00 in0.0 mm
07:31 AM -31.2°F-35.1°C -34.9°F-37.2°C 81% Calm Calm -- 30.17 in1021.7 mb 0.00 in0.0 mm 0.00 in0.0 mm 0.00 in0.0 mm
07:32 AM -31.2°F-35.1°C -34.9°F-37.2°C 81% Calm Calm -- 30.18 in1022.0 mb 0.00 in0.0 mm 0.00 in0.0 mm 0.00 in0.0 mm
07:33 AM -31.2°F-35.1°C -34.9°F-37.2°C 81% Calm Calm -- 30.17 in1021.7 mb 0.00 in0.0 mm 0.00 in0.0 mm 0.00 in0.0 mm
07:34 AM -30.9°F-34.9°C -34.6°F-37.0°C 81% Calm Calm -- 30.17 in1021.7 mb 0.00 in0.0 mm 0.00 in0.0 mm 0.00 in0.0 mm
07:35 AM -30.7°F-34.8°C -34.4°F-36.9°C 81% Calm Calm -- 30.17 in1021.7 mb 0.00 in0.0 mm 0.00 in0.0 mm 0.00 in0.0 mm
07:36 AM -30.7°F-34.8°C -34.4°F-36.9°C 81% Calm Calm -- 30.17 in1021.7 mb 0.00 in0.0 mm 0.00 in0.0 mm 0.00 in0.0 mm
07:41 AM -30.5°F-34.7°C -34.2°F-36.8°C 81% Calm Calm -- 30.17 in1021.7 mb 0.00 in0.0 mm 0.00 in0.0 mm 0.00 in0.0 mm
07:43 AM -30.5°F-34.7°C -34.2°F-36.8°C 81% Calm Calm -- 30.17 in1021.7 mb 0.00 in0.0 mm 0.00 in0.0 mm 0.00 in0.0 mm
07:44 AM -30.5°F-34.7°C -34.2°F-36.8°C 81% Calm Calm -- 30.17 in1021.7 mb 0.00 in0.0 mm 0.00 in0.0 mm 0.00 in0.0 mm
07:50 AM -30.5°F-34.7°C -34.2°F-36.8°C 81% Calm Calm -- 30.17 in1021.7 mb 0.00 in0.0 mm 0.00 in0.0 mm 0.00 in0.0 mm
07:51 AM -30.5°F-34.7°C -34.2°F-36.8°C 81% Calm Calm -- 30.17 in1021.7 mb 0.00 in0.0 mm 0.00 in0.0 mm 0.00 in0.0 mm
07:52 AM -30.5°F-34.7°C -34.2°F-36.8°C 81% Calm Calm -- 30.17 in1021.7 mb 0.00 in0.0 mm 0.00 in0.0 mm 0.00 in0.0 mm
07:53 AM -30.5°F-34.7°C -34.2°F-36.8°C 81% Calm Calm -- 30.17 in1021.7 mb 0.00 in0.0 mm 0.00 in0.0 mm 0.00 in0.0 mm
07:55 AM -30.2°F-34.6°C -34.1°F-36.7°C 81% Calm Calm -- 30.17 in1021.7 mb 0.00 in0.0 mm 0.00 in0.0 mm 0.00 in0.0 mm
08:15 AM -30.5°F-34.7°C -34.2°F-36.8°C 81% Calm Calm -- 30.16 in1021.3 mb 0.00 in0.0 mm 0.00 in0.0 mm 0.00 in0.0 mm
08:16 AM -30.5°F-34.7°C -34.2°F-36.8°C 81% Calm Calm -- 30.17 in1021.7 mb 0.00 in0.0 mm 0.00 in0.0 mm 0.00 in0.0 mm
08:19 AM -30.5°F-34.7°C -34.2°F-36.8°C 81% Calm Calm -- 30.16 in1021.3 mb 0.00 in0.0 mm 0.00 in0.0 mm 0.00 in0.0 mm
08:20 AM -30.5°F-34.7°C -34.2°F-36.8°C 81% Calm Calm -- 30.17 in1021.7 mb 0.00 in0.0 mm 0.00 in0.0 mm 0.00 in0.0 mm
08:26 AM -30.5°F-34.7°C -34.2°F-36.8°C 81% Calm Calm -- 30.16 in1021.3 mb 0.00 in0.0 mm 0.00 in0.0 mm 0.00 in0.0 mm
08:27 AM -30.5°F-34.7°C -34.2°F-36.8°C 81% Calm Calm -- 30.17 in1021.7 mb 0.00 in0.0 mm 0.00 in0.0 mm 0.00 in0.0 mm
08:28 AM -30.7°F-34.8°C -34.4°F-36.9°C 81% Calm Calm -- 30.16 in1021.3 mb 0.00 in0.0 mm 0.00 in0.0 mm 0.00 in0.0 mm
08:29 AM -30.7°F-34.8°C -34.4°F-36.9°C 81% Calm Calm -- 30.17 in1021.7 mb 0.00 in0.0 mm 0.00 in0.0 mm 0.00 in0.0 mm
08:30 AM -30.9°F-34.9°C -34.6°F-37.0°C 81% Calm Calm -- 30.16 in1021.3 mb 0.00 in0.0 mm 0.00 in0.0 mm 0.00 in0.0 mm
08:31 AM -30.9°F-34.9°C -34.6°F-37.0°C 81% Calm Calm -- 30.17 in1021.7 mb 0.00 in0.0 mm 0.00 in0.0 mm 0.00 in0.0 mm
08:34 AM -31.2°F-35.1°C -34.9°F-37.2°C 81% Calm Calm -- 30.17 in1021.7 mb 0.00 in0.0 mm 0.00 in0.0 mm 0.00 in0.0 mm
08:36 AM -31.3°F-35.2°C -35.1°F-37.3°C 81% Calm Calm -- 30.16 in1021.3 mb 0.00 in0.0 mm 0.00 in0.0 mm 0.00 in0.0 mm
08:39 AM -31.5°F-35.3°C -35.3°F-37.4°C 81% Calm Calm -- 30.16 in1021.3 mb 0.00 in0.0 mm 0.00 in0.0 mm 0.00 in0.0 mm
08:48 AM -31.7°F-35.4°C -35.5°F-37.5°C 81% Calm Calm -- 30.16 in1021.3 mb 0.00 in0.0 mm 0.00 in0.0 mm 0.00 in0.0 mm
08:50 AM -31.5°F-35.3°C -35.3°F-37.4°C 81% Calm Calm -- 30.16 in1021.3 mb 0.00 in0.0 mm 0.00 in0.0 mm 0.00 in0.0 mm
08:51 AM -31.3°F-35.2°C -35.1°F-37.3°C 81% Calm Calm -- 30.16 in1021.3 mb 0.00 in0.0 mm 0.00 in0.0 mm 0.00 in0.0 mm
08:56 AM -31.2°F-35.1°C -34.9°F-37.2°C 81% Calm Calm -- 30.16 in1021.3 mb 0.00 in0.0 mm 0.00 in0.0 mm 0.00 in0.0 mm
08:58 AM -31.3°F-35.2°C -35.1°F-37.3°C 81% Calm Calm -- 30.16 in1021.3 mb 0.00 in0.0 mm 0.00 in0.0 mm 0.00 in0.0 mm
09:14 AM -31.2°F-35.1°C -34.9°F-37.2°C 81% Calm Calm -- 30.16 in1021.3 mb 0.00 in0.0 mm 0.00 in0.0 mm 0.00 in0.0 mm
09:17 AM -30.9°F-34.9°C -34.6°F-37.0°C 81% Calm Calm -- 30.16 in1021.3 mb 0.00 in0.0 mm 0.00 in0.0 mm 0.00 in0.0 mm
09:18 AM -30.5°F-34.7°C -34.2°F-36.8°C 81% Calm Calm -- 30.16 in1021.3 mb 0.00 in0.0 mm 0.00 in0.0 mm 0.00 in0.0 mm
09:24 AM -30.5°F-34.7°C -34.2°F-36.8°C 81% Calm Calm -- 30.16 in1021.3 mb 0.00 in0.0 mm 0.00 in0.0 mm 0.00 in0.0 mm
09:25 AM -30.7°F-34.8°C -34.4°F-36.9°C 81% Calm Calm -- 30.16 in1021.3 mb 0.00 in0.0 mm 0.00 in0.0 mm 0.00 in0.0 mm
09:28 AM -30.5°F-34.7°C -34.2°F-36.8°C 81% Calm Calm -- 30.15 in1021.0 mb 0.00 in0.0 mm 0.00 in0.0 mm 0.00 in0.0 mm
09:30 AM -30.5°F-34.7°C -34.2°F-36.8°C 81% Calm Calm -- 30.16 in1021.3 mb 0.00 in0.0 mm 0.00 in0.0 mm 0.00 in0.0 mm
09:31 AM -30.5°F-34.7°C -34.2°F-36.8°C 81% Calm Calm -- 30.16 in1021.3 mb 0.00 in0.0 mm 0.00 in0.0 mm 0.00 in0.0 mm
09:33 AM -30.2°F-34.6°C -34.1°F-36.7°C 81% Calm Calm -- 30.16 in1021.3 mb 0.00 in0.0 mm 0.00 in0.0 mm 0.00 in0.0 mm
09:34 AM -30.0°F-34.4°C -33.7°F-36.5°C 81% Calm Calm -- 30.16 in1021.3 mb 0.00 in0.0 mm 0.00 in0.0 mm 0.00 in0.0 mm
09:36 AM -29.8°F-34.3°C -33.5°F-36.4°C 81% Calm Calm -- 30.16 in1021.3 mb 0.00 in0.0 mm 0.00 in0.0 mm 0.00 in0.0 mm
09:37 AM -29.6°F-34.2°C -33.4°F-36.3°C 81% Calm Calm -- 30.15 in1021.0 mb 0.00 in0.0 mm 0.00 in0.0 mm 0.00 in0.0 mm
09:40 AM -29.4°F-34.1°C -33.2°F-36.2°C 81% Calm Calm -- 30.15 in1021.0 mb 0.00 in0.0 mm 0.00 in0.0 mm 0.00 in0.0 mm
09:41 AM -29.2°F-34.0°C -33.0°F-36.1°C 81% Calm Calm -- 30.15 in1021.0 mb 0.00 in0.0 mm 0.00 in0.0 mm 0.00 in0.0 mm
09:43 AM -29.0°F-33.9°C -32.8°F-36.0°C 81% Calm Calm -- 30.15 in1021.0 mb 0.00 in0.0 mm 0.00 in0.0 mm 0.00 in0.0 mm
09:44 AM -28.7°F-33.7°C -32.5°F-35.8°C 81% Calm Calm -- 30.15 in1021.0 mb 0.00 in0.0 mm 0.00 in0.0 mm 0.00 in0.0 mm
09:45 AM -28.6°F-33.7°C -32.5°F-35.8°C 81% Calm Calm -- 30.15 in1021.0 mb 0.00 in0.0 mm 0.00 in0.0 mm 0.00 in0.0 mm
09:46 AM -28.4°F-33.6°C -32.3°F-35.7°C 81% Calm Calm -- 30.15 in1021.0 mb 0.00 in0.0 mm 0.00 in0.0 mm 0.00 in0.0 mm
09:47 AM -28.0°F-33.3°C -31.8°F-35.4°C 81% Calm Calm -- 30.15 in1021.0 mb 0.00 in0.0 mm 0.00 in0.0 mm 0.00 in0.0 mm
09:49 AM -27.7°F-33.2°C -31.6°F-35.3°C 81% Calm Calm -- 30.15 in1021.0 mb 0.00 in0.0 mm 0.00 in0.0 mm 0.00 in0.0 mm
09:50 AM -27.5°F-33.1°C -31.4°F-35.2°C 81% Calm Calm -- 30.16 in1021.3 mb 0.00 in0.0 mm 0.00 in0.0 mm 0.00 in0.0 mm
09:52 AM -27.3°F-32.9°C -31.1°F-35.1°C 81% Calm Calm -- 30.16 in1021.3 mb 0.00 in0.0 mm 0.00 in0.0 mm 0.00 in0.0 mm
09:53 AM -27.0°F-32.8°C -30.9°F-34.9°C 81% Calm Calm -- 30.15 in1021.0 mb 0.00 in0.0 mm 0.00 in0.0 mm 0.00 in0.0 mm
09:54 AM -26.9°F-32.7°C -30.7°F-34.8°C 81% Calm Calm -- 30.15 in1021.0 mb 0.00 in0.0 mm 0.00 in0.0 mm 0.00 in0.0 mm
09:55 AM -26.5°F-32.5°C -30.4°F-34.7°C 81% Calm Calm -- 30.15 in1021.0 mb 0.00 in0.0 mm 0.00 in0.0 mm 0.00 in0.0 mm
09:56 AM -26.5°F-32.5°C -30.4°F-34.7°C 81% Calm Calm -- 30.16 in1021.3 mb 0.00 in0.0 mm 0.00 in0.0 mm 0.00 in0.0 mm
09:57 AM -26.1°F-32.3°C -30.0°F-34.4°C 81% Calm Calm -- 30.15 in1021.0 mb 0.00 in0.0 mm 0.00 in0.0 mm 0.00 in0.0 mm
09:58 AM -25.7°F-32.1°C -29.2°F-34.0°C 83% Calm Calm -- 30.15 in1021.0 mb 0.00 in0.0 mm 0.00 in0.0 mm 0.00 in0.0 mm
09:59 AM -25.5°F-31.9°C -28.9°F-33.8°C 83% Calm Calm -- 30.15 in1021.0 mb 0.00 in0.0 mm 0.00 in0.0 mm 0.00 in0.0 mm
10:00 AM -25.0°F-31.7°C -28.5°F-33.6°C 83% Calm Calm -- 30.15 in1021.0 mb 0.00 in0.0 mm 0.00 in0.0 mm 0.00 in0.0 mm
10:01 AM -24.5°F-31.4°C -28.0°F-33.3°C 83% Calm Calm -- 30.15 in1021.0 mb 0.00 in0.0 mm 0.00 in0.0 mm 0.00 in0.0 mm
10:02 AM -24.2°F-31.2°C -27.6°F-33.1°C 83% Calm Calm -- 30.15 in1021.0 mb 0.00 in0.0 mm 0.00 in0.0 mm 0.00 in0.0 mm
10:03 AM -24.2°F-31.2°C -27.6°F-33.1°C 83% Calm Calm -- 30.15 in1021.0 mb 0.00 in0.0 mm 0.00 in0.0 mm 0.00 in0.0 mm
10:04 AM -23.6°F-30.9°C -27.1°F-32.8°C 83% Calm Calm -- 30.15 in1021.0 mb 0.00 in0.0 mm 0.00 in0.0 mm 0.00 in0.0 mm
10:05 AM -23.2°F-30.7°C -26.8°F-32.7°C 83% Calm Calm -- 30.15 in1021.0 mb 0.00 in0.0 mm 0.00 in0.0 mm 0.00 in0.0 mm
10:06 AM -23.0°F-30.6°C -26.6°F-32.6°C 83% Calm Calm -- 30.15 in1021.0 mb 0.00 in0.0 mm 0.00 in0.0 mm 0.00 in0.0 mm
10:07 AM -22.6°F-30.3°C -26.1°F-32.3°C 83% Calm Calm -- 30.15 in1021.0 mb 0.00 in0.0 mm 0.00 in0.0 mm 0.00 in0.0 mm
10:08 AM -22.5°F-30.3°C -26.1°F-32.3°C 83% Calm Calm -- 30.15 in1021.0 mb 0.00 in0.0 mm 0.00 in0.0 mm 0.00 in0.0 mm
10:09 AM -22.2°F-30.1°C -25.7°F-32.1°C 83% Calm Calm -- 30.15 in1021.0 mb 0.00 in0.0 mm 0.00 in0.0 mm 0.00 in0.0 mm
10:10 AM -22.2°F-30.1°C -25.7°F-32.1°C 83% Calm Calm -- 30.15 in1021.0 mb 0.00 in0.0 mm 0.00 in0.0 mm 0.00 in0.0 mm
10:11 AM -21.7°F-29.8°C -25.2°F-31.8°C 83% Calm Calm -- 30.15 in1021.0 mb 0.00 in0.0 mm 0.00 in0.0 mm 0.00 in0.0 mm
10:12 AM -21.6°F-29.8°C -25.2°F-31.8°C 83% Calm Calm -- 30.15 in1021.0 mb 0.00 in0.0 mm 0.00 in0.0 mm 0.00 in0.0 mm
10:13 AM -21.5°F-29.7°C -25.0°F-31.7°C 83% Calm Calm -- 30.15 in1021.0 mb 0.00 in0.0 mm 0.00 in0.0 mm 0.00 in0.0 mm
10:14 AM -21.1°F-29.5°C -24.6°F-31.4°C 83% Calm Calm -- 30.15 in1021.0 mb 0.00 in0.0 mm 0.00 in0.0 mm 0.00 in0.0 mm
10:15 AM -20.7°F-29.3°C -24.3°F-31.3°C 83% Calm Calm -- 30.15 in1021.0 mb 0.00 in0.0 mm 0.00 in0.0 mm 0.00 in0.0 mm
10:16 AM -20.5°F-29.2°C -24.1°F-31.2°C 83% Calm Calm -- 30.15 in1021.0 mb 0.00 in0.0 mm 0.00 in0.0 mm 0.00 in0.0 mm
10:17 AM -20.3°F-29.1°C -23.9°F-31.1°C 83% Calm Calm -- 30.15 in1021.0 mb 0.00 in0.0 mm 0.00 in0.0 mm 0.00 in0.0 mm
10:18 AM -20.1°F-28.9°C -23.6°F-30.9°C 83% Calm Calm -- 30.15 in1021.0 mb 0.00 in0.0 mm 0.00 in0.0 mm 0.00 in0.0 mm
10:21 AM -19.7°F-28.7°C -23.2°F-30.7°C 83% Calm Calm -- 30.16 in1021.3 mb 0.00 in0.0 mm 0.00 in0.0 mm 0.00 in0.0 mm
10:22 AM -19.7°F-28.7°C -23.2°F-30.7°C 83% Calm Calm -- 30.16 in1021.3 mb 0.00 in0.0 mm 0.00 in0.0 mm 0.00 in0.0 mm
10:24 AM -19.7°F-28.7°C -23.2°F-30.7°C 83% Calm Calm -- 30.15 in1021.0 mb 0.00 in0.0 mm 0.00 in0.0 mm 0.00 in0.0 mm
10:25 AM -19.2°F-28.4°C -22.7°F-30.4°C 83% Calm Calm -- 30.15 in1021.0 mb 0.00 in0.0 mm 0.00 in0.0 mm 0.00 in0.0 mm
10:26 AM -19.2°F-28.4°C -22.7°F-30.4°C 83% Calm Calm -- 30.15 in1021.0 mb 0.00 in0.0 mm 0.00 in0.0 mm 0.00 in0.0 mm
10:27 AM -19.1°F-28.4°C -22.7°F-30.4°C 83% Calm Calm -- 30.15 in1021.0 mb 0.00 in0.0 mm 0.00 in0.0 mm 0.00 in0.0 mm
10:28 AM -18.7°F-28.2°C -22.3°F-30.2°C 83% Calm Calm -- 30.15 in1021.0 mb 0.00 in0.0 mm 0.00 in0.0 mm 0.00 in0.0 mm
10:29 AM -18.3°F-27.9°C -21.8°F-29.9°C 83% Calm Calm -- 30.15 in1021.0 mb 0.00 in0.0 mm 0.00 in0.0 mm 0.00 in0.0 mm
10:30 AM -18.2°F-27.9°C -21.8°F-29.9°C 83% Calm Calm -- 30.15 in1021.0 mb 0.00 in0.0 mm 0.00 in0.0 mm 0.00 in0.0 mm
10:31 AM -17.8°F-27.7°C -21.5°F-29.7°C 83% Calm Calm -- 30.15 in1021.0 mb 0.00 in0.0 mm 0.00 in0.0 mm 0.00 in0.0 mm
10:32 AM -17.7°F-27.6°C -21.3°F-29.6°C 83% Calm Calm -- 30.15 in1021.0 mb 0.00 in0.0 mm 0.00 in0.0 mm 0.00 in0.0 mm
10:33 AM -17.5°F-27.5°C -21.1°F-29.5°C 83% Calm Calm -- 30.15 in1021.0 mb 0.00 in0.0 mm 0.00 in0.0 mm 0.00 in0.0 mm
10:34 AM -17.2°F-27.3°C -20.8°F-29.3°C 83% Calm Calm -- 30.15 in1021.0 mb 0.00 in0.0 mm 0.00 in0.0 mm 0.00 in0.0 mm
10:35 AM -17.5°F-27.5°C -21.1°F-29.5°C 83% Calm Calm -- 30.15 in1021.0 mb 0.00 in0.0 mm 0.00 in0.0 mm 0.00 in0.0 mm
10:36 AM -17.5°F-27.5°C -21.1°F-29.5°C 83% Calm Calm -- 30.15 in1021.0 mb 0.00 in0.0 mm 0.00 in0.0 mm 0.00 in0.0 mm
10:37 AM -17.2°F-27.3°C -20.8°F-29.3°C 83% Calm Calm -- 30.15 in1021.0 mb 0.00 in0.0 mm 0.00 in0.0 mm 0.00 in0.0 mm
10:38 AM -17.1°F-27.3°C -20.8°F-29.3°C 83% Calm Calm -- 30.15 in1021.0 mb 0.00 in0.0 mm 0.00 in0.0 mm 0.00 in0.0 mm
10:39 AM -16.7°F-27.1°C -20.4°F-29.1°C 83% Calm Calm -- 30.15 in1021.0 mb 0.00 in0.0 mm 0.00 in0.0 mm 0.00 in0.0 mm
10:40 AM -16.7°F-27.1°C -20.4°F-29.1°C 83% Calm Calm -- 30.15 in1021.0 mb 0.00 in0.0 mm 0.00 in0.0 mm 0.00 in0.0 mm
10:41 AM -16.6°F-27.0°C -20.2°F-29.0°C 83% Calm Calm -- 30.15 in1021.0 mb 0.00 in0.0 mm 0.00 in0.0 mm 0.00 in0.0 mm
10:42 AM -16.4°F-26.9°C -20.1°F-28.9°C 83% Calm Calm -- 30.15 in1021.0 mb 0.00 in0.0 mm 0.00 in0.0 mm 0.00 in0.0 mm
10:43 AM -16.7°F-27.1°C -20.4°F-29.1°C 83% Calm Calm -- 30.15 in1021.0 mb 0.00 in0.0 mm 0.00 in0.0 mm 0.00 in0.0 mm
10:45 AM -17.1°F-27.3°C -20.8°F-29.3°C 83% Calm Calm -- 30.15 in1021.0 mb 0.00 in0.0 mm 0.00 in0.0 mm 0.00 in0.0 mm
10:46 AM -17.1°F-27.3°C -20.8°F-29.3°C 83% Calm Calm -- 30.14 in1020.7 mb 0.00 in0.0 mm 0.00 in0.0 mm 0.00 in0.0 mm
10:47 AM -17.5°F-27.5°C -21.1°F-29.5°C 83% Calm Calm -- 30.14 in1020.7 mb 0.00 in0.0 mm 0.00 in0.0 mm 0.00 in0.0 mm
10:48 AM -16.7°F-27.1°C -20.4°F-29.1°C 83% Calm Calm -- 30.15 in1021.0 mb 0.00 in0.0 mm 0.00 in0.0 mm 0.00 in0.0 mm
10:49 AM -17.0°F-27.2°C -20.6°F-29.2°C 83% Calm Calm -- 30.15 in1021.0 mb 0.00 in0.0 mm 0.00 in0.0 mm 0.00 in0.0 mm
10:50 AM -16.7°F-27.1°C -20.4°F-29.1°C 83% Calm Calm -- 30.15 in1021.0 mb 0.00 in0.0 mm 0.00 in0.0 mm 0.00 in0.0 mm
10:51 AM -16.2°F-26.8°C -19.9°F-28.8°C 83% Calm Calm -- 30.15 in1021.0 mb 0.00 in0.0 mm 0.00 in0.0 mm 0.00 in0.0 mm
10:52 AM -16.1°F-26.7°C -19.7°F-28.7°C 83% Calm Calm -- 30.15 in1021.0 mb 0.00 in0.0 mm 0.00 in0.0 mm 0.00 in0.0 mm
10:53 AM -15.6°F-26.4°C -19.2°F-28.4°C 83% Calm Calm -- 30.15 in1021.0 mb 0.00 in0.0 mm 0.00 in0.0 mm 0.00 in0.0 mm
10:54 AM -15.4°F-26.3°C -19.0°F-28.3°C 83% Calm Calm -- 30.15 in1021.0 mb 0.00 in0.0 mm 0.00 in0.0 mm 0.00 in0.0 mm
10:55 AM -15.8°F-26.6°C -19.5°F-28.6°C 83% Calm Calm -- 30.15 in1021.0 mb 0.00 in0.0 mm 0.00 in0.0 mm 0.00 in0.0 mm
10:56 AM -15.2°F-26.2°C -18.8°F-28.2°C 83% Calm Calm -- 30.15 in1021.0 mb 0.00 in0.0 mm 0.00 in0.0 mm 0.00 in0.0 mm
10:57 AM -15.0°F-26.1°C -18.6°F-28.1°C 83% Calm Calm -- 30.15 in1021.0 mb 0.00 in0.0 mm 0.00 in0.0 mm 0.00 in0.0 mm
11:00 AM -14.3°F-25.7°C -17.9°F-27.7°C 83% Calm Calm -- 30.15 in1021.0 mb 0.00 in0.0 mm 0.00 in0.0 mm 0.00 in0.0 mm
11:02 AM -14.3°F-25.7°C -17.9°F-27.7°C 83% Calm Calm -- 30.14 in1020.7 mb 0.00 in0.0 mm 0.00 in0.0 mm 0.00 in0.0 mm
11:03 AM -14.1°F-25.6°C -17.8°F-27.7°C 83% Calm Calm -- 30.14 in1020.7 mb 0.00 in0.0 mm 0.00 in0.0 mm 0.00 in0.0 mm
11:04 AM -14.3°F-25.7°C -17.9°F-27.7°C 83% Calm Calm -- 30.14 in1020.7 mb 0.00 in0.0 mm 0.00 in0.0 mm 0.00 in0.0 mm
11:06 AM -14.3°F-25.7°C -17.9°F-27.7°C 83% Calm Calm -- 30.14 in1020.7 mb 0.00 in0.0 mm 0.00 in0.0 mm 0.00 in0.0 mm
11:07 AM -14.6°F-25.9°C -18.3°F-27.9°C 83% Calm Calm -- 30.14 in1020.7 mb 0.00 in0.0 mm 0.00 in0.0 mm 0.00 in0.0 mm
11:08 AM -14.3°F-25.7°C -17.9°F-27.7°C 83% Calm Calm -- 30.14 in1020.7 mb 0.00 in0.0 mm 0.00 in0.0 mm 0.00 in0.0 mm
11:09 AM -13.8°F-25.4°C -17.4°F-27.4°C 83% Calm Calm -- 30.14 in1020.7 mb 0.00 in0.0 mm 0.00 in0.0 mm 0.00 in0.0 mm
11:10 AM -13.5°F-25.3°C -17.2°F-27.3°C 83% Calm Calm -- 30.14 in1020.7 mb 0.00 in0.0 mm 0.00 in0.0 mm 0.00 in0.0 mm
11:11 AM -13.5°F-25.3°C -17.2°F-27.3°C 83% Calm Calm -- 30.14 in1020.7 mb 0.00 in0.0 mm 0.00 in0.0 mm 0.00 in0.0 mm
11:12 AM -13.5°F-25.3°C -17.2°F-27.3°C 83% Calm Calm -- 30.14 in1020.7 mb 0.00 in0.0 mm 0.00 in0.0 mm 0.00 in0.0 mm
11:13 AM -13.6°F-25.3°C -17.2°F-27.3°C 83% Calm Calm -- 30.15 in1021.0 mb 0.00 in0.0 mm 0.00 in0.0 mm 0.00 in0.0 mm
11:14 AM -13.1°F-25.1°C -16.9°F-27.2°C 83% Calm Calm -- 30.14 in1020.7 mb 0.00 in0.0 mm 0.00 in0.0 mm 0.00 in0.0 mm
11:15 AM -12.9°F-24.9°C -16.5°F-26.9°C 83% Calm Calm -- 30.14 in1020.7 mb 0.00 in0.0 mm 0.00 in0.0 mm 0.00 in0.0 mm
11:16 AM -12.9°F-24.9°C -16.5°F-26.9°C 83% Calm Calm -- 30.14 in1020.7 mb 0.00 in0.0 mm 0.00 in0.0 mm 0.00 in0.0 mm
11:17 AM -13.1°F-25.1°C -16.9°F-27.2°C 83% Calm Calm -- 30.14 in1020.7 mb 0.00 in0.0 mm 0.00 in0.0 mm 0.00 in0.0 mm
11:18 AM -12.9°F-24.9°C -16.5°F-26.9°C 83% Calm Calm -- 30.14 in1020.7 mb 0.00 in0.0 mm 0.00 in0.0 mm 0.00 in0.0 mm
11:19 AM -13.1°F-25.1°C -16.9°F-27.2°C 83% Calm Calm -- 30.14 in1020.7 mb 0.00 in0.0 mm 0.00 in0.0 mm 0.00 in0.0 mm
11:20 AM -12.9°F-24.9°C -16.5°F-26.9°C 83% Calm Calm -- 30.14 in1020.7 mb 0.00 in0.0 mm 0.00 in0.0 mm 0.00 in0.0 mm
11:21 AM -12.9°F-24.9°C -16.5°F-26.9°C 83% Calm Calm -- 30.14 in1020.7 mb 0.00 in0.0 mm 0.00 in0.0 mm 0.00 in0.0 mm
11:22 AM -13.5°F-25.3°C -17.2°F-27.3°C 83% Calm Calm -- 30.14 in1020.7 mb 0.00 in0.0 mm 0.00 in0.0 mm 0.00 in0.0 mm
11:23 AM -13.3°F-25.2°C -17.1°F-27.3°C 83% Calm Calm -- 30.14 in1020.7 mb 0.00 in0.0 mm 0.00 in0.0 mm 0.00 in0.0 mm
11:24 AM -12.5°F-24.7°C -16.2°F-26.8°C 83% Calm Calm -- 30.14 in1020.7 mb 0.00 in0.0 mm 0.00 in0.0 mm 0.00 in0.0 mm
11:25 AM -12.1°F-24.5°C -15.8°F-26.6°C 83% Calm Calm -- 30.14 in1020.7 mb 0.00 in0.0 mm 0.00 in0.0 mm 0.00 in0.0 mm
11:26 AM -11.8°F-24.3°C -15.5°F-26.4°C 83% Calm Calm -- 30.14 in1020.7 mb 0.00 in0.0 mm 0.00 in0.0 mm 0.00 in0.0 mm
11:27 AM -12.1°F-24.5°C -15.8°F-26.6°C 83% Calm Calm -- 30.14 in1020.7 mb 0.00 in0.0 mm 0.00 in0.0 mm 0.00 in0.0 mm
11:28 AM -11.3°F-24.1°C -15.1°F-26.2°C 83% Calm Calm -- 30.14 in1020.7 mb 0.00 in0.0 mm 0.00 in0.0 mm 0.00 in0.0 mm
11:30 AM -11.6°F-24.2°C -15.3°F-26.3°C 83% Calm Calm -- 30.14 in1020.7 mb 0.00 in0.0 mm 0.00 in0.0 mm 0.00 in0.0 mm
11:31 AM -11.3°F-24.1°C -15.1°F-26.2°C 83% Calm Calm -- 30.14 in1020.7 mb 0.00 in0.0 mm 0.00 in0.0 mm 0.00 in0.0 mm
11:33 AM -11.6°F-24.2°C -15.8°F-26.6°C 81% Calm Calm -- 30.14 in1020.7 mb 0.00 in0.0 mm 0.00 in0.0 mm 0.00 in0.0 mm
11:34 AM -11.2°F-24.0°C -14.9°F-26.1°C 83% Calm Calm -- 30.14 in1020.7 mb 0.00 in0.0 mm 0.00 in0.0 mm 0.00 in0.0 mm
11:36 AM -11.0°F-23.9°C -14.8°F-26.0°C 83% Calm Calm -- 30.14 in1020.7 mb 0.00 in0.0 mm 0.00 in0.0 mm 0.00 in0.0 mm
11:37 AM -11.0°F-23.9°C -14.8°F-26.0°C 83% Calm Calm -- 30.13 in1020.3 mb 0.00 in0.0 mm 0.00 in0.0 mm 0.00 in0.0 mm
11:38 AM -11.0°F-23.9°C -14.8°F-26.0°C 83% Calm Calm -- 30.13 in1020.3 mb 0.00 in0.0 mm 0.00 in0.0 mm 0.00 in0.0 mm
11:39 AM -11.6°F-24.2°C -15.8°F-26.6°C 81% Calm Calm -- 30.13 in1020.3 mb 0.00 in0.0 mm 0.00 in0.0 mm 0.00 in0.0 mm
11:40 AM -11.8°F-24.3°C -16.0°F-26.7°C 81% Calm Calm -- 30.13 in1020.3 mb 0.00 in0.0 mm 0.00 in0.0 mm 0.00 in0.0 mm
11:41 AM -11.6°F-24.2°C -15.8°F-26.6°C 81% Calm Calm -- 30.13 in1020.3 mb 0.00 in0.0 mm 0.00 in0.0 mm 0.00 in0.0 mm
11:42 AM -12.1°F-24.5°C -16.3°F-26.8°C 81% Calm Calm -- 30.13 in1020.3 mb 0.00 in0.0 mm 0.00 in0.0 mm 0.00 in0.0 mm
11:43 AM -11.8°F-24.3°C -16.0°F-26.7°C 81% Calm Calm -- 30.13 in1020.3 mb 0.00 in0.0 mm 0.00 in0.0 mm 0.00 in0.0 mm
11:44 AM -11.6°F-24.2°C -15.8°F-26.6°C 81% Calm Calm -- 30.13 in1020.3 mb 0.00 in0.0 mm 0.00 in0.0 mm 0.00 in0.0 mm
11:45 AM -11.6°F-24.2°C -15.8°F-26.6°C 81% 6.0 mph E9.7 kmh E -- 30.13 in1020.3 mb 0.00 in0.0 mm 0.00 in0.0 mm 0.00 in0.0 mm
11:46 AM -11.6°F-24.2°C -15.8°F-26.6°C 81% 7.0 mph E11.3 kmh E -- 30.13 in1020.3 mb 0.00 in0.0 mm 0.00 in0.0 mm 0.00 in0.0 mm
11:47 AM -11.8°F-24.3°C -16.0°F-26.7°C 81% 7.0 mph SE11.3 kmh SE -- 30.13 in1020.3 mb 0.00 in0.0 mm 0.00 in0.0 mm 0.00 in0.0 mm
11:48 AM -12.1°F-24.5°C -16.3°F-26.8°C 81% 3.0 mph ESE4.8 kmh ESE -- 30.12 in1020.0 mb 0.00 in0.0 mm 0.00 in0.0 mm 0.00 in0.0 mm
11:49 AM -11.8°F-24.3°C -16.0°F-26.7°C 81% 6.0 mph ESE9.7 kmh ESE -- 30.12 in1020.0 mb 0.00 in0.0 mm 0.00 in0.0 mm 0.00 in0.0 mm
11:50 AM -11.6°F-24.2°C -15.8°F-26.6°C 81% 5.0 mph SE8.0 kmh SE -- 30.13 in1020.3 mb 0.00 in0.0 mm 0.00 in0.0 mm 0.00 in0.0 mm
11:51 AM -11.3°F-24.1°C -15.6°F-26.4°C 81% 3.0 mph SE4.8 kmh SE -- 30.13 in1020.3 mb 0.00 in0.0 mm 0.00 in0.0 mm 0.00 in0.0 mm
11:52 AM -11.6°F-24.2°C -15.8°F-26.6°C 81% 4.0 mph SE6.4 kmh SE -- 30.13 in1020.3 mb 0.00 in0.0 mm 0.00 in0.0 mm 0.00 in0.0 mm
11:53 AM -11.8°F-24.3°C -16.0°F-26.7°C 81% 4.0 mph SSE6.4 kmh SSE -- 30.13 in1020.3 mb 0.00 in0.0 mm 0.00 in0.0 mm 0.00 in0.0 mm
11:54 AM -12.1°F-24.5°C -16.3°F-26.8°C 81% 6.0 mph ESE9.7 kmh ESE -- 30.13 in1020.3 mb 0.00 in0.0 mm 0.00 in0.0 mm 0.00 in0.0 mm
11:55 AM -11.6°F-24.2°C -15.8°F-26.6°C 81% 5.0 mph E8.0 kmh E -- 30.13 in1020.3 mb 0.00 in0.0 mm 0.00 in0.0 mm 0.00 in0.0 mm
11:56 AM -11.6°F-24.2°C -15.8°F-26.6°C 81% 6.0 mph ESE9.7 kmh ESE -- 30.13 in1020.3 mb 0.00 in0.0 mm 0.00 in0.0 mm 0.00 in0.0 mm
11:57 AM -11.3°F-24.1°C -15.6°F-26.4°C 81% 7.0 mph SSE11.3 kmh SSE -- 30.13 in1020.3 mb 0.00 in0.0 mm 0.00 in0.0 mm 0.00 in0.0 mm
11:58 AM -11.6°F-24.2°C -16.0°F-26.7°C 80% 7.0 mph ESE11.3 kmh ESE -- 30.13 in1020.3 mb 0.00 in0.0 mm 0.00 in0.0 mm 0.00 in0.0 mm
11:59 AM -11.8°F-24.3°C -16.2°F-26.8°C 80% 6.0 mph ESE9.7 kmh ESE -- 30.13 in1020.3 mb 0.00 in0.0 mm 0.00 in0.0 mm 0.00 in0.0 mm
12:00 PM -11.3°F-24.1°C -15.9°F-26.6°C 80% 6.0 mph E9.7 kmh E -- 30.13 in1020.3 mb 0.00 in0.0 mm 0.00 in0.0 mm 0.00 in0.0 mm
12:01 PM -11.2°F-24.0°C -15.4°F-26.3°C 81% 3.0 mph SE4.8 kmh SE -- 30.13 in1020.3 mb 0.00 in0.0 mm 0.00 in0.0 mm 0.00 in0.0 mm
12:02 PM -11.2°F-24.0°C -15.4°F-26.3°C 81% 5.0 mph SE8.0 kmh SE -- 30.13 in1020.3 mb 0.00 in0.0 mm 0.00 in0.0 mm 0.00 in0.0 mm
12:03 PM -11.2°F-24.0°C -15.4°F-26.3°C 81% 6.0 mph ESE9.7 kmh ESE -- 30.13 in1020.3 mb 0.00 in0.0 mm 0.00 in0.0 mm 0.00 in0.0 mm
12:04 PM -11.2°F-24.0°C -15.4°F-26.3°C 81% 6.0 mph SSE9.7 kmh SSE -- 30.13 in1020.3 mb 0.00 in0.0 mm 0.00 in0.0 mm 0.00 in0.0 mm
12:05 PM -11.2°F-24.0°C -15.4°F-26.3°C 81% 3.0 mph ESE4.8 kmh ESE -- 30.12 in1020.0 mb 0.00 in0.0 mm 0.00 in0.0 mm 0.00 in0.0 mm
12:06 PM -10.8°F-23.8°C -15.1°F-26.2°C 81% 4.0 mph SE6.4 kmh SE -- 30.13 in1020.3 mb 0.00 in0.0 mm 0.00 in0.0 mm 0.00 in0.0 mm
12:07 PM -10.8°F-23.8°C -15.1°F-26.2°C 81% 4.0 mph E6.4 kmh E -- 30.13 in1020.3 mb 0.00 in0.0 mm 0.00 in0.0 mm 0.00 in0.0 mm
12:08 PM -10.4°F-23.6°C -14.7°F-25.9°C 81% 7.0 mph SSE11.3 kmh SSE -- 30.13 in1020.3 mb 0.00 in0.0 mm 0.00 in0.0 mm 0.00 in0.0 mm
12:09 PM -10.2°F-23.4°C -14.4°F-25.8°C 81% 4.0 mph SSE6.4 kmh SSE -- 30.13 in1020.3 mb 0.00 in0.0 mm 0.00 in0.0 mm 0.00 in0.0 mm
12:10 PM -10.4°F-23.6°C -14.7°F-25.9°C 81% 5.0 mph SSE8.0 kmh SSE -- 30.13 in1020.3 mb 0.00 in0.0 mm 0.00 in0.0 mm 0.00 in0.0 mm
12:11 PM -10.0°F-23.3°C -14.2°F-25.7°C 81% 6.0 mph ESE9.7 kmh ESE -- 30.12 in1020.0 mb 0.00 in0.0 mm 0.00 in0.0 mm 0.00 in0.0 mm
12:12 PM -10.0°F-23.3°C -14.2°F-25.7°C 81% 6.0 mph ESE9.7 kmh ESE -- 30.13 in1020.3 mb 0.00 in0.0 mm 0.00 in0.0 mm 0.00 in0.0 mm
12:13 PM -10.2°F-23.4°C -14.4°F-25.8°C 81% 5.0 mph E8.0 kmh E -- 30.13 in1020.3 mb 0.00 in0.0 mm 0.00 in0.0 mm 0.00 in0.0 mm
12:14 PM -10.4°F-23.6°C -14.7°F-25.9°C 81% 6.0 mph ESE9.7 kmh ESE -- 30.13 in1020.3 mb 0.00 in0.0 mm 0.00 in0.0 mm 0.00 in0.0 mm
12:15 PM -10.2°F-23.4°C -14.4°F-25.8°C 81% 7.0 mph ESE11.3 kmh ESE -- 30.13 in1020.3 mb 0.00 in0.0 mm 0.00 in0.0 mm 0.00 in0.0 mm
12:16 PM -10.2°F-23.4°C -13.9°F-25.5°C 83% 5.0 mph ESE8.0 kmh ESE -- 30.12 in1020.0 mb 0.00 in0.0 mm 0.00 in0.0 mm 0.00 in0.0 mm
12:17 PM -10.2°F-23.4°C -13.9°F-25.5°C 83% 6.0 mph SE9.7 kmh SE -- 30.12 in1020.0 mb 0.00 in0.0 mm 0.00 in0.0 mm 0.00 in0.0 mm
12:18 PM -10.2°F-23.4°C -13.9°F-25.5°C 83% 4.0 mph SSE6.4 kmh SSE -- 30.13 in1020.3 mb 0.00 in0.0 mm 0.00 in0.0 mm 0.00 in0.0 mm
12:19 PM -10.4°F-23.6°C -14.2°F-25.7°C 83% 6.0 mph ESE9.7 kmh ESE -- 30.12 in1020.0 mb 0.00 in0.0 mm 0.00 in0.0 mm 0.00 in0.0 mm
12:20 PM -11.3°F-24.1°C -15.6°F-26.4°C 81% 5.0 mph SSE8.0 kmh SSE -- 30.12 in1020.0 mb 0.00 in0.0 mm 0.00 in0.0 mm 0.00 in0.0 mm
12:21 PM -11.0°F-23.9°C -15.3°F-26.3°C 81% 6.0 mph SE9.7 kmh SE -- 30.12 in1020.0 mb 0.00 in0.0 mm 0.00 in0.0 mm 0.00 in0.0 mm
12:22 PM -10.2°F-23.4°C -13.9°F-25.5°C 83% 4.0 mph SE6.4 kmh SE -- 30.12 in1020.0 mb 0.00 in0.0 mm 0.00 in0.0 mm 0.00 in0.0 mm
12:23 PM -10.0°F-23.3°C -13.7°F-25.4°C 83% 8.0 mph ESE12.9 kmh ESE -- 30.12 in1020.0 mb 0.00 in0.0 mm 0.00 in0.0 mm 0.00 in0.0 mm
12:25 PM -10.0°F-23.3°C -13.7°F-25.4°C 83% 9.0 mph ESE14.5 kmh ESE -- 30.12 in1020.0 mb 0.00 in0.0 mm 0.00 in0.0 mm 0.00 in0.0 mm
12:26 PM -10.0°F-23.3°C -13.7°F-25.4°C 83% 5.0 mph SE8.0 kmh SE -- 30.12 in1020.0 mb 0.00 in0.0 mm 0.00 in0.0 mm 0.00 in0.0 mm
12:27 PM -10.2°F-23.4°C -13.9°F-25.5°C 83% 7.0 mph ESE11.3 kmh ESE -- 30.12 in1020.0 mb 0.00 in0.0 mm 0.00 in0.0 mm 0.00 in0.0 mm
12:28 PM -10.2°F-23.4°C -13.9°F-25.5°C 83% 6.0 mph SSE9.7 kmh SSE -- 30.12 in1020.0 mb 0.00 in0.0 mm 0.00 in0.0 mm 0.00 in0.0 mm
12:29 PM -10.6°F-23.7°C -14.4°F-25.8°C 83% 7.0 mph ESE11.3 kmh ESE -- 30.12 in1020.0 mb 0.00 in0.0 mm 0.00 in0.0 mm 0.00 in0.0 mm
12:30 PM -10.4°F-23.6°C -14.2°F-25.7°C 83% 6.0 mph ESE9.7 kmh ESE -- 30.12 in1020.0 mb 0.00 in0.0 mm 0.00 in0.0 mm 0.00 in0.0 mm
12:31 PM -10.2°F-23.4°C -14.4°F-25.8°C 81% 5.0 mph ESE8.0 kmh ESE -- 30.12 in1020.0 mb 0.00 in0.0 mm 0.00 in0.0 mm 0.00 in0.0 mm
12:32 PM -9.8°F-23.2°C -13.5°F-25.3°C 83% 6.0 mph ESE9.7 kmh ESE -- 30.12 in1020.0 mb 0.00 in0.0 mm 0.00 in0.0 mm 0.00 in0.0 mm
12:33 PM -9.3°F-22.9°C -13.0°F-25.0°C 83% 5.0 mph ESE8.0 kmh ESE -- 30.12 in1020.0 mb 0.00 in0.0 mm 0.00 in0.0 mm 0.00 in0.0 mm
12:34 PM -9.1°F-22.8°C -12.8°F-24.9°C 83% 4.0 mph E6.4 kmh E -- 30.12 in1020.0 mb 0.00 in0.0 mm 0.00 in0.0 mm 0.00 in0.0 mm
12:35 PM -9.0°F-22.8°C -12.8°F-24.9°C 83% 5.0 mph SSE8.0 kmh SSE -- 30.12 in1020.0 mb 0.00 in0.0 mm 0.00 in0.0 mm 0.00 in0.0 mm
12:36 PM -8.8°F-22.7°C -12.7°F-24.8°C 83% 6.0 mph ESE9.7 kmh ESE -- 30.12 in1020.0 mb 0.00 in0.0 mm 0.00 in0.0 mm 0.00 in0.0 mm
12:37 PM -8.8°F-22.7°C -12.7°F-24.8°C 83% 7.0 mph ESE11.3 kmh ESE -- 30.12 in1020.0 mb 0.00 in0.0 mm 0.00 in0.0 mm 0.00 in0.0 mm
12:38 PM -8.8°F-22.7°C -12.7°F-24.8°C 83% 6.0 mph SSE9.7 kmh SSE -- 30.12 in1020.0 mb 0.00 in0.0 mm 0.00 in0.0 mm 0.00 in0.0 mm
12:39 PM -8.6°F-22.6°C -12.5°F-24.7°C 83% 4.0 mph E6.4 kmh E -- 30.12 in1020.0 mb 0.00 in0.0 mm 0.00 in0.0 mm 0.00 in0.0 mm
12:40 PM -8.6°F-22.6°C -12.5°F-24.7°C 83% 5.0 mph SSE8.0 kmh SSE -- 30.12 in1020.0 mb 0.00 in0.0 mm 0.00 in0.0 mm 0.00 in0.0 mm
12:41 PM -8.5°F-22.5°C -12.3°F-24.6°C 83% 8.0 mph ESE12.9 kmh ESE -- 30.12 in1020.0 mb 0.00 in0.0 mm 0.00 in0.0 mm 0.00 in0.0 mm
12:42 PM -8.6°F-22.6°C -12.5°F-24.7°C 83% 8.0 mph ESE12.9 kmh ESE -- 30.12 in1020.0 mb 0.00 in0.0 mm 0.00 in0.0 mm 0.00 in0.0 mm
12:43 PM -8.8°F-22.7°C -12.7°F-24.8°C 83% 6.0 mph E9.7 kmh E -- 30.12 in1020.0 mb 0.00 in0.0 mm 0.00 in0.0 mm 0.00 in0.0 mm
12:44 PM -8.8°F-22.7°C -12.7°F-24.8°C 83% 6.0 mph SSE9.7 kmh SSE -- 30.12 in1020.0 mb 0.00 in0.0 mm 0.00 in0.0 mm 0.00 in0.0 mm
12:45 PM -9.0°F-22.8°C -12.8°F-24.9°C 83% 7.0 mph ESE11.3 kmh ESE -- 30.12 in1020.0 mb 0.00 in0.0 mm 0.00 in0.0 mm 0.00 in0.0 mm
12:46 PM -9.0°F-22.8°C -12.8°F-24.9°C 83% 6.0 mph SSE9.7 kmh SSE -- 30.12 in1020.0 mb 0.00 in0.0 mm 0.00 in0.0 mm 0.00 in0.0 mm
12:47 PM -8.8°F-22.7°C -12.7°F-24.8°C 83% 7.0 mph ESE11.3 kmh ESE -- 30.12 in1020.0 mb 0.00 in0.0 mm 0.00 in0.0 mm 0.00 in0.0 mm
12:48 PM -8.8°F-22.7°C -12.7°F-24.8°C 83% 5.0 mph ESE8.0 kmh ESE -- 30.12 in1020.0 mb 0.00 in0.0 mm 0.00 in0.0 mm 0.00 in0.0 mm
12:49 PM -8.6°F-22.6°C -12.5°F-24.7°C 83% 5.0 mph ESE8.0 kmh ESE -- 30.12 in1020.0 mb 0.00 in0.0 mm 0.00 in0.0 mm 0.00 in0.0 mm
12:50 PM -8.6°F-22.6°C -12.5°F-24.7°C 83% 6.0 mph SSE9.7 kmh SSE -- 30.12 in1020.0 mb 0.00 in0.0 mm 0.00 in0.0 mm 0.00 in0.0 mm
12:51 PM -8.3°F-22.4°C -12.1°F-24.5°C 83% 6.0 mph SSE9.7 kmh SSE -- 30.12 in1020.0 mb 0.00 in0.0 mm 0.00 in0.0 mm 0.00 in0.0 mm
12:52 PM -8.3°F-22.4°C -12.1°F-24.5°C 83% 4.0 mph ESE6.4 kmh ESE -- 30.11 in1019.6 mb 0.00 in0.0 mm 0.00 in0.0 mm 0.00 in0.0 mm
12:53 PM -8.1°F-22.3°C -11.9°F-24.4°C 83% 5.0 mph ESE8.0 kmh ESE -- 30.11 in1019.6 mb 0.00 in0.0 mm 0.00 in0.0 mm 0.00 in0.0 mm
12:54 PM -8.1°F-22.3°C -11.9°F-24.4°C 83% 8.0 mph ESE12.9 kmh ESE -- 30.12 in1020.0 mb 0.00 in0.0 mm 0.00 in0.0 mm 0.00 in0.0 mm
12:55 PM -8.1°F-22.3°C -11.9°F-24.4°C 83% 5.0 mph ESE8.0 kmh ESE -- 30.12 in1020.0 mb 0.00 in0.0 mm 0.00 in0.0 mm 0.00 in0.0 mm
12:56 PM -8.1°F-22.3°C -11.9°F-24.4°C 83% 6.0 mph SSE9.7 kmh SSE -- 30.12 in1020.0 mb 0.00 in0.0 mm 0.00 in0.0 mm 0.00 in0.0 mm
12:57 PM -8.0°F-22.2°C -11.8°F-24.3°C 83% 4.0 mph SSE6.4 kmh SSE -- 30.12 in1020.0 mb 0.00 in0.0 mm 0.00 in0.0 mm 0.00 in0.0 mm
12:58 PM -8.0°F-22.2°C -11.8°F-24.3°C 83% 6.0 mph SSE9.7 kmh SSE -- 30.11 in1019.6 mb 0.00 in0.0 mm 0.00 in0.0 mm 0.00 in0.0 mm
12:59 PM -8.1°F-22.3°C -11.9°F-24.4°C 83% 6.0 mph ESE9.7 kmh ESE -- 30.11 in1019.6 mb 0.00 in0.0 mm 0.00 in0.0 mm 0.00 in0.0 mm
01:00 PM -7.8°F-22.1°C -11.6°F-24.2°C 83% 8.0 mph ESE12.9 kmh ESE -- 30.11 in1019.6 mb 0.00 in0.0 mm 0.00 in0.0 mm 0.00 in0.0 mm
01:01 PM -7.8°F-22.1°C -11.6°F-24.2°C 83% 5.0 mph SE8.0 kmh SE -- 30.12 in1020.0 mb 0.00 in0.0 mm 0.00 in0.0 mm 0.00 in0.0 mm
01:02 PM -7.5°F-21.9°C -11.2°F-24.0°C 83% 6.0 mph SSE9.7 kmh SSE -- 30.12 in1020.0 mb 0.00 in0.0 mm 0.00 in0.0 mm 0.00 in0.0 mm
01:03 PM -7.5°F-21.9°C -11.2°F-24.0°C 83% 8.0 mph ESE12.9 kmh ESE -- 30.11 in1019.6 mb 0.00 in0.0 mm 0.00 in0.0 mm 0.00 in0.0 mm
01:04 PM -7.8°F-22.1°C -11.6°F-24.2°C 83% 5.0 mph ESE8.0 kmh ESE -- 30.12 in1020.0 mb 0.00 in0.0 mm 0.00 in0.0 mm 0.00 in0.0 mm
01:05 PM -7.5°F-21.9°C -11.2°F-24.0°C 83% 5.0 mph ESE8.0 kmh ESE -- 30.12 in1020.0 mb 0.00 in0.0 mm 0.00 in0.0 mm 0.00 in0.0 mm
01:06 PM -7.5°F-21.9°C -11.2°F-24.0°C 83% 4.0 mph SE6.4 kmh SE -- 30.11 in1019.6 mb 0.00 in0.0 mm 0.00 in0.0 mm 0.00 in0.0 mm
01:07 PM -7.1°F-21.7°C -10.9°F-23.8°C 83% 6.0 mph ESE9.7 kmh ESE -- 30.12 in1020.0 mb 0.00 in0.0 mm 0.00 in0.0 mm 0.00 in0.0 mm
01:08 PM -7.0°F-21.7°C -10.9°F-23.8°C 83% 4.0 mph ESE6.4 kmh ESE -- 30.12 in1020.0 mb 0.00 in0.0 mm 0.00 in0.0 mm 0.00 in0.0 mm
01:09 PM -7.0°F-21.7°C -10.9°F-23.8°C 83% 4.0 mph E6.4 kmh E -- 30.11 in1019.6 mb 0.00 in0.0 mm 0.00 in0.0 mm 0.00 in0.0 mm
01:10 PM -6.9°F-21.6°C -10.7°F-23.7°C 83% 6.0 mph ESE9.7 kmh ESE -- 30.11 in1019.6 mb 0.00 in0.0 mm 0.00 in0.0 mm 0.00 in0.0 mm
01:11 PM -6.9°F-21.6°C -10.7°F-23.7°C 83% 6.0 mph E9.7 kmh E -- 30.12 in1020.0 mb 0.00 in0.0 mm 0.00 in0.0 mm 0.00 in0.0 mm
01:12 PM -7.0°F-21.7°C -10.9°F-23.8°C 83% 5.0 mph SSE8.0 kmh SSE -- 30.11 in1019.6 mb 0.00 in0.0 mm 0.00 in0.0 mm 0.00 in0.0 mm
01:13 PM -7.1°F-21.7°C -11.4°F-24.1°C 81% 5.0 mph ESE8.0 kmh ESE -- 30.11 in1019.6 mb 0.00 in0.0 mm 0.00 in0.0 mm 0.00 in0.0 mm
01:14 PM -7.0°F-21.7°C -11.4°F-24.1°C 81% 6.0 mph ESE9.7 kmh ESE -- 30.12 in1020.0 mb 0.00 in0.0 mm 0.00 in0.0 mm 0.00 in0.0 mm
01:15 PM -7.1°F-21.7°C -11.4°F-24.1°C 81% 5.0 mph ESE8.0 kmh ESE -- 30.11 in1019.6 mb 0.00 in0.0 mm 0.00 in0.0 mm 0.00 in0.0 mm
01:16 PM -7.1°F-21.7°C -11.4°F-24.1°C 81% 8.0 mph ESE12.9 kmh ESE -- 30.11 in1019.6 mb 0.00 in0.0 mm 0.00 in0.0 mm 0.00 in0.0 mm
01:17 PM -7.1°F-21.7°C -11.4°F-24.1°C 81% 7.0 mph SE11.3 kmh SE -- 30.11 in1019.6 mb 0.00 in0.0 mm 0.00 in0.0 mm 0.00 in0.0 mm
01:18 PM -7.4°F-21.9°C -11.7°F-24.3°C 81% 6.0 mph SE9.7 kmh SE -- 30.11 in1019.6 mb 0.00 in0.0 mm 0.00 in0.0 mm 0.00 in0.0 mm
01:19 PM -7.4°F-21.9°C -11.7°F-24.3°C 81% 7.0 mph ESE11.3 kmh ESE -- 30.11 in1019.6 mb 0.00 in0.0 mm 0.00 in0.0 mm 0.00 in0.0 mm
01:20 PM -7.4°F-21.9°C -11.7°F-24.3°C 81% 6.0 mph ESE9.7 kmh ESE -- 30.10 in1019.3 mb 0.00 in0.0 mm 0.00 in0.0 mm 0.00 in0.0 mm
01:21 PM -7.1°F-21.7°C -11.4°F-24.1°C 81% 6.0 mph SE9.7 kmh SE -- 30.11 in1019.6 mb 0.00 in0.0 mm 0.00 in0.0 mm 0.00 in0.0 mm
01:22 PM -7.1°F-21.7°C -11.4°F-24.1°C 81% 7.0 mph ESE11.3 kmh ESE -- 30.11 in1019.6 mb 0.00 in0.0 mm 0.00 in0.0 mm 0.00 in0.0 mm
01:24 PM -7.1°F-21.7°C -11.4°F-24.1°C 81% 5.0 mph ESE8.0 kmh ESE -- 30.11 in1019.6 mb 0.00 in0.0 mm 0.00 in0.0 mm 0.00 in0.0 mm
01:25 PM -7.1°F-21.7°C -11.4°F-24.1°C 81% 8.0 mph E12.9 kmh E -- 30.11 in1019.6 mb 0.00 in0.0 mm 0.00 in0.0 mm 0.00 in0.0 mm
01:26 PM -7.1°F-21.7°C -11.4°F-24.1°C 81% 6.0 mph SSE9.7 kmh SSE -- 30.10 in1019.3 mb 0.00 in0.0 mm 0.00 in0.0 mm 0.00 in0.0 mm
01:27 PM -6.9°F-21.6°C -11.2°F-24.0°C 81% 6.0 mph ESE9.7 kmh ESE -- 30.10 in1019.3 mb 0.00 in0.0 mm 0.00 in0.0 mm 0.00 in0.0 mm
01:28 PM -6.9°F-21.6°C -11.2°F-24.0°C 81% 4.0 mph ESE6.4 kmh ESE -- 30.11 in1019.6 mb 0.00 in0.0 mm 0.00 in0.0 mm 0.00 in0.0 mm
01:29 PM -6.6°F-21.4°C -10.4°F-23.6°C 83% 6.0 mph ESE9.7 kmh ESE -- 30.11 in1019.6 mb 0.00 in0.0 mm 0.00 in0.0 mm 0.00 in0.0 mm
01:30 PM -6.5°F-21.4°C -10.4°F-23.6°C 83% 4.0 mph S6.4 kmh S -- 30.11 in1019.6 mb 0.00 in0.0 mm 0.00 in0.0 mm 0.00 in0.0 mm
01:31 PM -6.6°F-21.4°C -10.9°F-23.8°C 81% 6.0 mph E9.7 kmh E -- 30.11 in1019.6 mb 0.00 in0.0 mm 0.00 in0.0 mm 0.00 in0.0 mm
01:32 PM -6.3°F-21.3°C -10.7°F-23.7°C 81% 5.0 mph SE8.0 kmh SE -- 30.11 in1019.6 mb 0.00 in0.0 mm 0.00 in0.0 mm 0.00 in0.0 mm
01:33 PM -6.1°F-21.2°C -10.5°F-23.6°C 81% 5.0 mph ESE8.0 kmh ESE -- 30.11 in1019.6 mb 0.00 in0.0 mm 0.00 in0.0 mm 0.00 in0.0 mm
01:34 PM -5.8°F-21.0°C -9.7°F-23.2°C 83% 5.0 mph ESE8.0 kmh ESE -- 30.11 in1019.6 mb 0.00 in0.0 mm 0.00 in0.0 mm 0.00 in0.0 mm
01:35 PM -5.8°F-21.0°C -9.7°F-23.2°C 83% 6.0 mph ESE9.7 kmh ESE -- 30.11 in1019.6 mb 0.00 in0.0 mm 0.00 in0.0 mm 0.00 in0.0 mm
01:36 PM -5.4°F-20.8°C -9.3°F-22.9°C 83% 4.0 mph ESE6.4 kmh ESE -- 30.10 in1019.3 mb 0.00 in0.0 mm 0.00 in0.0 mm 0.00 in0.0 mm
01:37 PM -5.4°F-20.8°C -9.3°F-22.9°C 83% 3.0 mph SSE4.8 kmh SSE -- 30.11 in1019.6 mb 0.00 in0.0 mm 0.00 in0.0 mm 0.00 in0.0 mm
01:38 PM -5.4°F-20.8°C -9.3°F-22.9°C 83% 5.0 mph E8.0 kmh E -- 30.10 in1019.3 mb 0.00 in0.0 mm 0.00 in0.0 mm 0.00 in0.0 mm
01:39 PM -5.4°F-20.8°C -9.3°F-22.9°C 83% 5.0 mph ESE8.0 kmh ESE -- 30.10 in1019.3 mb 0.00 in0.0 mm 0.00 in0.0 mm 0.00 in0.0 mm
01:40 PM -5.5°F-20.8°C -9.3°F-22.9°C 83% 3.0 mph ESE4.8 kmh ESE -- 30.10 in1019.3 mb 0.00 in0.0 mm 0.00 in0.0 mm 0.00 in0.0 mm
01:41 PM -5.3°F-20.7°C -9.1°F-22.8°C 83% 4.0 mph ESE6.4 kmh ESE -- 30.10 in1019.3 mb 0.00 in0.0 mm 0.00 in0.0 mm 0.00 in0.0 mm
01:42 PM -5.3°F-20.7°C -9.1°F-22.8°C 83% 7.0 mph ESE11.3 kmh ESE -- 30.10 in1019.3 mb 0.00 in0.0 mm 0.00 in0.0 mm 0.00 in0.0 mm
01:44 PM -5.4°F-20.8°C -9.8°F-23.2°C 81% 6.0 mph E9.7 kmh E -- 30.09 in1019.0 mb 0.00 in0.0 mm 0.00 in0.0 mm 0.00 in0.0 mm
01:45 PM -5.4°F-20.8°C -9.8°F-23.2°C 81% 6.0 mph SE9.7 kmh SE -- 30.10 in1019.3 mb 0.00 in0.0 mm 0.00 in0.0 mm 0.00 in0.0 mm
01:46 PM -6.0°F-21.1°C -10.3°F-23.5°C 81% 7.0 mph SE11.3 kmh SE -- 30.09 in1019.0 mb 0.00 in0.0 mm 0.00 in0.0 mm 0.00 in0.0 mm
01:47 PM -6.0°F-21.1°C -10.3°F-23.5°C 81% 5.0 mph E8.0 kmh E -- 30.09 in1019.0 mb 0.00 in0.0 mm 0.00 in0.0 mm 0.00 in0.0 mm
01:48 PM -5.8°F-21.0°C -10.2°F-23.4°C 81% 5.0 mph E8.0 kmh E -- 30.09 in1019.0 mb 0.00 in0.0 mm 0.00 in0.0 mm 0.00 in0.0 mm
01:49 PM -5.8°F-21.0°C -10.2°F-23.4°C 81% 5.0 mph E8.0 kmh E -- 30.10 in1019.3 mb 0.00 in0.0 mm 0.00 in0.0 mm 0.00 in0.0 mm
01:50 PM -5.8°F-21.0°C -10.2°F-23.4°C 81% 7.0 mph E11.3 kmh E -- 30.10 in1019.3 mb 0.00 in0.0 mm 0.00 in0.0 mm 0.00 in0.0 mm
01:51 PM -6.1°F-21.2°C -10.5°F-23.6°C 81% 5.0 mph ENE8.0 kmh ENE -- 30.09 in1019.0 mb 0.00 in0.0 mm 0.00 in0.0 mm 0.00 in0.0 mm
01:52 PM -6.1°F-21.2°C -10.5°F-23.6°C 81% 5.0 mph ESE8.0 kmh ESE -- 30.09 in1019.0 mb 0.00 in0.0 mm 0.00 in0.0 mm 0.00 in0.0 mm
01:53 PM -6.1°F-21.2°C -10.5°F-23.6°C 81% 5.0 mph E8.0 kmh E -- 30.09 in1019.0 mb 0.00 in0.0 mm 0.00 in0.0 mm 0.00 in0.0 mm
01:54 PM -6.3°F-21.3°C -10.7°F-23.7°C 81% 4.0 mph E6.4 kmh E -- 30.10 in1019.3 mb 0.00 in0.0 mm 0.00 in0.0 mm 0.00 in0.0 mm
01:55 PM -6.3°F-21.3°C -10.7°F-23.7°C 81% 6.0 mph SSE9.7 kmh SSE -- 30.10 in1019.3 mb 0.00 in0.0 mm 0.00 in0.0 mm 0.00 in0.0 mm
01:56 PM -6.3°F-21.3°C -10.7°F-23.7°C 81% 6.0 mph ESE9.7 kmh ESE -- 30.10 in1019.3 mb 0.00 in0.0 mm 0.00 in0.0 mm 0.00 in0.0 mm
01:57 PM -6.3°F-21.3°C -10.7°F-23.7°C 81% 6.0 mph E9.7 kmh E -- 30.09 in1019.0 mb 0.00 in0.0 mm 0.00 in0.0 mm 0.00 in0.0 mm
01:58 PM -6.6°F-21.4°C -10.9°F-23.8°C 81% 7.0 mph E11.3 kmh E -- 30.09 in1019.0 mb 0.00 in0.0 mm 0.00 in0.0 mm 0.00 in0.0 mm
01:59 PM -7.0°F-21.7°C -11.4°F-24.1°C 81% 6.0 mph ENE9.7 kmh ENE -- 30.09 in1019.0 mb 0.00 in0.0 mm 0.00 in0.0 mm 0.00 in0.0 mm
02:00 PM -7.1°F-21.7°C -11.4°F-24.1°C 81% 6.0 mph ENE9.7 kmh ENE -- 30.10 in1019.3 mb 0.00 in0.0 mm 0.00 in0.0 mm 0.00 in0.0 mm
02:02 PM -7.4°F-21.9°C -11.7°F-24.3°C 81% 6.0 mph ENE9.7 kmh ENE -- 30.10 in1019.3 mb 0.00 in0.0 mm 0.00 in0.0 mm 0.00 in0.0 mm
02:03 PM -7.8°F-22.1°C -12.1°F-24.5°C 81% 7.0 mph ESE11.3 kmh ESE -- 30.10 in1019.3 mb 0.00 in0.0 mm 0.00 in0.0 mm 0.00 in0.0 mm
02:04 PM -7.8°F-22.1°C -12.1°F-24.5°C 81% 6.0 mph ENE9.7 kmh ENE -- 30.10 in1019.3 mb 0.00 in0.0 mm 0.00 in0.0 mm 0.00 in0.0 mm
02:05 PM -8.1°F-22.3°C -12.7°F-24.8°C 80% 5.0 mph E8.0 kmh E -- 30.09 in1019.0 mb 0.00 in0.0 mm 0.00 in0.0 mm 0.00 in0.0 mm
02:06 PM -8.1°F-22.3°C -12.7°F-24.8°C 80% 3.0 mph ENE4.8 kmh ENE -- 30.10 in1019.3 mb 0.00 in0.0 mm 0.00 in0.0 mm 0.00 in0.0 mm
02:07 PM -8.0°F-22.2°C -12.3°F-24.6°C 81% 4.0 mph E6.4 kmh E -- 30.09 in1019.0 mb 0.00 in0.0 mm 0.00 in0.0 mm 0.00 in0.0 mm
02:08 PM -8.3°F-22.4°C -12.6°F-24.8°C 81% 6.0 mph ENE9.7 kmh ENE -- 30.09 in1019.0 mb 0.00 in0.0 mm 0.00 in0.0 mm 0.00 in0.0 mm
02:09 PM -8.3°F-22.4°C -12.6°F-24.8°C 81% 6.0 mph E9.7 kmh E -- 30.09 in1019.0 mb 0.00 in0.0 mm 0.00 in0.0 mm 0.00 in0.0 mm
02:10 PM -8.3°F-22.4°C -12.6°F-24.8°C 81% 5.0 mph E8.0 kmh E -- 30.09 in1019.0 mb 0.00 in0.0 mm 0.00 in0.0 mm 0.00 in0.0 mm
02:11 PM -8.3°F-22.4°C -12.6°F-24.8°C 81% 6.0 mph E9.7 kmh E -- 30.09 in1019.0 mb 0.00 in0.0 mm 0.00 in0.0 mm 0.00 in0.0 mm
02:12 PM -8.3°F-22.4°C -12.6°F-24.8°C 81% 5.0 mph E8.0 kmh E -- 30.09 in1019.0 mb 0.00 in0.0 mm 0.00 in0.0 mm 0.00 in0.0 mm
02:13 PM -8.5°F-22.5°C -13.0°F-25.0°C 80% 6.0 mph ENE9.7 kmh ENE -- 30.09 in1019.0 mb 0.00 in0.0 mm 0.00 in0.0 mm 0.00 in0.0 mm
02:14 PM -8.5°F-22.5°C -13.0°F-25.0°C 80% 6.0 mph ESE9.7 kmh ESE -- 30.09 in1019.0 mb 0.00 in0.0 mm 0.00 in0.0 mm 0.00 in0.0 mm
02:15 PM -8.5°F-22.5°C -13.0°F-25.0°C 80% 5.0 mph ENE8.0 kmh ENE -- 30.08 in1018.6 mb 0.00 in0.0 mm 0.00 in0.0 mm 0.00 in0.0 mm
02:16 PM -8.3°F-22.4°C -12.9°F-24.9°C 80% 5.0 mph ENE8.0 kmh ENE -- 30.09 in1019.0 mb 0.00 in0.0 mm 0.00 in0.0 mm 0.00 in0.0 mm
02:17 PM -8.3°F-22.4°C -12.9°F-24.9°C 80% 5.0 mph ESE8.0 kmh ESE -- 30.08 in1018.6 mb 0.00 in0.0 mm 0.00 in0.0 mm 0.00 in0.0 mm
02:18 PM -8.0°F-22.2°C -12.3°F-24.6°C 81% 6.0 mph ENE9.7 kmh ENE -- 30.09 in1019.0 mb 0.00 in0.0 mm 0.00 in0.0 mm 0.00 in0.0 mm
02:19 PM -8.3°F-22.4°C -12.6°F-24.8°C 81% 5.0 mph ENE8.0 kmh ENE -- 30.09 in1019.0 mb 0.00 in0.0 mm 0.00 in0.0 mm 0.00 in0.0 mm
02:20 PM -8.3°F-22.4°C -12.6°F-24.8°C 81% 6.0 mph E9.7 kmh E -- 30.09 in1019.0 mb 0.00 in0.0 mm 0.00 in0.0 mm 0.00 in0.0 mm
02:21 PM -8.5°F-22.5°C -13.0°F-25.0°C 80% 5.0 mph E8.0 kmh E -- 30.09 in1019.0 mb 0.00 in0.0 mm 0.00 in0.0 mm 0.00 in0.0 mm
02:23 PM -8.5°F-22.5°C -13.0°F-25.0°C 80% 5.0 mph E8.0 kmh E -- 30.08 in1018.6 mb 0.00 in0.0 mm 0.00 in0.0 mm 0.00 in0.0 mm
02:24 PM -8.5°F-22.5°C -13.0°F-25.0°C 80% 4.0 mph E6.4 kmh E -- 30.09 in1019.0 mb 0.00 in0.0 mm 0.00 in0.0 mm 0.00 in0.0 mm
02:25 PM -8.3°F-22.4°C -12.6°F-24.8°C 81% 5.0 mph E8.0 kmh E -- 30.09 in1019.0 mb 0.00 in0.0 mm 0.00 in0.0 mm 0.00 in0.0 mm
02:27 PM -8.5°F-22.5°C -12.8°F-24.9°C 81% 6.0 mph ENE9.7 kmh ENE -- 30.09 in1019.0 mb 0.00 in0.0 mm 0.00 in0.0 mm 0.00 in0.0 mm
02:28 PM -8.5°F-22.5°C -12.8°F-24.9°C 81% 5.0 mph E8.0 kmh E -- 30.08 in1018.6 mb 0.00 in0.0 mm 0.00 in0.0 mm 0.00 in0.0 mm
02:29 PM -8.5°F-22.5°C -12.8°F-24.9°C 81% 6.0 mph ENE9.7 kmh ENE -- 30.09 in1019.0 mb 0.00 in0.0 mm 0.00 in0.0 mm 0.00 in0.0 mm
02:30 PM -8.6°F-22.6°C -13.0°F-25.0°C 81% 6.0 mph E9.7 kmh E -- 30.08 in1018.6 mb 0.00 in0.0 mm 0.00 in0.0 mm 0.00 in0.0 mm
02:31 PM -8.5°F-22.5°C -12.8°F-24.9°C 81% 4.0 mph NE6.4 kmh NE -- 30.09 in1019.0 mb 0.00 in0.0 mm 0.00 in0.0 mm 0.00 in0.0 mm
02:32 PM -8.3°F-22.4°C -12.6°F-24.8°C 81% 7.0 mph ENE11.3 kmh ENE -- 30.08 in1018.6 mb 0.00 in0.0 mm 0.00 in0.0 mm 0.00 in0.0 mm
02:33 PM -8.5°F-22.5°C -13.0°F-25.0°C 80% 5.0 mph E8.0 kmh E -- 30.08 in1018.6 mb 0.00 in0.0 mm 0.00 in0.0 mm 0.00 in0.0 mm
02:34 PM -8.5°F-22.5°C -13.0°F-25.0°C 80% 5.0 mph ENE8.0 kmh ENE -- 30.08 in1018.6 mb 0.00 in0.0 mm 0.00 in0.0 mm 0.00 in0.0 mm
02:35 PM -8.5°F-22.5°C -13.0°F-25.0°C 80% 5.0 mph NE8.0 kmh NE -- 30.08 in1018.6 mb 0.00 in0.0 mm 0.00 in0.0 mm 0.00 in0.0 mm
02:36 PM -8.3°F-22.4°C -12.9°F-24.9°C 80% 4.0 mph ESE6.4 kmh ESE -- 30.08 in1018.6 mb 0.00 in0.0 mm 0.00 in0.0 mm 0.00 in0.0 mm
02:37 PM -8.3°F-22.4°C -12.9°F-24.9°C 80% 5.0 mph ENE8.0 kmh ENE -- 30.08 in1018.6 mb 0.00 in0.0 mm 0.00 in0.0 mm 0.00 in0.0 mm
02:38 PM -8.3°F-22.4°C -12.6°F-24.8°C 81% 4.0 mph NE6.4 kmh NE -- 30.08 in1018.6 mb 0.00 in0.0 mm 0.00 in0.0 mm 0.00 in0.0 mm
02:40 PM -8.1°F-22.3°C -12.4°F-24.7°C 81% 5.0 mph ENE8.0 kmh ENE -- 30.08 in1018.6 mb 0.00 in0.0 mm 0.00 in0.0 mm 0.00 in0.0 mm
02:41 PM -8.1°F-22.3°C -12.4°F-24.7°C 81% 4.0 mph E6.4 kmh E -- 30.08 in1018.6 mb 0.00 in0.0 mm 0.00 in0.0 mm 0.00 in0.0 mm
02:42 PM -8.1°F-22.3°C -12.4°F-24.7°C 81% 5.0 mph E8.0 kmh E -- 30.08 in1018.6 mb 0.00 in0.0 mm 0.00 in0.0 mm 0.00 in0.0 mm
02:43 PM -8.1°F-22.3°C -12.4°F-24.7°C 81% 5.0 mph ENE8.0 kmh ENE -- 30.08 in1018.6 mb 0.00 in0.0 mm 0.00 in0.0 mm 0.00 in0.0 mm
02:44 PM -8.3°F-22.4°C -12.6°F-24.8°C 81% 4.0 mph ENE6.4 kmh ENE -- 30.07 in1018.3 mb 0.00 in0.0 mm 0.00 in0.0 mm 0.00 in0.0 mm
02:45 PM -8.1°F-22.3°C -12.4°F-24.7°C 81% 4.0 mph NE6.4 kmh NE -- 30.07 in1018.3 mb 0.00 in0.0 mm 0.00 in0.0 mm 0.00 in0.0 mm
02:46 PM -8.1°F-22.3°C -12.4°F-24.7°C 81% 5.0 mph ENE8.0 kmh ENE -- 30.08 in1018.6 mb 0.00 in0.0 mm 0.00 in0.0 mm 0.00 in0.0 mm
02:47 PM -8.3°F-22.4°C -12.6°F-24.8°C 81% 5.0 mph ENE8.0 kmh ENE -- 30.08 in1018.6 mb 0.00 in0.0 mm 0.00 in0.0 mm 0.00 in0.0 mm
02:48 PM -8.3°F-22.4°C -12.6°F-24.8°C 81% 5.0 mph ENE8.0 kmh ENE -- 30.07 in1018.3 mb 0.00 in0.0 mm 0.00 in0.0 mm 0.00 in0.0 mm
02:49 PM -8.1°F-22.3°C -12.4°F-24.7°C 81% 3.0 mph NNE4.8 kmh NNE -- 30.08 in1018.6 mb 0.00 in0.0 mm 0.00 in0.0 mm 0.00 in0.0 mm
02:50 PM -7.8°F-22.1°C -12.1°F-24.5°C 81% 4.0 mph ENE6.4 kmh ENE -- 30.07 in1018.3 mb 0.00 in0.0 mm 0.00 in0.0 mm 0.00 in0.0 mm
02:51 PM -7.8°F-22.1°C -12.1°F-24.5°C 81% 5.0 mph ENE8.0 kmh ENE -- 30.07 in1018.3 mb 0.00 in0.0 mm 0.00 in0.0 mm 0.00 in0.0 mm
02:52 PM -8.0°F-22.2°C -12.3°F-24.6°C 81% 5.0 mph ENE8.0 kmh ENE -- 30.07 in1018.3 mb 0.00 in0.0 mm 0.00 in0.0 mm 0.00 in0.0 mm
02:53 PM -8.1°F-22.3°C -12.4°F-24.7°C 81% 6.0 mph E9.7 kmh E -- 30.07 in1018.3 mb 0.00 in0.0 mm 0.00 in0.0 mm 0.00 in0.0 mm
02:54 PM -8.1°F-22.3°C -12.4°F-24.7°C 81% 6.0 mph ENE9.7 kmh ENE -- 30.07 in1018.3 mb 0.00 in0.0 mm 0.00 in0.0 mm 0.00 in0.0 mm
02:55 PM -8.5°F-22.5°C -13.0°F-25.0°C 80% 5.0 mph E8.0 kmh E -- 30.07 in1018.3 mb 0.00 in0.0 mm 0.00 in0.0 mm 0.00 in0.0 mm
02:56 PM -8.5°F-22.5°C -13.0°F-25.0°C 80% 4.0 mph E6.4 kmh E -- 30.07 in1018.3 mb 0.00 in0.0 mm 0.00 in0.0 mm 0.00 in0.0 mm
02:57 PM -8.3°F-22.4°C -12.9°F-24.9°C 80% 4.0 mph E6.4 kmh E -- 30.07 in1018.3 mb 0.00 in0.0 mm 0.00 in0.0 mm 0.00 in0.0 mm
02:58 PM -8.1°F-22.3°C -12.7°F-24.8°C 80% 5.0 mph NE8.0 kmh NE -- 30.07 in1018.3 mb 0.00 in0.0 mm 0.00 in0.0 mm 0.00 in0.0 mm
02:59 PM -8.1°F-22.3°C -12.7°F-24.8°C 80% 6.0 mph ESE9.7 kmh ESE -- 30.07 in1018.3 mb 0.00 in0.0 mm 0.00 in0.0 mm 0.00 in0.0 mm
03:00 PM -8.3°F-22.4°C -12.9°F-24.9°C 80% 6.0 mph E9.7 kmh E -- 30.07 in1018.3 mb 0.00 in0.0 mm 0.00 in0.0 mm 0.00 in0.0 mm
03:01 PM -8.5°F-22.5°C -13.0°F-25.0°C 80% 6.0 mph NE9.7 kmh NE -- 30.07 in1018.3 mb 0.00 in0.0 mm 0.00 in0.0 mm 0.00 in0.0 mm
03:02 PM -8.5°F-22.5°C -13.0°F-25.0°C 80% 5.0 mph ENE8.0 kmh ENE -- 30.07 in1018.3 mb 0.00 in0.0 mm 0.00 in0.0 mm 0.00 in0.0 mm
03:03 PM -8.5°F-22.5°C -13.0°F-25.0°C 80% 5.0 mph E8.0 kmh E -- 30.07 in1018.3 mb 0.00 in0.0 mm 0.00 in0.0 mm 0.00 in0.0 mm
03:04 PM -8.3°F-22.4°C -12.9°F-24.9°C 80% 5.0 mph E8.0 kmh E -- 30.07 in1018.3 mb 0.00 in0.0 mm 0.00 in0.0 mm 0.00 in0.0 mm
03:05 PM -8.3°F-22.4°C -12.9°F-24.9°C 80% 4.0 mph E6.4 kmh E -- 30.07 in1018.3 mb 0.00 in0.0 mm 0.00 in0.0 mm 0.00 in0.0 mm
03:06 PM -8.3°F-22.4°C -12.9°F-24.9°C 80% 5.0 mph NE8.0 kmh NE -- 30.07 in1018.3 mb 0.00 in0.0 mm 0.00 in0.0 mm 0.00 in0.0 mm
03:07 PM -8.3°F-22.4°C -12.9°F-24.9°C 80% 5.0 mph ENE8.0 kmh ENE -- 30.07 in1018.3 mb 0.00 in0.0 mm 0.00 in0.0 mm 0.00 in0.0 mm
03:08 PM -8.3°F-22.4°C -12.9°F-24.9°C 80% 6.0 mph NE9.7 kmh NE -- 30.07 in1018.3 mb 0.00 in0.0 mm 0.00 in0.0 mm 0.00 in0.0 mm
03:09 PM -8.5°F-22.5°C -13.0°F-25.0°C 80% 6.0 mph NE9.7 kmh NE -- 30.07 in1018.3 mb 0.00 in0.0 mm 0.00 in0.0 mm 0.00 in0.0 mm
03:10 PM -8.6°F-22.6°C -13.2°F-25.1°C 80% 5.0 mph NE8.0 kmh NE -- 30.06 in1017.9 mb 0.00 in0.0 mm 0.00 in0.0 mm 0.00 in0.0 mm
03:11 PM -8.5°F-22.5°C -13.0°F-25.0°C 80% 5.0 mph E8.0 kmh E -- 30.06 in1017.9 mb 0.00 in0.0 mm 0.00 in0.0 mm 0.00 in0.0 mm
03:12 PM -8.5°F-22.5°C -13.0°F-25.0°C 80% 7.0 mph E11.3 kmh E -- 30.06 in1017.9 mb 0.00 in0.0 mm 0.00 in0.0 mm 0.00 in0.0 mm
03:13 PM -8.5°F-22.5°C -13.0°F-25.0°C 80% 6.0 mph E9.7 kmh E -- 30.06 in1017.9 mb 0.00 in0.0 mm 0.00 in0.0 mm 0.00 in0.0 mm
03:14 PM -8.5°F-22.5°C -13.0°F-25.0°C 80% 5.0 mph NE8.0 kmh NE -- 30.06 in1017.9 mb 0.00 in0.0 mm 0.00 in0.0 mm 0.00 in0.0 mm
03:16 PM -8.5°F-22.5°C -13.0°F-25.0°C 80% 5.0 mph ENE8.0 kmh ENE -- 30.06 in1017.9 mb 0.00 in0.0 mm 0.00 in0.0 mm 0.00 in0.0 mm
03:17 PM -8.5°F-22.5°C -13.0°F-25.0°C 80% 4.0 mph ENE6.4 kmh ENE -- 30.06 in1017.9 mb 0.00 in0.0 mm 0.00 in0.0 mm 0.00 in0.0 mm
03:18 PM -8.3°F-22.4°C -12.6°F-24.8°C 81% 4.0 mph E6.4 kmh E -- 30.06 in1017.9 mb 0.00 in0.0 mm 0.00 in0.0 mm 0.00 in0.0 mm
03:19 PM -8.0°F-22.2°C -12.3°F-24.6°C 81% 6.0 mph E9.7 kmh E -- 30.06 in1017.9 mb 0.00 in0.0 mm 0.00 in0.0 mm 0.00 in0.0 mm
03:20 PM -8.0°F-22.2°C -12.3°F-24.6°C 81% 4.0 mph E6.4 kmh E -- 30.06 in1017.9 mb 0.00 in0.0 mm 0.00 in0.0 mm 0.00 in0.0 mm
03:21 PM -8.0°F-22.2°C -12.3°F-24.6°C 81% 7.0 mph ENE11.3 kmh ENE -- 30.06 in1017.9 mb 0.00 in0.0 mm 0.00 in0.0 mm 0.00 in0.0 mm
03:22 PM -8.1°F-22.3°C -12.7°F-24.8°C 80% 5.0 mph E8.0 kmh E -- 30.06 in1017.9 mb 0.00 in0.0 mm 0.00 in0.0 mm 0.00 in0.0 mm
03:23 PM -8.1°F-22.3°C -12.7°F-24.8°C 80% 7.0 mph ENE11.3 kmh ENE -- 30.06 in1017.9 mb 0.00 in0.0 mm 0.00 in0.0 mm 0.00 in0.0 mm
03:24 PM -8.3°F-22.4°C -12.9°F-24.9°C 80% 5.0 mph E8.0 kmh E -- 30.06 in1017.9 mb 0.00 in0.0 mm 0.00 in0.0 mm 0.00 in0.0 mm
03:25 PM -8.3°F-22.4°C -12.9°F-24.9°C 80% 7.0 mph E11.3 kmh E -- 30.06 in1017.9 mb 0.00 in0.0 mm 0.00 in0.0 mm 0.00 in0.0 mm
03:26 PM -8.3°F-22.4°C -12.9°F-24.9°C 80% 5.0 mph E8.0 kmh E -- 30.06 in1017.9 mb 0.00 in0.0 mm 0.00 in0.0 mm 0.00 in0.0 mm
03:27 PM -8.3°F-22.4°C -12.9°F-24.9°C 80% 6.0 mph ENE9.7 kmh ENE -- 30.06 in1017.9 mb 0.00 in0.0 mm 0.00 in0.0 mm 0.00 in0.0 mm
03:29 PM -8.3°F-22.4°C -12.9°F-24.9°C 80% 6.0 mph E9.7 kmh E -- 30.06 in1017.9 mb 0.00 in0.0 mm 0.00 in0.0 mm 0.00 in0.0 mm
03:30 PM -8.3°F-22.4°C -12.9°F-24.9°C 80% 5.0 mph E8.0 kmh E -- 30.06 in1017.9 mb 0.00 in0.0 mm 0.00 in0.0 mm 0.00 in0.0 mm
03:32 PM -8.1°F-22.3°C -12.7°F-24.8°C 80% 5.0 mph ENE8.0 kmh ENE -- 30.06 in1017.9 mb 0.00 in0.0 mm 0.00 in0.0 mm 0.00 in0.0 mm
03:33 PM -8.1°F-22.3°C -12.7°F-24.8°C 80% 7.0 mph E11.3 kmh E -- 30.06 in1017.9 mb 0.00 in0.0 mm 0.00 in0.0 mm 0.00 in0.0 mm
03:34 PM -8.1°F-22.3°C -12.7°F-24.8°C 80% 6.0 mph ENE9.7 kmh ENE -- 30.06 in1017.9 mb 0.00 in0.0 mm 0.00 in0.0 mm 0.00 in0.0 mm
03:35 PM -8.1°F-22.3°C -12.7°F-24.8°C 80% 4.0 mph ENE6.4 kmh ENE -- 30.06 in1017.9 mb 0.00 in0.0 mm 0.00 in0.0 mm 0.00 in0.0 mm
03:36 PM -8.0°F-22.2°C -12.3°F-24.6°C 81% 4.0 mph E6.4 kmh E -- 30.06 in1017.9 mb 0.00 in0.0 mm 0.00 in0.0 mm 0.00 in0.0 mm
03:38 PM -7.8°F-22.1°C -12.1°F-24.5°C 81% 7.0 mph ENE11.3 kmh ENE -- 30.06 in1017.9 mb 0.00 in0.0 mm 0.00 in0.0 mm 0.00 in0.0 mm
03:39 PM -8.0°F-22.2°C -12.5°F-24.7°C 80% 7.0 mph E11.3 kmh E -- 30.06 in1017.9 mb 0.00 in0.0 mm 0.00 in0.0 mm 0.00 in0.0 mm
03:40 PM -8.0°F-22.2°C -12.5°F-24.7°C 80% 6.0 mph ENE9.7 kmh ENE -- 30.06 in1017.9 mb 0.00 in0.0 mm 0.00 in0.0 mm 0.00 in0.0 mm
03:41 PM -8.1°F-22.3°C -12.7°F-24.8°C 80% 5.0 mph ENE8.0 kmh ENE -- 30.06 in1017.9 mb 0.00 in0.0 mm 0.00 in0.0 mm 0.00 in0.0 mm
03:42 PM -8.0°F-22.2°C -12.5°F-24.7°C 80% 5.0 mph ENE8.0 kmh ENE -- 30.06 in1017.9 mb 0.00 in0.0 mm 0.00 in0.0 mm 0.00 in0.0 mm
03:43 PM -7.8°F-22.1°C -12.1°F-24.5°C 81% 7.0 mph E11.3 kmh E -- 30.05 in1017.6 mb 0.00 in0.0 mm 0.00 in0.0 mm 0.00 in0.0 mm
03:44 PM -7.8°F-22.1°C -12.1°F-24.5°C 81% 5.0 mph ENE8.0 kmh ENE -- 30.05 in1017.6 mb 0.00 in0.0 mm 0.00 in0.0 mm 0.00 in0.0 mm
03:45 PM -7.8°F-22.1°C -12.1°F-24.5°C 81% 6.0 mph E9.7 kmh E -- 30.05 in1017.6 mb 0.00 in0.0 mm 0.00 in0.0 mm 0.00 in0.0 mm
03:46 PM -7.5°F-21.9°C -11.7°F-24.3°C 81% 5.0 mph E8.0 kmh E -- 30.06 in1017.9 mb 0.00 in0.0 mm 0.00 in0.0 mm 0.00 in0.0 mm
03:47 PM -7.4°F-21.9°C -11.7°F-24.3°C 81% 6.0 mph ENE9.7 kmh ENE -- 30.05 in1017.6 mb 0.00 in0.0 mm 0.00 in0.0 mm 0.00 in0.0 mm
03:48 PM -7.4°F-21.9°C -11.7°F-24.3°C 81% 4.0 mph E6.4 kmh E -- 30.05 in1017.6 mb 0.00 in0.0 mm 0.00 in0.0 mm 0.00 in0.0 mm
03:49 PM -7.0°F-21.7°C -11.4°F-24.1°C 81% 4.0 mph ENE6.4 kmh ENE -- 30.06 in1017.9 mb 0.00 in0.0 mm 0.00 in0.0 mm 0.00 in0.0 mm
03:50 PM -6.9°F-21.6°C -11.2°F-24.0°C 81% 5.0 mph ENE8.0 kmh ENE -- 30.06 in1017.9 mb 0.00 in0.0 mm 0.00 in0.0 mm 0.00 in0.0 mm
03:51 PM -6.9°F-21.6°C -11.2°F-24.0°C 81% 6.0 mph ENE9.7 kmh ENE -- 30.05 in1017.6 mb 0.00 in0.0 mm 0.00 in0.0 mm 0.00 in0.0 mm
03:52 PM -6.9°F-21.6°C -11.2°F-24.0°C 81% 5.0 mph ENE8.0 kmh ENE -- 30.05 in1017.6 mb 0.00 in0.0 mm 0.00 in0.0 mm 0.00 in0.0 mm
03:55 PM -7.0°F-21.7°C -11.6°F-24.2°C 80% 6.0 mph ENE9.7 kmh ENE -- 30.06 in1017.9 mb 0.00 in0.0 mm 0.00 in0.0 mm 0.00 in0.0 mm
03:56 PM -7.4°F-21.9°C -12.0°F-24.4°C 80% 6.0 mph E9.7 kmh E -- 30.05 in1017.6 mb 0.00 in0.0 mm 0.00 in0.0 mm 0.00 in0.0 mm
03:57 PM -7.4°F-21.9°C -12.0°F-24.4°C 80% 5.0 mph ESE8.0 kmh ESE -- 30.05 in1017.6 mb 0.00 in0.0 mm 0.00 in0.0 mm 0.00 in0.0 mm
03:58 PM -7.4°F-21.9°C -12.0°F-24.4°C 80% 4.0 mph ESE6.4 kmh ESE -- 30.05 in1017.6 mb 0.00 in0.0 mm 0.00 in0.0 mm 0.00 in0.0 mm
03:59 PM -7.1°F-21.7°C -11.6°F-24.2°C 80% 5.0 mph E8.0 kmh E -- 30.05 in1017.6 mb 0.00 in0.0 mm 0.00 in0.0 mm 0.00 in0.0 mm
04:01 PM -7.4°F-21.9°C -12.0°F-24.4°C 80% 6.0 mph ENE9.7 kmh ENE -- 30.05 in1017.6 mb 0.00 in0.0 mm 0.00 in0.0 mm 0.00 in0.0 mm
04:02 PM -7.4°F-21.9°C -12.0°F-24.4°C 80% 4.0 mph ENE6.4 kmh ENE -- 30.05 in1017.6 mb 0.00 in0.0 mm 0.00 in0.0 mm 0.00 in0.0 mm
04:03 PM -7.4°F-21.9°C -12.0°F-24.4°C 80% 6.0 mph ENE9.7 kmh ENE -- 30.05 in1017.6 mb 0.00 in0.0 mm 0.00 in0.0 mm 0.00 in0.0 mm
04:04 PM -7.4°F-21.9°C -12.0°F-24.4°C 80% 5.0 mph E8.0 kmh E -- 30.05 in1017.6 mb 0.00 in0.0 mm 0.00 in0.0 mm 0.00 in0.0 mm
04:05 PM -7.5°F-21.9°C -12.0°F-24.4°C 80% 6.0 mph ENE9.7 kmh ENE -- 30.05 in1017.6 mb 0.00 in0.0 mm 0.00 in0.0 mm 0.00 in0.0 mm
04:06 PM -7.8°F-22.1°C -12.3°F-24.6°C 80% 5.0 mph ENE8.0 kmh ENE -- 30.05 in1017.6 mb 0.00 in0.0 mm 0.00 in0.0 mm 0.00 in0.0 mm
04:07 PM -8.0°F-22.2°C -12.5°F-24.7°C 80% 5.0 mph E8.0 kmh E -- 30.05 in1017.6 mb 0.00 in0.0 mm 0.00 in0.0 mm 0.00 in0.0 mm
04:08 PM -8.0°F-22.2°C -12.5°F-24.7°C 80% 5.0 mph ENE8.0 kmh ENE -- 30.05 in1017.6 mb 0.00 in0.0 mm 0.00 in0.0 mm 0.00 in0.0 mm
04:09 PM -8.0°F-22.2°C -12.5°F-24.7°C 80% 6.0 mph E9.7 kmh E -- 30.04 in1017.3 mb 0.00 in0.0 mm 0.00 in0.0 mm 0.00 in0.0 mm
04:10 PM -8.1°F-22.3°C -12.7°F-24.8°C 80% 6.0 mph ENE9.7 kmh ENE -- 30.04 in1017.3 mb 0.00 in0.0 mm 0.00 in0.0 mm 0.00 in0.0 mm
04:11 PM -8.3°F-22.4°C -12.9°F-24.9°C 80% 6.0 mph ENE9.7 kmh ENE -- 30.04 in1017.3 mb 0.00 in0.0 mm 0.00 in0.0 mm 0.00 in0.0 mm
04:12 PM -8.5°F-22.5°C -13.0°F-25.0°C 80% 4.0 mph NE6.4 kmh NE -- 30.04 in1017.3 mb 0.00 in0.0 mm 0.00 in0.0 mm 0.00 in0.0 mm
04:13 PM -8.6°F-22.6°C -13.2°F-25.1°C 80% 5.0 mph E8.0 kmh E -- 30.04 in1017.3 mb 0.00 in0.0 mm 0.00 in0.0 mm 0.00 in0.0 mm
04:14 PM -9.0°F-22.8°C -13.6°F-25.3°C 80% 7.0 mph E11.3 kmh E -- 30.05 in1017.6 mb 0.00 in0.0 mm 0.00 in0.0 mm 0.00 in0.0 mm
04:15 PM -9.3°F-22.9°C -13.5°F-25.3°C 81% 6.0 mph ENE9.7 kmh ENE -- 30.05 in1017.6 mb 0.00 in0.0 mm 0.00 in0.0 mm 0.00 in0.0 mm
04:17 PM -9.6°F-23.1°C -13.8°F-25.4°C 81% 3.0 mph ENE4.8 kmh ENE -- 30.04 in1017.3 mb 0.00 in0.0 mm 0.00 in0.0 mm 0.00 in0.0 mm
04:18 PM -9.8°F-23.2°C -14.0°F-25.6°C 81% 4.0 mph ENE6.4 kmh ENE -- 30.05 in1017.6 mb 0.00 in0.0 mm 0.00 in0.0 mm 0.00 in0.0 mm
04:19 PM -9.8°F-23.2°C -14.0°F-25.6°C 81% 4.0 mph E6.4 kmh E -- 30.05 in1017.6 mb 0.00 in0.0 mm 0.00 in0.0 mm 0.00 in0.0 mm
04:20 PM -9.8°F-23.2°C -14.0°F-25.6°C 81% 7.0 mph E11.3 kmh E -- 30.05 in1017.6 mb 0.00 in0.0 mm 0.00 in0.0 mm 0.00 in0.0 mm
04:21 PM -10.4°F-23.6°C -14.7°F-25.9°C 81% 7.0 mph E11.3 kmh E -- 30.05 in1017.6 mb 0.00 in0.0 mm 0.00 in0.0 mm 0.00 in0.0 mm
04:22 PM -10.6°F-23.7°C -14.9°F-26.1°C 81% 5.0 mph ENE8.0 kmh ENE -- 30.05 in1017.6 mb 0.00 in0.0 mm 0.00 in0.0 mm 0.00 in0.0 mm
04:23 PM -10.8°F-23.8°C -15.1°F-26.2°C 81% 8.0 mph ENE12.9 kmh ENE -- 30.05 in1017.6 mb 0.00 in0.0 mm 0.00 in0.0 mm 0.00 in0.0 mm
04:24 PM -11.0°F-23.9°C -15.3°F-26.3°C 81% 5.0 mph ENE8.0 kmh ENE -- 30.05 in1017.6 mb 0.00 in0.0 mm 0.00 in0.0 mm 0.00 in0.0 mm
04:25 PM -11.0°F-23.9°C -15.3°F-26.3°C 81% 6.0 mph ENE9.7 kmh ENE -- 30.05 in1017.6 mb 0.00 in0.0 mm 0.00 in0.0 mm 0.00 in0.0 mm
04:26 PM -10.8°F-23.8°C -15.1°F-26.2°C 81% 6.0 mph E9.7 kmh E -- 30.05 in1017.6 mb 0.00 in0.0 mm 0.00 in0.0 mm 0.00 in0.0 mm
04:27 PM -10.4°F-23.6°C -14.7°F-25.9°C 81% 7.0 mph E11.3 kmh E -- 30.05 in1017.6 mb 0.00 in0.0 mm 0.00 in0.0 mm 0.00 in0.0 mm
04:28 PM -10.2°F-23.4°C -14.4°F-25.8°C 81% 5.0 mph ENE8.0 kmh ENE -- 30.05 in1017.6 mb 0.00 in0.0 mm 0.00 in0.0 mm 0.00 in0.0 mm
04:29 PM -10.0°F-23.3°C -14.2°F-25.7°C 81% 6.0 mph ENE9.7 kmh ENE -- 30.05 in1017.6 mb 0.00 in0.0 mm 0.00 in0.0 mm 0.00 in0.0 mm
04:30 PM -10.0°F-23.3°C -14.2°F-25.7°C 81% 7.0 mph E11.3 kmh E -- 30.05 in1017.6 mb 0.00 in0.0 mm 0.00 in0.0 mm 0.00 in0.0 mm
04:31 PM -10.0°F-23.3°C -14.2°F-25.7°C 81% 5.0 mph E8.0 kmh E -- 30.05 in1017.6 mb 0.00 in0.0 mm 0.00 in0.0 mm 0.00 in0.0 mm
04:32 PM -9.8°F-23.2°C -14.0°F-25.6°C 81% 7.0 mph E11.3 kmh E -- 30.05 in1017.6 mb 0.00 in0.0 mm 0.00 in0.0 mm 0.00 in0.0 mm
04:33 PM -9.6°F-23.1°C -13.8°F-25.4°C 81% 5.0 mph ENE8.0 kmh ENE -- 30.05 in1017.6 mb 0.00 in0.0 mm 0.00 in0.0 mm 0.00 in0.0 mm
04:34 PM -9.3°F-22.9°C -13.5°F-25.3°C 81% 6.0 mph NE9.7 kmh NE -- 30.05 in1017.6 mb 0.00 in0.0 mm 0.00 in0.0 mm 0.00 in0.0 mm
04:35 PM -9.3°F-22.9°C -13.5°F-25.3°C 81% 7.0 mph ENE11.3 kmh ENE -- 30.05 in1017.6 mb 0.00 in0.0 mm 0.00 in0.0 mm 0.00 in0.0 mm
04:36 PM -9.6°F-23.1°C -13.8°F-25.4°C 81% 8.0 mph ENE12.9 kmh ENE -- 30.05 in1017.6 mb 0.00 in0.0 mm 0.00 in0.0 mm 0.00 in0.0 mm
04:37 PM -9.8°F-23.2°C -14.3°F-25.7°C 80% 7.0 mph E11.3 kmh E -- 30.05 in1017.6 mb 0.00 in0.0 mm 0.00 in0.0 mm 0.00 in0.0 mm
04:39 PM -9.8°F-23.2°C -14.3°F-25.7°C 80% 7.0 mph ENE11.3 kmh ENE -- 30.05 in1017.6 mb 0.00 in0.0 mm 0.00 in0.0 mm 0.00 in0.0 mm
04:40 PM -9.8°F-23.2°C -14.3°F-25.7°C 80% 6.0 mph E9.7 kmh E -- 30.05 in1017.6 mb 0.00 in0.0 mm 0.00 in0.0 mm 0.00 in0.0 mm
04:41 PM -9.8°F-23.2°C -14.3°F-25.7°C 80% 6.0 mph ESE9.7 kmh ESE -- 30.05 in1017.6 mb 0.00 in0.0 mm 0.00 in0.0 mm 0.00 in0.0 mm
04:42 PM -9.8°F-23.2°C -14.3°F-25.7°C 80% 7.0 mph ENE11.3 kmh ENE -- 30.05 in1017.6 mb 0.00 in0.0 mm 0.00 in0.0 mm 0.00 in0.0 mm
04:43 PM -10.2°F-23.4°C -14.6°F-25.9°C 80% 7.0 mph ENE11.3 kmh ENE -- 30.05 in1017.6 mb 0.00 in0.0 mm 0.00 in0.0 mm 0.00 in0.0 mm
04:44 PM -10.2°F-23.4°C -14.6°F-25.9°C 80% 6.0 mph ENE9.7 kmh ENE -- 30.04 in1017.3 mb 0.00 in0.0 mm 0.00 in0.0 mm 0.00 in0.0 mm
04:45 PM -10.2°F-23.4°C -14.6°F-25.9°C 80% 6.0 mph E9.7 kmh E -- 30.04 in1017.3 mb 0.00 in0.0 mm 0.00 in0.0 mm 0.00 in0.0 mm
04:46 PM -10.2°F-23.4°C -14.6°F-25.9°C 80% 5.0 mph E8.0 kmh E -- 30.05 in1017.6 mb 0.00 in0.0 mm 0.00 in0.0 mm 0.00 in0.0 mm
04:47 PM -10.2°F-23.4°C -14.6°F-25.9°C 80% 5.0 mph ENE8.0 kmh ENE -- 30.05 in1017.6 mb 0.00 in0.0 mm 0.00 in0.0 mm 0.00 in0.0 mm
04:48 PM -10.2°F-23.4°C -14.4°F-25.8°C 81% 5.0 mph ENE8.0 kmh ENE -- 30.05 in1017.6 mb 0.00 in0.0 mm 0.00 in0.0 mm 0.00 in0.0 mm
04:49 PM -10.2°F-23.4°C -14.4°F-25.8°C 81% 7.0 mph ENE11.3 kmh ENE -- 30.04 in1017.3 mb 0.00 in0.0 mm 0.00 in0.0 mm 0.00 in0.0 mm
04:50 PM -10.2°F-23.4°C -14.4°F-25.8°C 81% 6.0 mph E9.7 kmh E -- 30.04 in1017.3 mb 0.00 in0.0 mm 0.00 in0.0 mm 0.00 in0.0 mm
04:51 PM -10.4°F-23.6°C -14.7°F-25.9°C 81% 5.0 mph ENE8.0 kmh ENE -- 30.04 in1017.3 mb 0.00 in0.0 mm 0.00 in0.0 mm 0.00 in0.0 mm
04:52 PM -10.4°F-23.6°C -14.7°F-25.9°C 81% 6.0 mph ENE9.7 kmh ENE -- 30.04 in1017.3 mb 0.00 in0.0 mm 0.00 in0.0 mm 0.00 in0.0 mm
04:53 PM -10.4°F-23.6°C -14.7°F-25.9°C 81% 5.0 mph ENE8.0 kmh ENE -- 30.04 in1017.3 mb 0.00 in0.0 mm 0.00 in0.0 mm 0.00 in0.0 mm
04:54 PM -10.4°F-23.6°C -14.7°F-25.9°C 81% 7.0 mph E11.3 kmh E -- 30.04 in1017.3 mb 0.00 in0.0 mm 0.00 in0.0 mm 0.00 in0.0 mm
04:55 PM -10.4°F-23.6°C -14.7°F-25.9°C 81% 6.0 mph E9.7 kmh E -- 30.04 in1017.3 mb 0.00 in0.0 mm 0.00 in0.0 mm 0.00 in0.0 mm
04:56 PM -10.6°F-23.7°C -14.9°F-26.1°C 81% 6.0 mph E9.7 kmh E -- 30.04 in1017.3 mb 0.00 in0.0 mm 0.00 in0.0 mm 0.00 in0.0 mm
04:57 PM -10.6°F-23.7°C -14.9°F-26.1°C 81% 5.0 mph E8.0 kmh E -- 30.04 in1017.3 mb 0.00 in0.0 mm 0.00 in0.0 mm 0.00 in0.0 mm
04:58 PM -10.6°F-23.7°C -14.9°F-26.1°C 81% 5.0 mph ENE8.0 kmh ENE -- 30.04 in1017.3 mb 0.00 in0.0 mm 0.00 in0.0 mm 0.00 in0.0 mm
04:59 PM -10.6°F-23.7°C -14.9°F-26.1°C 81% 5.0 mph E8.0 kmh E -- 30.04 in1017.3 mb 0.00 in0.0 mm 0.00 in0.0 mm 0.00 in0.0 mm
05:00 PM -10.8°F-23.8°C -15.1°F-26.2°C 81% 7.0 mph E11.3 kmh E -- 30.04 in1017.3 mb 0.00 in0.0 mm 0.00 in0.0 mm 0.00 in0.0 mm
05:01 PM -11.0°F-23.9°C -15.3°F-26.3°C 81% 7.0 mph E11.3 kmh E -- 30.04 in1017.3 mb 0.00 in0.0 mm 0.00 in0.0 mm 0.00 in0.0 mm
05:02 PM -11.0°F-23.9°C -15.3°F-26.3°C 81% 6.0 mph ENE9.7 kmh ENE -- 30.04 in1017.3 mb 0.00 in0.0 mm 0.00 in0.0 mm 0.00 in0.0 mm
05:03 PM -11.6°F-24.2°C -15.8°F-26.6°C 81% 7.0 mph E11.3 kmh E -- 30.04 in1017.3 mb 0.00 in0.0 mm 0.00 in0.0 mm 0.00 in0.0 mm
05:04 PM -11.6°F-24.2°C -15.8°F-26.6°C 81% 6.0 mph E9.7 kmh E -- 30.04 in1017.3 mb 0.00 in0.0 mm 0.00 in0.0 mm 0.00 in0.0 mm
05:05 PM -11.8°F-24.3°C -16.0°F-26.7°C 81% 7.0 mph ENE11.3 kmh ENE -- 30.05 in1017.6 mb 0.00 in0.0 mm 0.00 in0.0 mm 0.00 in0.0 mm
05:06 PM -11.8°F-24.3°C -16.0°F-26.7°C 81% 5.0 mph ENE8.0 kmh ENE -- 30.05 in1017.6 mb 0.00 in0.0 mm 0.00 in0.0 mm 0.00 in0.0 mm
05:07 PM -11.8°F-24.3°C -16.0°F-26.7°C 81% 6.0 mph E9.7 kmh E -- 30.04 in1017.3 mb 0.00 in0.0 mm 0.00 in0.0 mm 0.00 in0.0 mm
05:08 PM -12.3°F-24.6°C -16.5°F-26.9°C 81% 6.0 mph E9.7 kmh E -- 30.04 in1017.3 mb 0.00 in0.0 mm 0.00 in0.0 mm 0.00 in0.0 mm
05:09 PM -12.3°F-24.6°C -16.5°F-26.9°C 81% 8.0 mph ENE12.9 kmh ENE -- 30.04 in1017.3 mb 0.00 in0.0 mm 0.00 in0.0 mm 0.00 in0.0 mm
05:10 PM -12.5°F-24.7°C -16.7°F-27.1°C 81% 8.0 mph E12.9 kmh E -- 30.04 in1017.3 mb 0.00 in0.0 mm 0.00 in0.0 mm 0.00 in0.0 mm
05:11 PM -12.7°F-24.8°C -16.8°F-27.1°C 81% 6.0 mph E9.7 kmh E -- 30.05 in1017.6 mb 0.00 in0.0 mm 0.00 in0.0 mm 0.00 in0.0 mm
05:12 PM -12.7°F-24.8°C -16.8°F-27.1°C 81% 5.0 mph E8.0 kmh E -- 30.04 in1017.3 mb 0.00 in0.0 mm 0.00 in0.0 mm 0.00 in0.0 mm
05:13 PM -12.7°F-24.8°C -16.8°F-27.1°C 81% 4.0 mph E6.4 kmh E -- 30.04 in1017.3 mb 0.00 in0.0 mm 0.00 in0.0 mm 0.00 in0.0 mm
05:14 PM -12.7°F-24.8°C -16.8°F-27.1°C 81% 6.0 mph E9.7 kmh E -- 30.04 in1017.3 mb 0.00 in0.0 mm 0.00 in0.0 mm 0.00 in0.0 mm
05:15 PM -12.7°F-24.8°C -16.8°F-27.1°C 81% 4.0 mph E6.4 kmh E -- 30.05 in1017.6 mb 0.00 in0.0 mm 0.00 in0.0 mm 0.00 in0.0 mm
05:16 PM -12.7°F-24.8°C -16.4°F-26.9°C 83% 5.0 mph E8.0 kmh E -- 30.04 in1017.3 mb 0.00 in0.0 mm 0.00 in0.0 mm 0.00 in0.0 mm
05:17 PM -12.7°F-24.8°C -16.4°F-26.9°C 83% 6.0 mph ENE9.7 kmh ENE -- 30.05 in1017.6 mb 0.00 in0.0 mm 0.00 in0.0 mm 0.00 in0.0 mm
05:18 PM -12.7°F-24.8°C -16.4°F-26.9°C 83% 4.0 mph E6.4 kmh E -- 30.05 in1017.6 mb 0.00 in0.0 mm 0.00 in0.0 mm 0.00 in0.0 mm
05:19 PM -12.7°F-24.8°C -16.4°F-26.9°C 83% 4.0 mph ENE6.4 kmh ENE -- 30.04 in1017.3 mb 0.00 in0.0 mm 0.00 in0.0 mm 0.00 in0.0 mm
05:20 PM -12.7°F-24.8°C -16.4°F-26.9°C 83% 5.0 mph E8.0 kmh E -- 30.04 in1017.3 mb 0.00 in0.0 mm 0.00 in0.0 mm 0.00 in0.0 mm
05:21 PM -12.7°F-24.8°C -16.4°F-26.9°C 83% 6.0 mph ESE9.7 kmh ESE -- 30.05 in1017.6 mb 0.00 in0.0 mm 0.00 in0.0 mm 0.00 in0.0 mm
05:22 PM -12.7°F-24.8°C -16.4°F-26.9°C 83% 5.0 mph ENE8.0 kmh ENE -- 30.05 in1017.6 mb 0.00 in0.0 mm 0.00 in0.0 mm 0.00 in0.0 mm
05:23 PM -12.7°F-24.8°C -16.4°F-26.9°C 83% 6.0 mph E9.7 kmh E -- 30.04 in1017.3 mb 0.00 in0.0 mm 0.00 in0.0 mm 0.00 in0.0 mm
05:24 PM -12.7°F-24.8°C -16.4°F-26.9°C 83% 5.0 mph E8.0 kmh E -- 30.04 in1017.3 mb 0.00 in0.0 mm 0.00 in0.0 mm 0.00 in0.0 mm
05:26 PM -12.7°F-24.8°C -16.4°F-26.9°C 83% 6.0 mph ESE9.7 kmh ESE -- 30.04 in1017.3 mb 0.00 in0.0 mm 0.00 in0.0 mm 0.00 in0.0 mm
05:27 PM -12.7°F-24.8°C -16.4°F-26.9°C 83% 6.0 mph E9.7 kmh E -- 30.04 in1017.3 mb 0.00 in0.0 mm 0.00 in0.0 mm 0.00 in0.0 mm
05:28 PM -12.7°F-24.8°C -16.4°F-26.9°C 83% 7.0 mph ENE11.3 kmh ENE -- 30.04 in1017.3 mb 0.00 in0.0 mm 0.00 in0.0 mm 0.00 in0.0 mm
05:29 PM -12.7°F-24.8°C -16.4°F-26.9°C 83% 6.0 mph E9.7 kmh E -- 30.04 in1017.3 mb 0.00 in0.0 mm 0.00 in0.0 mm 0.00 in0.0 mm
05:30 PM -12.7°F-24.8°C -16.4°F-26.9°C 83% 8.0 mph E12.9 kmh E -- 30.04 in1017.3 mb 0.00 in0.0 mm 0.00 in0.0 mm 0.00 in0.0 mm
05:31 PM -12.7°F-24.8°C -16.4°F-26.9°C 83% 5.0 mph ESE8.0 kmh ESE -- 30.04 in1017.3 mb 0.00 in0.0 mm 0.00 in0.0 mm 0.00 in0.0 mm
05:32 PM -12.7°F-24.8°C -16.4°F-26.9°C 83% 4.0 mph E6.4 kmh E -- 30.04 in1017.3 mb 0.00 in0.0 mm 0.00 in0.0 mm 0.00 in0.0 mm
05:33 PM -12.7°F-24.8°C -16.4°F-26.9°C 83% 6.0 mph ENE9.7 kmh ENE -- 30.04 in1017.3 mb 0.00 in0.0 mm 0.00 in0.0 mm 0.00 in0.0 mm
05:34 PM -12.7°F-24.8°C -16.4°F-26.9°C 83% 6.0 mph ESE9.7 kmh ESE -- 30.04 in1017.3 mb 0.00 in0.0 mm 0.00 in0.0 mm 0.00 in0.0 mm
05:35 PM -12.7°F-24.8°C -16.4°F-26.9°C 83% 3.0 mph E4.8 kmh E -- 30.04 in1017.3 mb 0.00 in0.0 mm 0.00 in0.0 mm 0.00 in0.0 mm
05:36 PM -12.7°F-24.8°C -16.4°F-26.9°C 83% 4.0 mph E6.4 kmh E -- 30.04 in1017.3 mb 0.00 in0.0 mm 0.00 in0.0 mm 0.00 in0.0 mm
05:37 PM -12.7°F-24.8°C -16.4°F-26.9°C 83% 5.0 mph E8.0 kmh E -- 30.04 in1017.3 mb 0.00 in0.0 mm 0.00 in0.0 mm 0.00 in0.0 mm
05:38 PM -12.7°F-24.8°C -16.4°F-26.9°C 83% 3.0 mph ESE4.8 kmh ESE -- 30.04 in1017.3 mb 0.00 in0.0 mm 0.00 in0.0 mm 0.00 in0.0 mm
05:39 PM -12.7°F-24.8°C -16.4°F-26.9°C 83% 3.0 mph E4.8 kmh E -- 30.04 in1017.3 mb 0.00 in0.0 mm 0.00 in0.0 mm 0.00 in0.0 mm
05:40 PM -12.7°F-24.8°C -16.4°F-26.9°C 83% 5.0 mph NE8.0 kmh NE -- 30.04 in1017.3 mb 0.00 in0.0 mm 0.00 in0.0 mm 0.00 in0.0 mm
05:41 PM -12.7°F-24.8°C -16.4°F-26.9°C 83% 6.0 mph E9.7 kmh E -- 30.04 in1017.3 mb 0.00 in0.0 mm 0.00 in0.0 mm 0.00 in0.0 mm
05:42 PM -12.7°F-24.8°C -16.4°F-26.9°C 83% 7.0 mph E11.3 kmh E -- 30.04 in1017.3 mb 0.00 in0.0 mm 0.00 in0.0 mm 0.00 in0.0 mm
05:43 PM -12.7°F-24.8°C -16.4°F-26.9°C 83% 8.0 mph E12.9 kmh E -- 30.04 in1017.3 mb 0.00 in0.0 mm 0.00 in0.0 mm 0.00 in0.0 mm
05:44 PM -12.7°F-24.8°C -16.4°F-26.9°C 83% 6.0 mph ESE9.7 kmh ESE -- 30.04 in1017.3 mb 0.00 in0.0 mm 0.00 in0.0 mm 0.00 in0.0 mm
05:45 PM -12.9°F-24.9°C -16.5°F-26.9°C 83% 6.0 mph E9.7 kmh E -- 30.04 in1017.3 mb 0.00 in0.0 mm 0.00 in0.0 mm 0.00 in0.0 mm
05:46 PM -12.9°F-24.9°C -16.5°F-26.9°C 83% 4.0 mph E6.4 kmh E -- 30.05 in1017.6 mb 0.00 in0.0 mm 0.00 in0.0 mm 0.00 in0.0 mm
05:47 PM -12.9°F-24.9°C -16.5°F-26.9°C 83% 6.0 mph E9.7 kmh E -- 30.05 in1017.6 mb 0.00 in0.0 mm 0.00 in0.0 mm 0.00 in0.0 mm
05:48 PM -12.9°F-24.9°C -16.5°F-26.9°C 83% 7.0 mph ENE11.3 kmh ENE -- 30.05 in1017.6 mb 0.00 in0.0 mm 0.00 in0.0 mm 0.00 in0.0 mm
05:49 PM -12.9°F-24.9°C -16.5°F-26.9°C 83% 6.0 mph ESE9.7 kmh ESE -- 30.04 in1017.3 mb 0.00 in0.0 mm 0.00 in0.0 mm 0.00 in0.0 mm
05:50 PM -12.9°F-24.9°C -16.5°F-26.9°C 83% 7.0 mph ESE11.3 kmh ESE -- 30.04 in1017.3 mb 0.00 in0.0 mm 0.00 in0.0 mm 0.00 in0.0 mm
05:51 PM -12.9°F-24.9°C -16.5°F-26.9°C 83% 7.0 mph E11.3 kmh E -- 30.04 in1017.3 mb 0.00 in0.0 mm 0.00 in0.0 mm 0.00 in0.0 mm
05:52 PM -12.9°F-24.9°C -16.5°F-26.9°C 83% 8.0 mph ESE12.9 kmh ESE -- 30.04 in1017.3 mb 0.00 in0.0 mm 0.00 in0.0 mm 0.00 in0.0 mm
05:53 PM -12.9°F-24.9°C -16.5°F-26.9°C 83% 6.0 mph E9.7 kmh E -- 30.04 in1017.3 mb 0.00 in0.0 mm 0.00 in0.0 mm 0.00 in0.0 mm
05:54 PM -12.9°F-24.9°C -16.5°F-26.9°C 83% 6.0 mph ENE9.7 kmh ENE -- 30.04 in1017.3 mb 0.00 in0.0 mm 0.00 in0.0 mm 0.00 in0.0 mm
05:55 PM -13.1°F-25.1°C -16.9°F-27.2°C 83% 5.0 mph ESE8.0 kmh ESE -- 30.04 in1017.3 mb 0.00 in0.0 mm 0.00 in0.0 mm 0.00 in0.0 mm
05:56 PM -13.1°F-25.1°C -16.9°F-27.2°C 83% 4.0 mph E6.4 kmh E -- 30.04 in1017.3 mb 0.00 in0.0 mm 0.00 in0.0 mm 0.00 in0.0 mm
05:58 PM -13.1°F-25.1°C -16.9°F-27.2°C 83% 3.0 mph ESE4.8 kmh ESE -- 30.04 in1017.3 mb 0.00 in0.0 mm 0.00 in0.0 mm 0.00 in0.0 mm
05:59 PM -13.1°F-25.1°C -16.9°F-27.2°C 83% 6.0 mph E9.7 kmh E -- 30.04 in1017.3 mb 0.00 in0.0 mm 0.00 in0.0 mm 0.00 in0.0 mm
06:00 PM -13.1°F-25.1°C -16.9°F-27.2°C 83% 6.0 mph ESE9.7 kmh ESE -- 30.04 in1017.3 mb 0.00 in0.0 mm 0.00 in0.0 mm 0.00 in0.0 mm
06:01 PM -13.1°F-25.1°C -16.9°F-27.2°C 83% 6.0 mph E9.7 kmh E -- 30.04 in1017.3 mb 0.00 in0.0 mm 0.00 in0.0 mm 0.00 in0.0 mm
06:02 PM -13.1°F-25.1°C -16.9°F-27.2°C 83% 7.0 mph E11.3 kmh E -- 30.04 in1017.3 mb 0.00 in0.0 mm 0.00 in0.0 mm 0.00 in0.0 mm
06:03 PM -13.1°F-25.1°C -16.9°F-27.2°C 83% 5.0 mph E8.0 kmh E -- 30.04 in1017.3 mb 0.00 in0.0 mm 0.00 in0.0 mm 0.00 in0.0 mm
06:04 PM -13.1°F-25.1°C -16.9°F-27.2°C 83% 7.0 mph E11.3 kmh E -- 30.04 in1017.3 mb 0.00 in0.0 mm 0.00 in0.0 mm 0.00 in0.0 mm
06:05 PM -13.1°F-25.1°C -16.9°F-27.2°C 83% 8.0 mph E12.9 kmh E -- 30.04 in1017.3 mb 0.00 in0.0 mm 0.00 in0.0 mm 0.00 in0.0 mm
06:06 PM -13.1°F-25.1°C -16.9°F-27.2°C 83% 7.0 mph E11.3 kmh E -- 30.04 in1017.3 mb 0.00 in0.0 mm 0.00 in0.0 mm 0.00 in0.0 mm
06:07 PM -13.1°F-25.1°C -16.9°F-27.2°C 83% 6.0 mph ESE9.7 kmh ESE -- 30.04 in1017.3 mb 0.00 in0.0 mm 0.00 in0.0 mm 0.00 in0.0 mm
06:08 PM -13.3°F-25.2°C -17.1°F-27.3°C 83% 7.0 mph E11.3 kmh E -- 30.04 in1017.3 mb 0.00 in0.0 mm 0.00 in0.0 mm 0.00 in0.0 mm
06:09 PM -13.3°F-25.2°C -17.1°F-27.3°C 83% 6.0 mph E9.7 kmh E -- 30.04 in1017.3 mb 0.00 in0.0 mm 0.00 in0.0 mm 0.00 in0.0 mm
06:10 PM -13.3°F-25.2°C -17.1°F-27.3°C 83% 7.0 mph E11.3 kmh E -- 30.04 in1017.3 mb 0.00 in0.0 mm 0.00 in0.0 mm 0.00 in0.0 mm
06:11 PM -13.3°F-25.2°C -17.1°F-27.3°C 83% 6.0 mph E9.7 kmh E -- 30.04 in1017.3 mb 0.00 in0.0 mm 0.00 in0.0 mm 0.00 in0.0 mm
06:12 PM -13.3°F-25.2°C -17.1°F-27.3°C 83% 7.0 mph E11.3 kmh E -- 30.03 in1016.9 mb 0.00 in0.0 mm 0.00 in0.0 mm 0.00 in0.0 mm
06:14 PM -13.3°F-25.2°C -17.1°F-27.3°C 83% 7.0 mph E11.3 kmh E -- 30.04 in1017.3 mb 0.00 in0.0 mm 0.00 in0.0 mm 0.00 in0.0 mm
06:15 PM -13.3°F-25.2°C -17.1°F-27.3°C 83% 4.0 mph ESE6.4 kmh ESE -- 30.04 in1017.3 mb 0.00 in0.0 mm 0.00 in0.0 mm 0.00 in0.0 mm
06:16 PM -13.3°F-25.2°C -17.1°F-27.3°C 83% 8.0 mph ENE12.9 kmh ENE -- 30.03 in1016.9 mb 0.00 in0.0 mm 0.00 in0.0 mm 0.00 in0.0 mm
06:17 PM -13.3°F-25.2°C -17.1°F-27.3°C 83% 6.0 mph ESE9.7 kmh ESE -- 30.04 in1017.3 mb 0.00 in0.0 mm 0.00 in0.0 mm 0.00 in0.0 mm
06:18 PM -13.3°F-25.2°C -17.1°F-27.3°C 83% 6.0 mph E9.7 kmh E -- 30.03 in1016.9 mb 0.00 in0.0 mm 0.00 in0.0 mm 0.00 in0.0 mm
06:19 PM -13.3°F-25.2°C -17.1°F-27.3°C 83% 6.0 mph SE9.7 kmh SE -- 30.04 in1017.3 mb 0.00 in0.0 mm 0.00 in0.0 mm 0.00 in0.0 mm
06:20 PM -13.3°F-25.2°C -17.1°F-27.3°C 83% 5.0 mph ESE8.0 kmh ESE -- 30.04 in1017.3 mb 0.00 in0.0 mm 0.00 in0.0 mm 0.00 in0.0 mm
06:21 PM -13.3°F-25.2°C -16.6°F-27.0°C 85% 5.0 mph ENE8.0 kmh ENE -- 30.04 in1017.3 mb 0.00 in0.0 mm 0.00 in0.0 mm 0.00 in0.0 mm
06:22 PM -13.3°F-25.2°C -16.6°F-27.0°C 85% 5.0 mph ESE8.0 kmh ESE -- 30.03 in1016.9 mb 0.00 in0.0 mm 0.00 in0.0 mm 0.00 in0.0 mm
06:23 PM -13.3°F-25.2°C -16.6°F-27.0°C 85% 4.0 mph ESE6.4 kmh ESE -- 30.04 in1017.3 mb 0.00 in0.0 mm 0.00 in0.0 mm 0.00 in0.0 mm
06:24 PM -13.3°F-25.2°C -16.6°F-27.0°C 85% 4.0 mph SE6.4 kmh SE -- 30.04 in1017.3 mb 0.00 in0.0 mm 0.00 in0.0 mm 0.00 in0.0 mm
06:25 PM -13.3°F-25.2°C -16.6°F-27.0°C 85% 4.0 mph ESE6.4 kmh ESE -- 30.04 in1017.3 mb 0.00 in0.0 mm 0.00 in0.0 mm 0.00 in0.0 mm
06:26 PM -13.3°F-25.2°C -16.6°F-27.0°C 85% 3.0 mph ESE4.8 kmh ESE -- 30.04 in1017.3 mb 0.00 in0.0 mm 0.00 in0.0 mm 0.00 in0.0 mm
06:28 PM -13.3°F-25.2°C -16.6°F-27.0°C 85% 6.0 mph SSE9.7 kmh SSE -- 30.04 in1017.3 mb 0.00 in0.0 mm 0.00 in0.0 mm 0.00 in0.0 mm
06:29 PM -13.3°F-25.2°C -16.6°F-27.0°C 85% 7.0 mph ESE11.3 kmh ESE -- 30.03 in1016.9 mb 0.00 in0.0 mm 0.00 in0.0 mm 0.00 in0.0 mm
06:30 PM -13.3°F-25.2°C -16.6°F-27.0°C 85% 7.0 mph ENE11.3 kmh ENE -- 30.04 in1017.3 mb 0.00 in0.0 mm 0.00 in0.0 mm 0.00 in0.0 mm
06:31 PM -13.3°F-25.2°C -16.6°F-27.0°C 85% 4.0 mph E6.4 kmh E -- 30.03 in1016.9 mb 0.00 in0.0 mm 0.00 in0.0 mm 0.00 in0.0 mm
06:32 PM -13.3°F-25.2°C -16.6°F-27.0°C 85% 2.0 mph ESE3.2 kmh ESE -- 30.04 in1017.3 mb 0.00 in0.0 mm 0.00 in0.0 mm 0.00 in0.0 mm
06:33 PM -13.3°F-25.2°C -16.4°F-26.9°C 86% 5.0 mph E8.0 kmh E -- 30.03 in1016.9 mb 0.00 in0.0 mm 0.00 in0.0 mm 0.00 in0.0 mm
06:34 PM -13.3°F-25.2°C -16.4°F-26.9°C 86% 4.0 mph ESE6.4 kmh ESE -- 30.04 in1017.3 mb 0.00 in0.0 mm 0.00 in0.0 mm 0.00 in0.0 mm
06:36 PM -13.3°F-25.2°C -16.4°F-26.9°C 86% 5.0 mph ESE8.0 kmh ESE -- 30.04 in1017.3 mb 0.00 in0.0 mm 0.00 in0.0 mm 0.00 in0.0 mm
06:37 PM -13.3°F-25.2°C -16.4°F-26.9°C 86% 6.0 mph ESE9.7 kmh ESE -- 30.03 in1016.9 mb 0.00 in0.0 mm 0.00 in0.0 mm 0.00 in0.0 mm
06:38 PM -13.3°F-25.2°C -16.4°F-26.9°C 86% 4.0 mph ESE6.4 kmh ESE -- 30.04 in1017.3 mb 0.00 in0.0 mm 0.00 in0.0 mm 0.00 in0.0 mm
06:39 PM -13.3°F-25.2°C -16.4°F-26.9°C 86% 3.0 mph ENE4.8 kmh ENE -- 30.03 in1016.9 mb 0.00 in0.0 mm 0.00 in0.0 mm 0.00 in0.0 mm
06:40 PM -13.3°F-25.2°C -16.4°F-26.9°C 86% 3.0 mph SSE4.8 kmh SSE -- 30.03 in1016.9 mb 0.00 in0.0 mm 0.00 in0.0 mm 0.00 in0.0 mm
06:41 PM -13.3°F-25.2°C -16.4°F-26.9°C 86% 5.0 mph ESE8.0 kmh ESE -- 30.03 in1016.9 mb 0.00 in0.0 mm 0.00 in0.0 mm 0.00 in0.0 mm
06:42 PM -13.3°F-25.2°C -16.4°F-26.9°C 86% 5.0 mph ESE8.0 kmh ESE -- 30.04 in1017.3 mb 0.00 in0.0 mm 0.00 in0.0 mm 0.00 in0.0 mm
06:43 PM -13.3°F-25.2°C -16.4°F-26.9°C 86% 6.0 mph ESE9.7 kmh ESE -- 30.03 in1016.9 mb 0.00 in0.0 mm 0.00 in0.0 mm 0.00 in0.0 mm
06:44 PM -13.3°F-25.2°C -16.4°F-26.9°C 86% 7.0 mph ESE11.3 kmh ESE -- 30.04 in1017.3 mb 0.00 in0.0 mm 0.00 in0.0 mm 0.00 in0.0 mm
06:45 PM -13.3°F-25.2°C -16.4°F-26.9°C 86% 4.0 mph ESE6.4 kmh ESE -- 30.03 in1016.9 mb 0.00 in0.0 mm 0.00 in0.0 mm 0.00 in0.0 mm
06:46 PM -13.3°F-25.2°C -16.4°F-26.9°C 86% 3.0 mph ESE4.8 kmh ESE -- 30.04 in1017.3 mb 0.00 in0.0 mm 0.00 in0.0 mm 0.00 in0.0 mm
06:47 PM -13.3°F-25.2°C -16.4°F-26.9°C 86% 4.0 mph SSE6.4 kmh SSE -- 30.03 in1016.9 mb 0.00 in0.0 mm 0.00 in0.0 mm 0.00 in0.0 mm
06:48 PM -13.3°F-25.2°C -16.4°F-26.9°C 86% 4.0 mph ESE6.4 kmh ESE -- 30.04 in1017.3 mb 0.00 in0.0 mm 0.00 in0.0 mm 0.00 in0.0 mm
06:49 PM -13.3°F-25.2°C -16.4°F-26.9°C 86% 3.0 mph ESE4.8 kmh ESE -- 30.03 in1016.9 mb 0.00 in0.0 mm 0.00 in0.0 mm 0.00 in0.0 mm
06:50 PM -13.3°F-25.2°C -16.4°F-26.9°C 86% 4.0 mph E6.4 kmh E -- 30.04 in1017.3 mb 0.00 in0.0 mm 0.00 in0.0 mm 0.00 in0.0 mm
06:51 PM -13.3°F-25.2°C -16.4°F-26.9°C 86% 2.0 mph SE3.2 kmh SE -- 30.03 in1016.9 mb 0.00 in0.0 mm 0.00 in0.0 mm 0.00 in0.0 mm
06:52 PM -13.3°F-25.2°C -16.4°F-26.9°C 86% 2.0 mph ESE3.2 kmh ESE -- 30.04 in1017.3 mb 0.00 in0.0 mm 0.00 in0.0 mm 0.00 in0.0 mm
06:53 PM -13.3°F-25.2°C -16.4°F-26.9°C 86% 3.0 mph E4.8 kmh E -- 30.04 in1017.3 mb 0.00 in0.0 mm 0.00 in0.0 mm 0.00 in0.0 mm
06:54 PM -13.3°F-25.2°C -16.4°F-26.9°C 86% 2.0 mph E3.2 kmh E -- 30.04 in1017.3 mb 0.00 in0.0 mm 0.00 in0.0 mm 0.00 in0.0 mm
06:55 PM -13.3°F-25.2°C -16.4°F-26.9°C 86% 3.0 mph SE4.8 kmh SE -- 30.03 in1016.9 mb 0.00 in0.0 mm 0.00 in0.0 mm 0.00 in0.0 mm
06:56 PM -13.3°F-25.2°C -16.4°F-26.9°C 86% 4.0 mph SE6.4 kmh SE -- 30.04 in1017.3 mb 0.00 in0.0 mm 0.00 in0.0 mm 0.00 in0.0 mm
06:57 PM -13.3°F-25.2°C -16.4°F-26.9°C 86% 4.0 mph ESE6.4 kmh ESE -- 30.04 in1017.3 mb 0.00 in0.0 mm 0.00 in0.0 mm 0.00 in0.0 mm
06:58 PM -13.3°F-25.2°C -16.4°F-26.9°C 86% 3.0 mph ESE4.8 kmh ESE -- 30.03 in1016.9 mb 0.00 in0.0 mm 0.00 in0.0 mm 0.00 in0.0 mm
07:00 PM -13.3°F-25.2°C -16.4°F-26.9°C 86% 2.0 mph ESE3.2 kmh ESE -- 30.03 in1016.9 mb 0.00 in0.0 mm 0.00 in0.0 mm 0.00 in0.0 mm
07:01 PM -13.3°F-25.2°C -16.4°F-26.9°C 86% 4.0 mph E6.4 kmh E -- 30.04 in1017.3 mb 0.00 in0.0 mm 0.00 in0.0 mm 0.00 in0.0 mm
07:02 PM -13.3°F-25.2°C -16.4°F-26.9°C 86% 2.0 mph E3.2 kmh E -- 30.04 in1017.3 mb 0.00 in0.0 mm 0.00 in0.0 mm 0.00 in0.0 mm
07:03 PM -13.3°F-25.2°C -16.4°F-26.9°C 86% 2.0 mph SE3.2 kmh SE -- 30.03 in1016.9 mb 0.00 in0.0 mm 0.00 in0.0 mm 0.00 in0.0 mm
07:04 PM -13.3°F-25.2°C -16.4°F-26.9°C 86% 1.0 mph ESE1.6 kmh ESE -- 30.03 in1016.9 mb 0.00 in0.0 mm 0.00 in0.0 mm 0.00 in0.0 mm
07:05 PM -13.3°F-25.2°C -16.4°F-26.9°C 86% 2.0 mph ESE3.2 kmh ESE -- 30.03 in1016.9 mb 0.00 in0.0 mm 0.00 in0.0 mm 0.00 in0.0 mm
07:06 PM -13.3°F-25.2°C -16.4°F-26.9°C 86% 3.0 mph E4.8 kmh E -- 30.04 in1017.3 mb 0.00 in0.0 mm 0.00 in0.0 mm 0.00 in0.0 mm
07:07 PM -13.3°F-25.2°C -16.4°F-26.9°C 86% 4.0 mph ESE6.4 kmh ESE -- 30.03 in1016.9 mb 0.00 in0.0 mm 0.00 in0.0 mm 0.00 in0.0 mm
07:10 PM -13.3°F-25.2°C -16.4°F-26.9°C 86% 2.0 mph ESE3.2 kmh ESE -- 30.04 in1017.3 mb 0.00 in0.0 mm 0.00 in0.0 mm 0.00 in0.0 mm
07:11 PM -13.3°F-25.2°C -16.4°F-26.9°C 86% 4.0 mph ESE6.4 kmh ESE -- 30.04 in1017.3 mb 0.00 in0.0 mm 0.00 in0.0 mm 0.00 in0.0 mm
07:12 PM -13.3°F-25.2°C -16.4°F-26.9°C 86% 4.0 mph E6.4 kmh E -- 30.04 in1017.3 mb 0.00 in0.0 mm 0.00 in0.0 mm 0.00 in0.0 mm
07:13 PM -13.3°F-25.2°C -16.4°F-26.9°C 86% 4.0 mph ESE6.4 kmh ESE -- 30.03 in1016.9 mb 0.00 in0.0 mm 0.00 in0.0 mm 0.00 in0.0 mm
07:14 PM -13.3°F-25.2°C -16.4°F-26.9°C 86% 4.0 mph E6.4 kmh E -- 30.03 in1016.9 mb 0.00 in0.0 mm 0.00 in0.0 mm 0.00 in0.0 mm
07:15 PM -13.3°F-25.2°C -16.4°F-26.9°C 86% 2.0 mph ESE3.2 kmh ESE -- 30.03 in1016.9 mb 0.00 in0.0 mm 0.00 in0.0 mm 0.00 in0.0 mm
07:16 PM -13.3°F-25.2°C -16.4°F-26.9°C 86% 4.0 mph SE6.4 kmh SE -- 30.04 in1017.3 mb 0.00 in0.0 mm 0.00 in0.0 mm 0.00 in0.0 mm
07:17 PM -13.3°F-25.2°C -16.4°F-26.9°C 86% 3.0 mph ESE4.8 kmh ESE -- 30.03 in1016.9 mb 0.00 in0.0 mm 0.00 in0.0 mm 0.00 in0.0 mm
07:18 PM -13.3°F-25.2°C -16.4°F-26.9°C 86% 5.0 mph ESE8.0 kmh ESE -- 30.03 in1016.9 mb 0.00 in0.0 mm 0.00 in0.0 mm 0.00 in0.0 mm
07:19 PM -13.3°F-25.2°C -16.4°F-26.9°C 86% 4.0 mph ESE6.4 kmh ESE -- 30.04 in1017.3 mb 0.00 in0.0 mm 0.00 in0.0 mm 0.00 in0.0 mm
07:20 PM -13.3°F-25.2°C -16.4°F-26.9°C 86% 4.0 mph E6.4 kmh E -- 30.04 in1017.3 mb 0.00 in0.0 mm 0.00 in0.0 mm 0.00 in0.0 mm
07:21 PM -13.3°F-25.2°C -16.4°F-26.9°C 86% 4.0 mph E6.4 kmh E -- 30.03 in1016.9 mb 0.00 in0.0 mm 0.00 in0.0 mm 0.00 in0.0 mm
07:22 PM -13.3°F-25.2°C -16.4°F-26.9°C 86% 4.0 mph ESE6.4 kmh ESE -- 30.04 in1017.3 mb 0.00 in0.0 mm 0.00 in0.0 mm 0.00 in0.0 mm
07:23 PM -13.3°F-25.2°C -16.4°F-26.9°C 86% 3.0 mph ESE4.8 kmh ESE -- 30.03 in1016.9 mb 0.00 in0.0 mm 0.00 in0.0 mm 0.00 in0.0 mm
07:25 PM -13.3°F-25.2°C -16.4°F-26.9°C 86% 4.0 mph ESE6.4 kmh ESE -- 30.03 in1016.9 mb 0.00 in0.0 mm 0.00 in0.0 mm 0.00 in0.0 mm
07:27 PM -13.3°F-25.2°C -16.4°F-26.9°C 86% 3.0 mph ESE4.8 kmh ESE -- 30.04 in1017.3 mb 0.00 in0.0 mm 0.00 in0.0 mm 0.00 in0.0 mm
07:29 PM -13.3°F-25.2°C -16.4°F-26.9°C 86% 5.0 mph ESE8.0 kmh ESE -- 30.03 in1016.9 mb 0.00 in0.0 mm 0.00 in0.0 mm 0.00 in0.0 mm
07:30 PM -13.3°F-25.2°C -16.4°F-26.9°C 86% 4.0 mph ESE6.4 kmh ESE -- 30.04 in1017.3 mb 0.00 in0.0 mm 0.00 in0.0 mm 0.00 in0.0 mm
07:31 PM -13.3°F-25.2°C -16.4°F-26.9°C 86% 4.0 mph ESE6.4 kmh ESE -- 30.03 in1016.9 mb 0.00 in0.0 mm 0.00 in0.0 mm 0.00 in0.0 mm
07:32 PM -13.3°F-25.2°C -16.4°F-26.9°C 86% 5.0 mph ESE8.0 kmh ESE -- 30.03 in1016.9 mb 0.00 in0.0 mm 0.00 in0.0 mm 0.00 in0.0 mm
07:33 PM -13.3°F-25.2°C -16.4°F-26.9°C 86% 3.0 mph E4.8 kmh E -- 30.04 in1017.3 mb 0.00 in0.0 mm 0.00 in0.0 mm 0.00 in0.0 mm
07:35 PM -13.3°F-25.2°C -16.4°F-26.9°C 86% 4.0 mph E6.4 kmh E -- 30.03 in1016.9 mb 0.00 in0.0 mm 0.00 in0.0 mm 0.00 in0.0 mm
07:36 PM -13.3°F-25.2°C -16.4°F-26.9°C 86% 5.0 mph E8.0 kmh E -- 30.03 in1016.9 mb 0.00 in0.0 mm 0.00 in0.0 mm 0.00 in0.0 mm
07:37 PM -13.3°F-25.2°C -16.4°F-26.9°C 86% 4.0 mph ESE6.4 kmh ESE -- 30.03 in1016.9 mb 0.00 in0.0 mm 0.00 in0.0 mm 0.00 in0.0 mm
07:39 PM -13.3°F-25.2°C -16.4°F-26.9°C 86% 5.0 mph ESE8.0 kmh ESE -- 30.03 in1016.9 mb 0.00 in0.0 mm 0.00 in0.0 mm 0.00 in0.0 mm
07:40 PM -13.3°F-25.2°C -16.4°F-26.9°C 86% 4.0 mph ENE6.4 kmh ENE -- 30.04 in1017.3 mb 0.00 in0.0 mm 0.00 in0.0 mm 0.00 in0.0 mm
07:41 PM -13.1°F-25.1°C -16.2°F-26.8°C 86% 4.0 mph ESE6.4 kmh ESE -- 30.03 in1016.9 mb 0.00 in0.0 mm 0.00 in0.0 mm 0.00 in0.0 mm
07:42 PM -13.1°F-25.1°C -16.2°F-26.8°C 86% 3.0 mph ESE4.8 kmh ESE -- 30.03 in1016.9 mb 0.00 in0.0 mm 0.00 in0.0 mm 0.00 in0.0 mm
07:43 PM -13.1°F-25.1°C -16.2°F-26.8°C 86% 4.0 mph ESE6.4 kmh ESE -- 30.03 in1016.9 mb 0.00 in0.0 mm 0.00 in0.0 mm 0.00 in0.0 mm
07:44 PM -13.1°F-25.1°C -16.2°F-26.8°C 86% 3.0 mph ESE4.8 kmh ESE -- 30.03 in1016.9 mb 0.00 in0.0 mm 0.00 in0.0 mm 0.00 in0.0 mm
07:46 PM -13.1°F-25.1°C -16.2°F-26.8°C 86% 4.0 mph E6.4 kmh E -- 30.03 in1016.9 mb 0.00 in0.0 mm 0.00 in0.0 mm 0.00 in0.0 mm
07:47 PM -13.1°F-25.1°C -16.2°F-26.8°C 86% 5.0 mph E8.0 kmh E -- 30.02 in1016.6 mb 0.00 in0.0 mm 0.00 in0.0 mm 0.00 in0.0 mm
07:48 PM -13.1°F-25.1°C -16.2°F-26.8°C 86% 3.0 mph ESE4.8 kmh ESE -- 30.02 in1016.6 mb 0.00 in0.0 mm 0.00 in0.0 mm 0.00 in0.0 mm
07:49 PM -13.1°F-25.1°C -16.2°F-26.8°C 86% 4.0 mph ESE6.4 kmh ESE -- 30.02 in1016.6 mb 0.00 in0.0 mm 0.00 in0.0 mm 0.00 in0.0 mm
07:50 PM -13.1°F-25.1°C -16.2°F-26.8°C 86% 3.0 mph SSE4.8 kmh SSE -- 30.02 in1016.6 mb 0.00 in0.0 mm 0.00 in0.0 mm 0.00 in0.0 mm
07:51 PM -13.1°F-25.1°C -16.2°F-26.8°C 86% 4.0 mph ESE6.4 kmh ESE -- 30.02 in1016.6 mb 0.00 in0.0 mm 0.00 in0.0 mm 0.00 in0.0 mm
07:52 PM -13.1°F-25.1°C -16.2°F-26.8°C 86% 2.0 mph ESE3.2 kmh ESE -- 30.02 in1016.6 mb 0.00 in0.0 mm 0.00 in0.0 mm 0.00 in0.0 mm
07:53 PM -12.9°F-24.9°C -15.8°F-26.6°C 86% 3.0 mph SSE4.8 kmh SSE -- 30.02 in1016.6 mb 0.00 in0.0 mm 0.00 in0.0 mm 0.00 in0.0 mm
07:54 PM -12.9°F-24.9°C -15.8°F-26.6°C 86% 4.0 mph E6.4 kmh E -- 30.02 in1016.6 mb 0.00 in0.0 mm 0.00 in0.0 mm 0.00 in0.0 mm
07:55 PM -12.9°F-24.9°C -15.8°F-26.6°C 86% 4.0 mph ESE6.4 kmh ESE -- 30.02 in1016.6 mb 0.00 in0.0 mm 0.00 in0.0 mm 0.00 in0.0 mm
07:56 PM -12.9°F-24.9°C -15.8°F-26.6°C 86% 4.0 mph E6.4 kmh E -- 30.02 in1016.6 mb 0.00 in0.0 mm 0.00 in0.0 mm 0.00 in0.0 mm
07:57 PM -12.9°F-24.9°C -15.8°F-26.6°C 86% 5.0 mph ESE8.0 kmh ESE -- 30.02 in1016.6 mb 0.00 in0.0 mm 0.00 in0.0 mm 0.00 in0.0 mm
07:58 PM -12.9°F-24.9°C -15.8°F-26.6°C 86% 4.0 mph E6.4 kmh E -- 30.02 in1016.6 mb 0.00 in0.0 mm 0.00 in0.0 mm 0.00 in0.0 mm
07:59 PM -12.9°F-24.9°C -15.8°F-26.6°C 86% 4.0 mph ESE6.4 kmh ESE -- 30.02 in1016.6 mb 0.00 in0.0 mm 0.00 in0.0 mm 0.00 in0.0 mm
08:00 PM -12.9°F-24.9°C -15.8°F-26.6°C 86% 3.0 mph SE4.8 kmh SE -- 30.02 in1016.6 mb 0.00 in0.0 mm 0.00 in0.0 mm 0.00 in0.0 mm
08:01 PM -12.9°F-24.9°C -15.8°F-26.6°C 86% 2.0 mph E3.2 kmh E -- 30.02 in1016.6 mb 0.00 in0.0 mm 0.00 in0.0 mm 0.00 in0.0 mm
08:02 PM -12.9°F-24.9°C -15.8°F-26.6°C 86% 2.0 mph ESE3.2 kmh ESE -- 30.02 in1016.6 mb 0.00 in0.0 mm 0.00 in0.0 mm 0.00 in0.0 mm
08:03 PM -12.9°F-24.9°C -15.8°F-26.6°C 86% 3.0 mph E4.8 kmh E -- 30.02 in1016.6 mb 0.00 in0.0 mm 0.00 in0.0 mm 0.00 in0.0 mm
08:04 PM -12.9°F-24.9°C -15.8°F-26.6°C 86% 3.0 mph ESE4.8 kmh ESE -- 30.02 in1016.6 mb 0.00 in0.0 mm 0.00 in0.0 mm 0.00 in0.0 mm
08:05 PM -12.9°F-24.9°C -15.8°F-26.6°C 86% 2.0 mph E3.2 kmh E -- 30.02 in1016.6 mb 0.00 in0.0 mm 0.00 in0.0 mm 0.00 in0.0 mm
08:07 PM -12.9°F-24.9°C -15.8°F-26.6°C 86% 4.0 mph E6.4 kmh E -- 30.02 in1016.6 mb 0.00 in0.0 mm 0.00 in0.0 mm 0.00 in0.0 mm
08:08 PM -12.9°F-24.9°C -15.8°F-26.6°C 86% 3.0 mph ESE4.8 kmh ESE -- 30.02 in1016.6 mb 0.00 in0.0 mm 0.00 in0.0 mm 0.00 in0.0 mm
08:09 PM -12.9°F-24.9°C -15.8°F-26.6°C 86% 2.0 mph ESE3.2 kmh ESE -- 30.02 in1016.6 mb 0.00 in0.0 mm 0.00 in0.0 mm 0.00 in0.0 mm
08:11 PM -12.9°F-24.9°C -15.8°F-26.6°C 86% 3.0 mph E4.8 kmh E -- 30.01 in1016.3 mb 0.00 in0.0 mm 0.00 in0.0 mm 0.00 in0.0 mm
08:12 PM -12.9°F-24.9°C -15.8°F-26.6°C 86% 3.0 mph ESE4.8 kmh ESE -- 30.01 in1016.3 mb 0.00 in0.0 mm 0.00 in0.0 mm 0.00 in0.0 mm
08:13 PM -12.9°F-24.9°C -15.8°F-26.6°C 86% 4.0 mph ESE6.4 kmh ESE -- 30.01 in1016.3 mb 0.00 in0.0 mm 0.00 in0.0 mm 0.00 in0.0 mm
08:14 PM -12.9°F-24.9°C -15.8°F-26.6°C 86% 3.0 mph E4.8 kmh E -- 30.02 in1016.6 mb 0.00 in0.0 mm 0.00 in0.0 mm 0.00 in0.0 mm
08:15 PM -12.9°F-24.9°C -15.8°F-26.6°C 86% 3.0 mph E4.8 kmh E -- 30.01 in1016.3 mb 0.00 in0.0 mm 0.00 in0.0 mm 0.00 in0.0 mm
08:16 PM -12.9°F-24.9°C -15.8°F-26.6°C 86% 2.0 mph ESE3.2 kmh ESE -- 30.01 in1016.3 mb 0.00 in0.0 mm 0.00 in0.0 mm 0.00 in0.0 mm
08:17 PM -12.9°F-24.9°C -15.8°F-26.6°C 86% 4.0 mph ESE6.4 kmh ESE -- 30.01 in1016.3 mb 0.00 in0.0 mm 0.00 in0.0 mm 0.00 in0.0 mm
08:18 PM -12.9°F-24.9°C -15.8°F-26.6°C 86% 3.0 mph E4.8 kmh E -- 30.01 in1016.3 mb 0.00 in0.0 mm 0.00 in0.0 mm 0.00 in0.0 mm
08:19 PM -12.9°F-24.9°C -15.8°F-26.6°C 86% 3.0 mph ESE4.8 kmh ESE -- 30.01 in1016.3 mb 0.00 in0.0 mm 0.00 in0.0 mm 0.00 in0.0 mm
08:20 PM -12.9°F-24.9°C -15.8°F-26.6°C 86% 4.0 mph E6.4 kmh E -- 30.01 in1016.3 mb 0.00 in0.0 mm 0.00 in0.0 mm 0.00 in0.0 mm
08:21 PM -12.9°F-24.9°C -15.8°F-26.6°C 86% 2.0 mph E3.2 kmh E -- 30.01 in1016.3 mb 0.00 in0.0 mm 0.00 in0.0 mm 0.00 in0.0 mm
08:22 PM -12.9°F-24.9°C -15.8°F-26.6°C 86% 4.0 mph E6.4 kmh E -- 30.01 in1016.3 mb 0.00 in0.0 mm 0.00 in0.0 mm 0.00 in0.0 mm
08:24 PM -12.9°F-24.9°C -15.8°F-26.6°C 86% 3.0 mph ESE4.8 kmh ESE -- 30.01 in1016.3 mb 0.00 in0.0 mm 0.00 in0.0 mm 0.00 in0.0 mm
08:25 PM -12.7°F-24.8°C -15.7°F-26.5°C 86% 2.0 mph E3.2 kmh E -- 30.01 in1016.3 mb 0.00 in0.0 mm 0.00 in0.0 mm 0.00 in0.0 mm
08:26 PM -12.7°F-24.8°C -15.7°F-26.5°C 86% 2.0 mph ESE3.2 kmh ESE -- 30.01 in1016.3 mb 0.00 in0.0 mm 0.00 in0.0 mm 0.00 in0.0 mm
08:28 PM -12.7°F-24.8°C -15.7°F-26.5°C 86% 2.0 mph E3.2 kmh E -- 30.01 in1016.3 mb 0.00 in0.0 mm 0.00 in0.0 mm 0.00 in0.0 mm
08:29 PM -12.7°F-24.8°C -15.7°F-26.5°C 86% 2.0 mph ESE3.2 kmh ESE -- 30.01 in1016.3 mb 0.00 in0.0 mm 0.00 in0.0 mm 0.00 in0.0 mm
08:30 PM -12.7°F-24.8°C -15.7°F-26.5°C 86% 3.0 mph E4.8 kmh E -- 30.01 in1016.3 mb 0.00 in0.0 mm 0.00 in0.0 mm 0.00 in0.0 mm
08:31 PM -12.7°F-24.8°C -15.7°F-26.5°C 86% 3.0 mph ESE4.8 kmh ESE -- 30.00 in1015.9 mb 0.00 in0.0 mm 0.00 in0.0 mm 0.00 in0.0 mm
08:32 PM -12.5°F-24.7°C -15.5°F-26.4°C 86% 2.0 mph ESE3.2 kmh ESE -- 30.01 in1016.3 mb 0.00 in0.0 mm 0.00 in0.0 mm 0.00 in0.0 mm
08:33 PM -12.5°F-24.7°C -15.5°F-26.4°C 86% 1.0 mph ENE1.6 kmh ENE -- 30.01 in1016.3 mb 0.00 in0.0 mm 0.00 in0.0 mm 0.00 in0.0 mm
08:34 PM -12.5°F-24.7°C -15.5°F-26.4°C 86% 2.0 mph E3.2 kmh E -- 30.01 in1016.3 mb 0.00 in0.0 mm 0.00 in0.0 mm 0.00 in0.0 mm
08:35 PM -12.5°F-24.7°C -15.5°F-26.4°C 86% 2.0 mph ESE3.2 kmh ESE -- 30.01 in1016.3 mb 0.00 in0.0 mm 0.00 in0.0 mm 0.00 in0.0 mm
08:37 PM -12.5°F-24.7°C -15.5°F-26.4°C 86% 3.0 mph E4.8 kmh E -- 30.00 in1015.9 mb 0.00 in0.0 mm 0.00 in0.0 mm 0.00 in0.0 mm
08:38 PM -12.5°F-24.7°C -15.5°F-26.4°C 86% 4.0 mph ESE6.4 kmh ESE -- 30.01 in1016.3 mb 0.00 in0.0 mm 0.00 in0.0 mm 0.00 in0.0 mm
08:39 PM -12.5°F-24.7°C -15.5°F-26.4°C 86% 2.0 mph E3.2 kmh E -- 30.01 in1016.3 mb 0.00 in0.0 mm 0.00 in0.0 mm 0.00 in0.0 mm
08:40 PM -12.5°F-24.7°C -15.5°F-26.4°C 86% 3.0 mph SE4.8 kmh SE -- 30.01 in1016.3 mb 0.00 in0.0 mm 0.00 in0.0 mm 0.00 in0.0 mm
08:41 PM -12.5°F-24.7°C -15.5°F-26.4°C 86% 4.0 mph ESE6.4 kmh ESE -- 30.01 in1016.3 mb 0.00 in0.0 mm 0.00 in0.0 mm 0.00 in0.0 mm
08:42 PM -12.5°F-24.7°C -15.5°F-26.4°C 86% 3.0 mph ESE4.8 kmh ESE -- 30.01 in1016.3 mb 0.00 in0.0 mm 0.00 in0.0 mm 0.00 in0.0 mm
08:43 PM -12.5°F-24.7°C -15.5°F-26.4°C 86% 3.0 mph ESE4.8 kmh ESE -- 30.00 in1015.9 mb 0.00 in0.0 mm 0.00 in0.0 mm 0.00 in0.0 mm
08:44 PM -12.5°F-24.7°C -15.5°F-26.4°C 86% 2.0 mph ESE3.2 kmh ESE -- 30.01 in1016.3 mb 0.00 in0.0 mm 0.00 in0.0 mm 0.00 in0.0 mm
08:45 PM -12.5°F-24.7°C -15.5°F-26.4°C 86% 3.0 mph E4.8 kmh E -- 30.01 in1016.3 mb 0.00 in0.0 mm 0.00 in0.0 mm 0.00 in0.0 mm
08:46 PM -12.5°F-24.7°C -15.5°F-26.4°C 86% 2.0 mph ESE3.2 kmh ESE -- 30.01 in1016.3 mb 0.00 in0.0 mm 0.00 in0.0 mm 0.00 in0.0 mm
08:48 PM -12.5°F-24.7°C -15.5°F-26.4°C 86% 1.0 mph ESE1.6 kmh ESE -- 30.01 in1016.3 mb 0.00 in0.0 mm 0.00 in0.0 mm 0.00 in0.0 mm
08:49 PM -12.5°F-24.7°C -15.5°F-26.4°C 86% 2.0 mph E3.2 kmh E -- 30.01 in1016.3 mb 0.00 in0.0 mm 0.00 in0.0 mm 0.00 in0.0 mm
08:51 PM -12.5°F-24.7°C -15.5°F-26.4°C 86% 3.0 mph ESE4.8 kmh ESE -- 30.01 in1016.3 mb 0.00 in0.0 mm 0.00 in0.0 mm 0.00 in0.0 mm
08:52 PM -12.5°F-24.7°C -15.5°F-26.4°C 86% 3.0 mph SSE4.8 kmh SSE -- 30.01 in1016.3 mb 0.00 in0.0 mm 0.00 in0.0 mm 0.00 in0.0 mm
08:53 PM -12.3°F-24.6°C -15.3°F-26.3°C 86% 3.0 mph E4.8 kmh E -- 30.00 in1015.9 mb 0.00 in0.0 mm 0.00 in0.0 mm 0.00 in0.0 mm
08:54 PM -12.3°F-24.6°C -15.3°F-26.3°C 86% 3.0 mph SSE4.8 kmh SSE -- 30.00 in1015.9 mb 0.00 in0.0 mm 0.00 in0.0 mm 0.00 in0.0 mm
08:55 PM -12.3°F-24.6°C -15.3°F-26.3°C 86% 4.0 mph ESE6.4 kmh ESE -- 30.01 in1016.3 mb 0.00 in0.0 mm 0.00 in0.0 mm 0.00 in0.0 mm
08:56 PM -12.3°F-24.6°C -15.3°F-26.3°C 86% 2.0 mph ESE3.2 kmh ESE -- 30.01 in1016.3 mb 0.00 in0.0 mm 0.00 in0.0 mm 0.00 in0.0 mm
08:58 PM -12.3°F-24.6°C -15.3°F-26.3°C 86% 3.0 mph ESE4.8 kmh ESE -- 30.01 in1016.3 mb 0.00 in0.0 mm 0.00 in0.0 mm 0.00 in0.0 mm
08:59 PM -12.3°F-24.6°C -15.3°F-26.3°C 86% 3.0 mph E4.8 kmh E -- 30.01 in1016.3 mb 0.00 in0.0 mm 0.00 in0.0 mm 0.00 in0.0 mm
09:00 PM -12.3°F-24.6°C -15.3°F-26.3°C 86% 4.0 mph ESE6.4 kmh ESE -- 30.01 in1016.3 mb 0.00 in0.0 mm 0.00 in0.0 mm 0.00 in0.0 mm
09:02 PM -12.3°F-24.6°C -15.3°F-26.3°C 86% 3.0 mph ESE4.8 kmh ESE -- 30.01 in1016.3 mb 0.00 in0.0 mm 0.00 in0.0 mm 0.00 in0.0 mm
09:04 PM -12.3°F-24.6°C -15.3°F-26.3°C 86% 4.0 mph ENE6.4 kmh ENE -- 30.00 in1015.9 mb 0.00 in0.0 mm 0.00 in0.0 mm 0.00 in0.0 mm
09:05 PM -12.3°F-24.6°C -15.3°F-26.3°C 86% 4.0 mph ESE6.4 kmh ESE -- 30.00 in1015.9 mb 0.00 in0.0 mm 0.00 in0.0 mm 0.00 in0.0 mm
09:06 PM -12.3°F-24.6°C -15.3°F-26.3°C 86% 3.0 mph ESE4.8 kmh ESE -- 30.00 in1015.9 mb 0.00 in0.0 mm 0.00 in0.0 mm 0.00 in0.0 mm
09:07 PM -12.3°F-24.6°C -15.3°F-26.3°C 86% 3.0 mph ESE4.8 kmh ESE -- 30.01 in1016.3 mb 0.00 in0.0 mm 0.00 in0.0 mm 0.00 in0.0 mm
09:09 PM -12.1°F-24.5°C -15.1°F-26.2°C 86% 3.0 mph SE4.8 kmh SE -- 30.01 in1016.3 mb 0.00 in0.0 mm 0.00 in0.0 mm 0.00 in0.0 mm
09:10 PM -12.1°F-24.5°C -15.1°F-26.2°C 86% 2.0 mph E3.2 kmh E -- 30.01 in1016.3 mb 0.00 in0.0 mm 0.00 in0.0 mm 0.00 in0.0 mm
09:11 PM -12.1°F-24.5°C -15.1°F-26.2°C 86% 2.0 mph SSE3.2 kmh SSE -- 30.00 in1015.9 mb 0.00 in0.0 mm 0.00 in0.0 mm 0.00 in0.0 mm
09:13 PM -12.1°F-24.5°C -15.1°F-26.2°C 86% 2.0 mph SE3.2 kmh SE -- 30.01 in1016.3 mb 0.00 in0.0 mm 0.00 in0.0 mm 0.00 in0.0 mm
09:14 PM -12.1°F-24.5°C -15.1°F-26.2°C 86% 2.0 mph ESE3.2 kmh ESE -- 30.01 in1016.3 mb 0.00 in0.0 mm 0.00 in0.0 mm 0.00 in0.0 mm
09:15 PM -12.1°F-24.5°C -15.1°F-26.2°C 86% 1.0 mph SE1.6 kmh SE -- 30.01 in1016.3 mb 0.00 in0.0 mm 0.00 in0.0 mm 0.00 in0.0 mm
09:16 PM -12.1°F-24.5°C -15.1°F-26.2°C 86% 2.0 mph ESE3.2 kmh ESE -- 30.01 in1016.3 mb 0.00 in0.0 mm 0.00 in0.0 mm 0.00 in0.0 mm
09:18 PM -12.1°F-24.5°C -15.1°F-26.2°C 86% 3.0 mph ESE4.8 kmh ESE -- 30.00 in1015.9 mb 0.00 in0.0 mm 0.00 in0.0 mm 0.00 in0.0 mm
09:19 PM -12.1°F-24.5°C -15.1°F-26.2°C 86% 2.0 mph ESE3.2 kmh ESE -- 30.00 in1015.9 mb 0.00 in0.0 mm 0.00 in0.0 mm 0.00 in0.0 mm
09:23 PM -12.1°F-24.5°C -15.1°F-26.2°C 86% 3.0 mph ESE4.8 kmh ESE -- 30.01 in1016.3 mb 0.00 in0.0 mm 0.00 in0.0 mm 0.00 in0.0 mm
09:25 PM -12.1°F-24.5°C -15.1°F-26.2°C 86% 2.0 mph ESE3.2 kmh ESE -- 30.00 in1015.9 mb 0.00 in0.0 mm 0.00 in0.0 mm 0.00 in0.0 mm
09:26 PM -12.1°F-24.5°C -15.1°F-26.2°C 86% 4.0 mph ESE6.4 kmh ESE -- 30.01 in1016.3 mb 0.00 in0.0 mm 0.00 in0.0 mm 0.00 in0.0 mm
09:27 PM -12.1°F-24.5°C -15.1°F-26.2°C 86% 3.0 mph SE4.8 kmh SE -- 30.00 in1015.9 mb 0.00 in0.0 mm 0.00 in0.0 mm 0.00 in0.0 mm
09:28 PM -12.1°F-24.5°C -15.1°F-26.2°C 86% 2.0 mph SE3.2 kmh SE -- 30.01 in1016.3 mb 0.00 in0.0 mm 0.00 in0.0 mm 0.00 in0.0 mm
09:29 PM -12.1°F-24.5°C -15.1°F-26.2°C 86% 2.0 mph SE3.2 kmh SE -- 30.00 in1015.9 mb 0.00 in0.0 mm 0.00 in0.0 mm 0.00 in0.0 mm
09:30 PM -12.1°F-24.5°C -15.1°F-26.2°C 86% Calm Calm -- 30.00 in1015.9 mb 0.00 in0.0 mm 0.00 in0.0 mm 0.00 in0.0 mm
09:31 PM -12.1°F-24.5°C -15.1°F-26.2°C 86% 2.0 mph SE3.2 kmh SE -- 30.00 in1015.9 mb 0.00 in0.0 mm 0.00 in0.0 mm 0.00 in0.0 mm
09:32 PM -12.1°F-24.5°C -15.1°F-26.2°C 86% 3.0 mph SSE4.8 kmh SSE -- 30.00 in1015.9 mb 0.00 in0.0 mm 0.00 in0.0 mm 0.00 in0.0 mm
09:33 PM -12.1°F-24.5°C -15.1°F-26.2°C 86% 3.0 mph SE4.8 kmh SE -- 30.00 in1015.9 mb 0.00 in0.0 mm 0.00 in0.0 mm 0.00 in0.0 mm
09:34 PM -12.1°F-24.5°C -15.1°F-26.2°C 86% 2.0 mph ESE3.2 kmh ESE -- 30.01 in1016.3 mb 0.00 in0.0 mm 0.00 in0.0 mm 0.00 in0.0 mm
09:35 PM -12.1°F-24.5°C -15.1°F-26.2°C 86% 1.0 mph ESE1.6 kmh ESE -- 30.00 in1015.9 mb 0.00 in0.0 mm 0.00 in0.0 mm 0.00 in0.0 mm
09:36 PM -12.1°F-24.5°C -15.1°F-26.2°C 86% 4.0 mph ESE6.4 kmh ESE -- 30.01 in1016.3 mb 0.00 in0.0 mm 0.00 in0.0 mm 0.00 in0.0 mm
09:37 PM -12.1°F-24.5°C -15.1°F-26.2°C 86% 3.0 mph ESE4.8 kmh ESE -- 30.01 in1016.3 mb 0.00 in0.0 mm 0.00 in0.0 mm 0.00 in0.0 mm
09:38 PM -12.1°F-24.5°C -15.1°F-26.2°C 86% 3.0 mph SSE4.8 kmh SSE -- 30.01 in1016.3 mb 0.00 in0.0 mm 0.00 in0.0 mm 0.00 in0.0 mm
09:39 PM -12.1°F-24.5°C -15.1°F-26.2°C 86% 3.0 mph ESE4.8 kmh ESE -- 30.00 in1015.9 mb 0.00 in0.0 mm 0.00 in0.0 mm 0.00 in0.0 mm
09:40 PM -12.1°F-24.5°C -15.1°F-26.2°C 86% 2.0 mph ESE3.2 kmh ESE -- 30.01 in1016.3 mb 0.00 in0.0 mm 0.00 in0.0 mm 0.00 in0.0 mm
09:41 PM -12.1°F-24.5°C -15.1°F-26.2°C 86% 2.0 mph E3.2 kmh E -- 30.01 in1016.3 mb 0.00 in0.0 mm 0.00 in0.0 mm 0.00 in0.0 mm
09:42 PM -12.1°F-24.5°C -15.1°F-26.2°C 86% 3.0 mph E4.8 kmh E -- 30.01 in1016.3 mb 0.00 in0.0 mm 0.00 in0.0 mm 0.00 in0.0 mm
09:43 PM -12.1°F-24.5°C -15.1°F-26.2°C 86% 4.0 mph E6.4 kmh E -- 30.00 in1015.9 mb 0.00 in0.0 mm 0.00 in0.0 mm 0.00 in0.0 mm
09:44 PM -12.1°F-24.5°C -15.1°F-26.2°C 86% 3.0 mph SE4.8 kmh SE -- 30.00 in1015.9 mb 0.00 in0.0 mm 0.00 in0.0 mm 0.00 in0.0 mm
09:45 PM -12.1°F-24.5°C -15.1°F-26.2°C 86% 4.0 mph ESE6.4 kmh ESE -- 30.01 in1016.3 mb 0.00 in0.0 mm 0.00 in0.0 mm 0.00 in0.0 mm
09:46 PM -12.1°F-24.5°C -15.1°F-26.2°C 86% 2.0 mph E3.2 kmh E -- 30.00 in1015.9 mb 0.00 in0.0 mm 0.00 in0.0 mm 0.00 in0.0 mm
09:47 PM -12.1°F-24.5°C -15.1°F-26.2°C 86% 3.0 mph ESE4.8 kmh ESE -- 30.00 in1015.9 mb 0.00 in0.0 mm 0.00 in0.0 mm 0.00 in0.0 mm
09:48 PM -12.1°F-24.5°C -15.1°F-26.2°C 86% 3.0 mph E4.8 kmh E -- 30.00 in1015.9 mb 0.00 in0.0 mm 0.00 in0.0 mm 0.00 in0.0 mm
09:49 PM -12.1°F-24.5°C -15.1°F-26.2°C 86% 4.0 mph ESE6.4 kmh ESE -- 30.00 in1015.9 mb 0.00 in0.0 mm 0.00 in0.0 mm 0.00 in0.0 mm
09:51 PM -12.1°F-24.5°C -15.1°F-26.2°C 86% 3.0 mph ESE4.8 kmh ESE -- 30.00 in1015.9 mb 0.00 in0.0 mm 0.00 in0.0 mm 0.00 in0.0 mm
09:52 PM -12.1°F-24.5°C -15.1°F-26.2°C 86% 2.0 mph E3.2 kmh E -- 30.00 in1015.9 mb 0.00 in0.0 mm 0.00 in0.0 mm 0.00 in0.0 mm
09:53 PM -12.1°F-24.5°C -15.1°F-26.2°C 86% 3.0 mph ENE4.8 kmh ENE -- 30.00 in1015.9 mb 0.00 in0.0 mm 0.00 in0.0 mm 0.00 in0.0 mm
09:54 PM -12.1°F-24.5°C -15.1°F-26.2°C 86% 4.0 mph ESE6.4 kmh ESE -- 30.00 in1015.9 mb 0.00 in0.0 mm 0.00 in0.0 mm 0.00 in0.0 mm
09:55 PM -12.1°F-24.5°C -15.1°F-26.2°C 86% 2.0 mph ESE3.2 kmh ESE -- 30.00 in1015.9 mb 0.00 in0.0 mm 0.00 in0.0 mm 0.00 in0.0 mm
09:57 PM -12.1°F-24.5°C -15.1°F-26.2°C 86% 3.0 mph ESE4.8 kmh ESE -- 30.00 in1015.9 mb 0.00 in0.0 mm 0.00 in0.0 mm 0.00 in0.0 mm
09:58 PM -12.1°F-24.5°C -15.1°F-26.2°C 86% 2.0 mph ESE3.2 kmh ESE -- 30.00 in1015.9 mb 0.00 in0.0 mm 0.00 in0.0 mm 0.00 in0.0 mm
09:59 PM -12.1°F-24.5°C -15.1°F-26.2°C 86% 3.0 mph ESE4.8 kmh ESE -- 29.99 in1015.6 mb 0.00 in0.0 mm 0.00 in0.0 mm 0.00 in0.0 mm
10:00 PM -11.8°F-24.3°C -14.8°F-26.0°C 86% 2.0 mph ESE3.2 kmh ESE -- 29.99 in1015.6 mb 0.00 in0.0 mm 0.00 in0.0 mm 0.00 in0.0 mm
10:01 PM -11.8°F-24.3°C -14.8°F-26.0°C 86% 2.0 mph SE3.2 kmh SE -- 29.99 in1015.6 mb 0.00 in0.0 mm 0.00 in0.0 mm 0.00 in0.0 mm
10:02 PM -11.8°F-24.3°C -14.8°F-26.0°C 86% 2.0 mph ESE3.2 kmh ESE -- 30.00 in1015.9 mb 0.00 in0.0 mm 0.00 in0.0 mm 0.00 in0.0 mm
10:03 PM -11.8°F-24.3°C -14.8°F-26.0°C 86% 3.0 mph SSE4.8 kmh SSE -- 29.99 in1015.6 mb 0.00 in0.0 mm 0.00 in0.0 mm 0.00 in0.0 mm
10:04 PM -11.8°F-24.3°C -14.8°F-26.0°C 86% 2.0 mph ESE3.2 kmh ESE -- 29.99 in1015.6 mb 0.00 in0.0 mm 0.00 in0.0 mm 0.00 in0.0 mm
10:05 PM -11.8°F-24.3°C -14.8°F-26.0°C 86% 3.0 mph SSE4.8 kmh SSE -- 30.00 in1015.9 mb 0.00 in0.0 mm 0.00 in0.0 mm 0.00 in0.0 mm
10:06 PM -11.8°F-24.3°C -14.8°F-26.0°C 86% 2.0 mph SSE3.2 kmh SSE -- 30.00 in1015.9 mb 0.00 in0.0 mm 0.00 in0.0 mm 0.00 in0.0 mm
10:07 PM -11.8°F-24.3°C -14.8°F-26.0°C 86% 2.0 mph ESE3.2 kmh ESE -- 29.99 in1015.6 mb 0.00 in0.0 mm 0.00 in0.0 mm 0.00 in0.0 mm
10:08 PM -11.8°F-24.3°C -14.8°F-26.0°C 86% 4.0 mph ESE6.4 kmh ESE -- 29.99 in1015.6 mb 0.00 in0.0 mm 0.00 in0.0 mm 0.00 in0.0 mm
10:09 PM -11.8°F-24.3°C -14.8°F-26.0°C 86% 3.0 mph ESE4.8 kmh ESE -- 29.99 in1015.6 mb 0.00 in0.0 mm 0.00 in0.0 mm 0.00 in0.0 mm
10:10 PM -12.1°F-24.5°C -15.1°F-26.2°C 86% 3.0 mph SSE4.8 kmh SSE -- 29.99 in1015.6 mb 0.00 in0.0 mm 0.00 in0.0 mm 0.00 in0.0 mm
10:11 PM -12.1°F-24.5°C -15.1°F-26.2°C 86% 4.0 mph ESE6.4 kmh ESE -- 29.99 in1015.6 mb 0.00 in0.0 mm 0.00 in0.0 mm 0.00 in0.0 mm
10:12 PM -12.1°F-24.5°C -15.1°F-26.2°C 86% 2.0 mph ESE3.2 kmh ESE -- 30.00 in1015.9 mb 0.00 in0.0 mm 0.00 in0.0 mm 0.00 in0.0 mm
10:13 PM -12.1°F-24.5°C -15.1°F-26.2°C 86% 2.0 mph ESE3.2 kmh ESE -- 29.99 in1015.6 mb 0.00 in0.0 mm 0.00 in0.0 mm 0.00 in0.0 mm
10:14 PM -12.3°F-24.6°C -15.3°F-26.3°C 86% 3.0 mph ESE4.8 kmh ESE -- 29.99 in1015.6 mb 0.00 in0.0 mm 0.00 in0.0 mm 0.00 in0.0 mm
10:15 PM -12.3°F-24.6°C -15.3°F-26.3°C 86% 2.0 mph ESE3.2 kmh ESE -- 29.99 in1015.6 mb 0.00 in0.0 mm 0.00 in0.0 mm 0.00 in0.0 mm
10:16 PM -12.3°F-24.6°C -15.3°F-26.3°C 86% 1.0 mph E1.6 kmh E -- 29.99 in1015.6 mb 0.00 in0.0 mm 0.00 in0.0 mm 0.00 in0.0 mm
10:17 PM -12.5°F-24.7°C -15.5°F-26.4°C 86% 2.0 mph E3.2 kmh E -- 29.99 in1015.6 mb 0.00 in0.0 mm 0.00 in0.0 mm 0.00 in0.0 mm
10:18 PM -12.5°F-24.7°C -15.5°F-26.4°C 86% 4.0 mph ESE6.4 kmh ESE -- 29.99 in1015.6 mb 0.00 in0.0 mm 0.00 in0.0 mm 0.00 in0.0 mm
10:19 PM -12.7°F-24.8°C -15.7°F-26.5°C 86% 2.0 mph E3.2 kmh E -- 29.99 in1015.6 mb 0.00 in0.0 mm 0.00 in0.0 mm 0.00 in0.0 mm
10:20 PM -12.7°F-24.8°C -15.7°F-26.5°C 86% 2.0 mph ESE3.2 kmh ESE -- 29.99 in1015.6 mb 0.00 in0.0 mm 0.00 in0.0 mm 0.00 in0.0 mm
10:23 PM -12.7°F-24.8°C -15.7°F-26.5°C 86% Calm Calm -- 29.99 in1015.6 mb 0.00 in0.0 mm 0.00 in0.0 mm 0.00 in0.0 mm
10:26 PM -12.7°F-24.8°C -15.7°F-26.5°C 86% Calm Calm -- 29.99 in1015.6 mb 0.00 in0.0 mm 0.00 in0.0 mm 0.00 in0.0 mm
10:27 PM -12.7°F-24.8°C -15.7°F-26.5°C 86% 1.0 mph E1.6 kmh E -- 29.99 in1015.6 mb 0.00 in0.0 mm 0.00 in0.0 mm 0.00 in0.0 mm
10:28 PM -12.9°F-24.9°C -15.8°F-26.6°C 86% 2.0 mph E3.2 kmh E -- 29.99 in1015.6 mb 0.00 in0.0 mm 0.00 in0.0 mm 0.00 in0.0 mm
10:29 PM -12.9°F-24.9°C -15.8°F-26.6°C 86% 2.0 mph ESE3.2 kmh ESE -- 29.98 in1015.2 mb 0.00 in0.0 mm 0.00 in0.0 mm 0.00 in0.0 mm
10:30 PM -13.1°F-25.1°C -16.2°F-26.8°C 86% 1.0 mph ESE1.6 kmh ESE -- 29.98 in1015.2 mb 0.00 in0.0 mm 0.00 in0.0 mm 0.00 in0.0 mm
10:31 PM -13.1°F-25.1°C -16.2°F-26.8°C 86% 1.0 mph ESE1.6 kmh ESE -- 29.99 in1015.6 mb 0.00 in0.0 mm 0.00 in0.0 mm 0.00 in0.0 mm
10:34 PM -13.3°F-25.2°C -16.4°F-26.9°C 86% 1.0 mph ESE1.6 kmh ESE -- 29.99 in1015.6 mb 0.00 in0.0 mm 0.00 in0.0 mm 0.00 in0.0 mm
10:37 PM -13.5°F-25.3°C -16.5°F-26.9°C 86% 1.0 mph ESE1.6 kmh ESE -- 29.99 in1015.6 mb 0.00 in0.0 mm 0.00 in0.0 mm 0.00 in0.0 mm
10:40 PM -13.6°F-25.3°C -16.5°F-26.9°C 86% Calm Calm -- 29.99 in1015.6 mb 0.00 in0.0 mm 0.00 in0.0 mm 0.00 in0.0 mm
10:41 PM -13.6°F-25.3°C -16.5°F-26.9°C 86% Calm Calm -- 29.98 in1015.2 mb 0.00 in0.0 mm 0.00 in0.0 mm 0.00 in0.0 mm
10:42 PM -13.6°F-25.3°C -16.5°F-26.9°C 86% Calm Calm -- 29.99 in1015.6 mb 0.00 in0.0 mm 0.00 in0.0 mm 0.00 in0.0 mm
10:44 PM -13.8°F-25.4°C -16.7°F-27.1°C 86% Calm Calm -- 29.99 in1015.6 mb 0.00 in0.0 mm 0.00 in0.0 mm 0.00 in0.0 mm
10:48 PM -14.1°F-25.6°C -17.1°F-27.3°C 86% Calm Calm -- 29.99 in1015.6 mb 0.00 in0.0 mm 0.00 in0.0 mm 0.00 in0.0 mm
11:05 PM -13.8°F-25.4°C -16.7°F-27.1°C 86% Calm Calm -- 29.99 in1015.6 mb 0.00 in0.0 mm 0.00 in0.0 mm 0.00 in0.0 mm
11:11 PM -13.6°F-25.3°C -16.5°F-26.9°C 86% Calm Calm -- 29.99 in1015.6 mb 0.00 in0.0 mm 0.00 in0.0 mm 0.00 in0.0 mm
11:13 PM -13.6°F-25.3°C -16.5°F-26.9°C 86% Calm Calm -- 29.98 in1015.2 mb 0.00 in0.0 mm 0.00 in0.0 mm 0.00 in0.0 mm
11:15 PM -13.6°F-25.3°C -16.5°F-26.9°C 86% Calm Calm -- 29.99 in1015.6 mb 0.00 in0.0 mm 0.00 in0.0 mm 0.00 in0.0 mm
11:17 PM -13.6°F-25.3°C -16.5°F-26.9°C 86% Calm Calm -- 29.99 in1015.6 mb 0.00 in0.0 mm 0.00 in0.0 mm 0.00 in0.0 mm
11:19 PM -13.6°F-25.3°C -16.5°F-26.9°C 86% 1.0 mph E1.6 kmh E -- 29.99 in1015.6 mb 0.00 in0.0 mm 0.00 in0.0 mm 0.00 in0.0 mm
11:21 PM -13.5°F-25.3°C -16.5°F-26.9°C 86% Calm Calm -- 29.98 in1015.2 mb 0.00 in0.0 mm 0.00 in0.0 mm 0.00 in0.0 mm
11:22 PM -13.5°F-25.3°C -16.5°F-26.9°C 86% 1.0 mph ENE1.6 kmh ENE -- 29.99 in1015.6 mb 0.00 in0.0 mm 0.00 in0.0 mm 0.00 in0.0 mm
11:23 PM -13.5°F-25.3°C -16.5°F-26.9°C 86% 1.0 mph ESE1.6 kmh ESE -- 29.98 in1015.2 mb 0.00 in0.0 mm 0.00 in0.0 mm 0.00 in0.0 mm
11:24 PM -13.3°F-25.2°C -16.4°F-26.9°C 86% Calm Calm -- 29.99 in1015.6 mb 0.00 in0.0 mm 0.00 in0.0 mm 0.00 in0.0 mm
11:26 PM -13.3°F-25.2°C -16.4°F-26.9°C 86% 2.0 mph ESE3.2 kmh ESE -- 29.99 in1015.6 mb 0.00 in0.0 mm 0.00 in0.0 mm 0.00 in0.0 mm
11:27 PM -13.1°F-25.1°C -16.2°F-26.8°C 86% 1.0 mph SE1.6 kmh SE -- 29.98 in1015.2 mb 0.00 in0.0 mm 0.00 in0.0 mm 0.00 in0.0 mm
11:28 PM -12.9°F-24.9°C -15.4°F-26.3°C 88% 1.0 mph ESE1.6 kmh ESE -- 29.98 in1015.2 mb 0.00 in0.0 mm 0.00 in0.0 mm 0.00 in0.0 mm
11:31 PM -12.9°F-24.9°C -15.4°F-26.3°C 88% Calm Calm -- 29.98 in1015.2 mb 0.00 in0.0 mm 0.00 in0.0 mm 0.00 in0.0 mm
11:35 PM -12.9°F-24.9°C -15.4°F-26.3°C 88% Calm Calm -- 29.99 in1015.6 mb 0.00 in0.0 mm 0.00 in0.0 mm 0.00 in0.0 mm
11:36 PM -12.9°F-24.9°C -15.4°F-26.3°C 88% 1.0 mph NE1.6 kmh NE -- 29.99 in1015.6 mb 0.00 in0.0 mm 0.00 in0.0 mm 0.00 in0.0 mm
11:37 PM -12.9°F-24.9°C -15.4°F-26.3°C 88% Calm Calm -- 29.98 in1015.2 mb 0.00 in0.0 mm 0.00 in0.0 mm 0.00 in0.0 mm
11:38 PM -12.9°F-24.9°C -15.4°F-26.3°C 88% 1.0 mph NE1.6 kmh NE -- 29.98 in1015.2 mb 0.00 in0.0 mm 0.00 in0.0 mm 0.00 in0.0 mm
11:39 PM -12.9°F-24.9°C -15.4°F-26.3°C 88% 1.0 mph ENE1.6 kmh ENE -- 29.99 in1015.6 mb 0.00 in0.0 mm 0.00 in0.0 mm 0.00 in0.0 mm
11:40 PM -12.9°F-24.9°C -15.4°F-26.3°C 88% 2.0 mph NNE3.2 kmh NNE -- 29.99 in1015.6 mb 0.00 in0.0 mm 0.00 in0.0 mm 0.00 in0.0 mm
11:41 PM -12.9°F-24.9°C -15.4°F-26.3°C 88% 1.0 mph NNE1.6 kmh NNE -- 29.98 in1015.2 mb 0.00 in0.0 mm 0.00 in0.0 mm 0.00 in0.0 mm
11:43 PM -12.9°F-24.9°C -15.4°F-26.3°C 88% Calm Calm -- 29.98 in1015.2 mb 0.00 in0.0 mm 0.00 in0.0 mm 0.00 in0.0 mm
11:45 PM -12.9°F-24.9°C -15.4°F-26.3°C 88% 1.0 mph NNE1.6 kmh NNE -- 29.99 in1015.6 mb 0.00 in0.0 mm 0.00 in0.0 mm 0.00 in0.0 mm
11:46 PM -12.9°F-24.9°C -15.4°F-26.3°C 88% 1.0 mph NE1.6 kmh NE -- 29.99 in1015.6 mb 0.00 in0.0 mm 0.00 in0.0 mm 0.00 in0.0 mm
11:47 PM -12.9°F-24.9°C -15.4°F-26.3°C 88% 1.0 mph NE1.6 kmh NE -- 29.98 in1015.2 mb 0.00 in0.0 mm 0.00 in0.0 mm 0.00 in0.0 mm
11:48 PM -12.9°F-24.9°C -15.4°F-26.3°C 88% Calm Calm -- 29.98 in1015.2 mb 0.00 in0.0 mm 0.00 in0.0 mm 0.00 in0.0 mm
11:49 PM -12.9°F-24.9°C -15.4°F-26.3°C 88% Calm Calm -- 29.99 in1015.6 mb 0.00 in0.0 mm 0.00 in0.0 mm 0.00 in0.0 mm
11:50 PM -12.9°F-24.9°C -15.4°F-26.3°C 88% Calm Calm -- 29.98 in1015.2 mb 0.00 in0.0 mm 0.00 in0.0 mm 0.00 in0.0 mm
11:51 PM -12.9°F-24.9°C -15.4°F-26.3°C 88% Calm Calm -- 29.99 in1015.6 mb 0.00 in0.0 mm 0.00 in0.0 mm 0.00 in0.0 mm
11:53 PM -12.7°F-24.8°C -15.2°F-26.2°C 88% Calm Calm -- 29.99 in1015.6 mb 0.00 in0.0 mm 0.00 in0.0 mm 0.00 in0.0 mm
11:54 PM -12.7°F-24.8°C -15.2°F-26.2°C 88% 1.0 mph ENE1.6 kmh ENE -- 29.99 in1015.6 mb 0.00 in0.0 mm 0.00 in0.0 mm 0.00 in0.0 mm
11:55 PM -12.5°F-24.7°C -15.0°F-26.1°C 88% Calm Calm -- 29.99 in1015.6 mb 0.00 in0.0 mm 0.00 in0.0 mm 0.00 in0.0 mm
11:57 PM -12.5°F-24.7°C -15.0°F-26.1°C 88% Calm Calm -- 29.98 in1015.2 mb 0.00 in0.0 mm 0.00 in0.0 mm 0.00 in0.0 mm